Site Date RecNum LOGGERID PROGID Year_RTM Day_RTM Hour_Minute_RTM AIRTEMP_MEAN_150_0_02 AIRTEMP_MEAN_450_0_01 RELHUM_MEAN_150_0_02 RELHUM_MEAN_450_0_01 DEWPT_MEAN_150_0_02 DEWPT_MEAN_450_0_01 WSPD_PRO_MEAN_500_0_01 WMAG_PRO_MEAN_500_0_01 WDIR_PRO_MEAN_500_0_01 WDIR_PRO_STDDEV_500_0_01 SATVP_MEAN_150_0_02 VAP_MEAN_150_0_02 VPD_MEAN_150_0_02 SATVP_MEAN_450_0_01 VAP_MEAN_450_0_01 VPD_MEAN_450_0_01
H15MET 2017-11-21 14:15:00 2687 208 900.0 2017.0 325.00 1415.0 10.8700 10.5600 100.000 100.000 10.8700 10.5600 0.03200 0.03200 38.49 1.046 13.013 13.013 -0.000 12.747 12.747 0.000
H15MET 2017-11-21 14:00:00 2686 208 900.0 2017.0 325.00 1400.0 10.8800 10.5200 100.000 100.000 10.8800 10.5200 0.03900 0.03400 31.84 10.290 13.022 13.022 0.000 12.713 12.713 0.000
H15MET 2017-11-21 13:45:00 2685 208 900.0 2017.0 325.00 1345.0 10.8000 10.5100 100.000 100.000 10.8000 10.5100 0.00100 0.00100 350.50 0.342 12.953 12.953 0.000 12.705 12.705 0.000
H15MET 2017-11-21 13:30:00 2684 208 900.0 2017.0 325.00 1330.0 10.8200 10.5700 100.000 100.000 10.8200 10.5700 0.05100 0.04900 64.85 1.329 12.970 12.970 0.000 12.756 12.756 0.000
H15MET 2017-11-21 13:15:00 2683 208 900.0 2017.0 325.00 1315.0 10.7900 10.6000 100.000 100.000 10.7900 10.6000 0.02500 0.02500 58.06 1.483 12.944 12.944 0.000 12.781 12.781 0.000
H15MET 2017-11-21 13:00:00 2682 208 900.0 2017.0 325.00 1300.0 10.7100 10.5600 100.000 100.000 10.7100 10.5600 0.02600 0.02600 59.58 0.200 12.875 12.875 0.000 12.747 12.747 0.000
H15MET 2017-11-21 12:45:00 2681 208 900.0 2017.0 325.00 1245.0 10.6500 10.5400 100.000 100.000 10.6500 10.5400 0.00600 0.00600 44.18 0.082 12.824 12.824 0.000 12.730 12.730 0.000
H15MET 2017-11-21 12:30:00 2680 208 900.0 2017.0 325.00 1230.0 10.6200 10.5300 100.000 100.000 10.6200 10.5300 0.00500 0.00500 69.34 0.013 12.798 12.798 0.000 12.722 12.722 0.000
H15MET 2017-11-21 12:15:00 2679 208 900.0 2017.0 325.00 1215.0 10.4500 10.3800 100.000 100.000 10.4500 10.3800 0.04000 0.04000 67.63 0.568 12.654 12.654 0.000 12.595 12.595 0.000
H15MET 2017-11-21 12:00:00 2678 208 900.0 2017.0 325.00 1200.0 10.1700 10.1500 100.000 100.000 10.1700 10.1500 0.02100 0.01800 74.00 2.551 12.419 12.419 0.000 12.403 12.403 0.000
H15MET 2017-11-21 11:45:00 2677 208 900.0 2017.0 325.00 1145.0 9.9900 9.9900 100.000 100.000 9.9900 9.9900 0.01700 0.01700 71.60 0.966 12.271 12.271 0.000 12.271 12.271 0.000
H15MET 2017-11-21 11:30:00 2676 208 900.0 2017.0 325.00 1130.0 9.6600 9.6300 100.000 100.000 9.6600 9.6300 0.00000 0.00000 0.00 0.000 12.002 12.002 0.000 11.978 11.978 0.000
H15MET 2017-11-21 11:15:00 2675 208 900.0 2017.0 325.00 1115.0 9.4100 9.4400 100.000 100.000 9.4100 9.4400 0.00000 0.00000 0.00 0.000 11.802 11.802 0.000 11.826 11.826 0.000
H15MET 2017-11-21 11:00:00 2674 208 900.0 2017.0 325.00 1100.0 9.3900 9.4000 100.000 100.000 9.3900 9.4000 0.00000 0.00000 0.00 0.000 11.786 11.786 0.000 11.794 11.794 0.000
H15MET 2017-11-21 10:45:00 2673 208 900.0 2017.0 325.00 1045.0 9.2500 9.2100 100.000 100.000 9.2500 9.2100 0.03400 0.03400 71.80 0.103 11.675 11.675 0.000 11.644 11.644 -0.000
H15MET 2017-11-21 10:30:00 2672 208 900.0 2017.0 325.00 1030.0 9.2400 9.2600 100.000 100.000 9.2400 9.2600 0.01100 0.01100 56.31 0.161 11.667 11.667 -0.000 11.683 11.683 0.000
H15MET 2017-11-21 10:15:00 2671 208 900.0 2017.0 325.00 1015.0 9.3100 9.3300 100.000 100.000 9.3100 9.3300 0.00000 0.00000 0.00 0.000 11.722 11.722 0.000 11.738 11.738 -0.000
H15MET 2017-11-21 10:00:00 2670 208 900.0 2017.0 325.00 1000.0 9.2800 9.3100 100.000 100.000 9.2800 9.3100 0.00000 0.00000 0.00 0.000 11.699 11.699 0.000 11.722 11.722 0.000
H15MET 2017-11-21 09:45:00 2669 208 900.0 2017.0 325.00 945.0 9.1300 9.2000 100.000 100.000 9.1300 9.2000 0.00000 0.00000 0.00 0.000 11.581 11.581 -0.000 11.636 11.636 0.000
H15MET 2017-11-21 09:30:00 2668 208 900.0 2017.0 325.00 930.0 9.0700 9.1200 100.000 100.000 9.0700 9.1200 0.00000 0.00000 0.00 0.000 11.534 11.534 0.000 11.573 11.573 -0.000
H15MET 2017-11-21 09:15:00 2667 208 900.0 2017.0 325.00 915.0 8.7700 8.8200 100.000 100.000 8.7700 8.8200 0.00000 0.00000 0.00 0.000 11.303 11.303 0.000 11.341 11.341 0.000
H15MET 2017-11-21 09:00:00 2666 208 900.0 2017.0 325.00 900.0 8.7800 8.8100 100.000 100.000 8.7800 8.8100 0.00000 0.00000 0.00 0.000 11.310 11.310 0.000 11.333 11.333 0.000
H15MET 2017-11-21 08:45:00 2665 208 900.0 2017.0 325.00 845.0 8.7600 8.7600 100.000 100.000 8.7600 8.7600 0.00000 0.00000 0.00 0.000 11.295 11.295 0.000 11.295 11.295 0.000
H15MET 2017-11-21 08:30:00 2664 208 900.0 2017.0 325.00 830.0 8.7500 8.8400 100.000 100.000 8.7500 8.8400 0.00000 0.00000 0.00 0.000 11.287 11.287 0.000 11.356 11.356 0.000
H15MET 2017-11-21 08:15:00 2663 208 900.0 2017.0 325.00 815.0 8.6800 8.7900 100.000 100.000 8.6800 8.7900 0.00000 0.00000 0.00 0.000 11.234 11.234 0.000 11.318 11.318 0.000
H15MET 2017-11-21 08:00:00 2662 208 900.0 2017.0 325.00 800.0 8.8000 9.1000 100.000 100.000 8.8000 9.1000 0.00000 0.00000 0.00 0.000 11.326 11.326 0.000 11.558 11.558 0.000
H15MET 2017-11-21 07:45:00 2661 208 900.0 2017.0 325.00 745.0 8.5400 8.7000 100.000 100.000 8.5400 8.7000 0.00000 0.00000 0.00 0.000 11.128 11.128 0.000 11.249 11.249 0.000
H15MET 2017-11-21 07:30:00 2660 208 900.0 2017.0 325.00 730.0 8.3600 8.4300 100.000 100.000 8.3600 8.4300 0.00000 0.00000 0.00 0.000 10.993 10.993 0.000 11.045 11.045 -0.000
H15MET 2017-11-21 07:15:00 2659 208 900.0 2017.0 325.00 715.0 8.3600 8.4100 100.000 100.000 8.3600 8.4100 0.00000 0.00000 0.00 0.000 10.993 10.993 0.000 11.030 11.030 0.000
H15MET 2017-11-21 07:00:00 2658 208 900.0 2017.0 325.00 700.0 8.2800 8.3000 100.000 100.000 8.2800 8.3000 0.00000 0.00000 0.00 0.000 10.933 10.933 0.000 10.948 10.948 0.000
H15MET 2017-11-21 06:45:00 2657 208 900.0 2017.0 325.00 645.0 8.2900 8.3600 100.000 100.000 8.2900 8.3600 0.00000 0.00000 0.00 0.000 10.941 10.941 0.000 10.993 10.993 0.000
H15MET 2017-11-21 06:30:00 2656 208 900.0 2017.0 325.00 630.0 8.3100 8.4100 100.000 100.000 8.3100 8.4100 0.00000 0.00000 0.00 0.000 10.956 10.956 -0.000 11.030 11.030 0.000
H15MET 2017-11-21 06:15:00 2655 208 900.0 2017.0 325.00 615.0 8.5400 8.7700 100.000 100.000 8.5400 8.7700 0.00000 0.00000 0.00 0.000 11.128 11.128 0.000 11.303 11.303 0.000
H15MET 2017-11-21 06:00:00 2654 208 900.0 2017.0 325.00 600.0 7.9900 8.1600 100.000 100.000 7.9900 8.1600 0.00300 0.00300 82.30 0.060 10.720 10.720 0.000 10.844 10.844 0.000
H15MET 2017-11-21 05:45:00 2653 208 900.0 2017.0 325.00 545.0 7.9500 7.9800 100.000 100.000 7.9500 7.9800 0.08100 0.08000 77.40 2.218 10.691 10.691 -0.000 10.712 10.712 0.000
H15MET 2017-11-21 05:30:00 2652 208 900.0 2017.0 325.00 530.0 7.9400 8.1400 100.000 100.000 7.9400 8.1400 0.03700 0.03700 72.90 0.541 10.683 10.683 0.000 10.830 10.830 0.000
H15MET 2017-11-21 05:15:00 2651 208 900.0 2017.0 325.00 515.0 7.7500 7.8900 100.000 100.000 7.7500 7.8900 0.00000 0.00000 0.00 0.000 10.546 10.546 0.000 10.647 10.647 -0.000
H15MET 2017-11-21 05:00:00 2650 208 900.0 2017.0 325.00 500.0 7.7400 7.8400 100.000 100.000 7.7400 7.8400 0.00000 0.00000 0.00 0.000 10.539 10.539 0.000 10.611 10.611 0.000
H15MET 2017-11-21 04:45:00 2649 208 900.0 2017.0 325.00 445.0 7.7600 7.9300 100.000 100.000 7.7600 7.9300 0.00000 0.00000 0.00 0.000 10.553 10.553 -0.000 10.676 10.676 0.000
H15MET 2017-11-21 04:30:00 2648 208 900.0 2017.0 325.00 430.0 7.9100 8.1800 100.000 100.000 7.9100 8.1800 0.00000 0.00000 0.00 0.000 10.661 10.661 0.000 10.859 10.859 0.000
H15MET 2017-11-21 04:15:00 2647 208 900.0 2017.0 325.00 415.0 7.8000 7.9100 100.000 100.000 7.8000 7.9100 0.00000 0.00000 0.00 0.000 10.582 10.582 0.000 10.661 10.661 0.000
H15MET 2017-11-21 04:00:00 2646 208 900.0 2017.0 325.00 400.0 7.7700 7.8100 100.000 100.000 7.7700 7.8100 0.00600 0.00600 82.00 0.173 10.560 10.560 0.000 10.589 10.589 0.000
H15MET 2017-11-21 03:45:00 2645 208 900.0 2017.0 325.00 345.0 7.8800 8.1200 100.000 100.000 7.8800 8.1200 0.02100 0.02100 80.70 0.176 10.640 10.640 -0.000 10.815 10.815 0.000
H15MET 2017-11-21 03:30:00 2644 208 900.0 2017.0 325.00 330.0 7.9600 8.2700 100.000 100.000 7.9600 8.2700 0.00000 0.00000 0.00 0.000 10.698 10.698 -0.000 10.926 10.926 0.000
H15MET 2017-11-21 03:15:00 2643 208 900.0 2017.0 325.00 315.0 8.1900 8.4900 100.000 100.000 8.1900 8.4900 0.00000 0.00000 0.00 0.000 10.867 10.867 0.000 11.090 11.090 0.000
H15MET 2017-11-21 03:00:00 2642 208 900.0 2017.0 325.00 300.0 7.9700 8.2800 100.000 100.000 7.9700 8.2800 0.00000 0.00000 0.00 0.000 10.705 10.705 0.000 10.933 10.933 0.000
H15MET 2017-11-21 02:45:00 2641 208 900.0 2017.0 325.00 245.0 7.5300 7.7200 100.000 100.000 7.5300 7.7200 0.00000 0.00000 0.00 0.000 10.388 10.388 0.000 10.524 10.524 0.000
H15MET 2017-11-21 02:30:00 2640 208 900.0 2017.0 325.00 230.0 7.0100 7.0600 100.000 100.000 7.0100 7.0600 0.09800 0.06100 295.10 21.390 10.025 10.025 0.000 10.059 10.059 0.000
H15MET 2017-11-21 02:15:00 2639 208 900.0 2017.0 325.00 215.0 6.6650 6.6810 100.000 100.000 6.6650 6.6800 0.00000 0.00000 0.00 0.000 9.790 9.790 0.000 9.801 9.800 0.000
H15MET 2017-11-21 02:00:00 2638 208 900.0 2017.0 325.00 200.0 6.5280 6.4970 100.000 100.000 6.5280 6.4970 0.00000 0.00000 0.00 0.000 9.698 9.698 0.000 9.677 9.677 0.000
H15MET 2017-11-21 01:45:00 2637 208 900.0 2017.0 325.00 145.0 6.3240 6.3300 100.000 100.000 6.3240 6.3300 0.00000 0.00000 0.00 0.000 9.562 9.562 0.000 9.566 9.566 0.000
H15MET 2017-11-21 01:30:00 2636 208 900.0 2017.0 325.00 130.0 6.2600 6.3220 100.000 100.000 6.2600 6.3220 0.00000 0.00000 0.00 0.000 9.520 9.520 0.000 9.561 9.561 0.000
H15MET 2017-11-21 01:15:00 2635 208 900.0 2017.0 325.00 115.0 6.1110 6.1940 100.000 100.000 6.1110 6.1940 0.00000 0.00000 0.00 0.000 9.423 9.423 0.000 9.477 9.477 0.000
H15MET 2017-11-21 01:00:00 2634 208 900.0 2017.0 325.00 100.0 6.0440 6.0550 100.000 100.000 6.0440 6.0540 0.00000 0.00000 0.00 0.000 9.379 9.379 0.000 9.386 9.386 0.000
H15MET 2017-11-21 00:45:00 2633 208 900.0 2017.0 325.00 45.0 5.9250 5.9040 100.000 100.000 5.9250 5.9040 0.00000 0.00000 0.00 0.000 9.302 9.302 0.000 9.289 9.289 0.000
H15MET 2017-11-21 00:30:00 2632 208 900.0 2017.0 325.00 30.0 5.8160 5.8800 100.000 100.000 5.8160 5.8800 0.00000 0.00000 0.00 0.000 9.232 9.232 0.000 9.273 9.273 0.000
H15MET 2017-11-21 00:15:00 2631 208 900.0 2017.0 325.00 15.0 5.7140 5.8110 100.000 100.000 5.7140 5.8110 0.00000 0.00000 0.00 0.000 9.167 9.167 0.000 9.229 9.229 0.000
H15MET 2017-11-21 00:00:00 2630 208 900.0 2017.0 324.00 2400.0 5.6280 5.6900 100.000 100.000 5.6280 5.6900 0.00000 0.00000 0.00 0.000 9.112 9.112 0.000 9.152 9.152 0.000
H15MET 2017-11-20 23:45:00 2629 208 900.0 2017.0 324.00 2345.0 5.6040 5.5730 100.000 100.000 5.6040 5.5730 0.00000 0.00000 0.00 0.000 9.097 9.097 0.000 9.078 9.078 0.000
H15MET 2017-11-20 23:30:00 2628 208 900.0 2017.0 324.00 2330.0 5.5400 5.5500 100.000 100.000 5.5400 5.5500 0.00000 0.00000 0.00 0.000 9.057 9.057 0.000 9.063 9.063 0.000
H15MET 2017-11-20 23:15:00 2627 208 900.0 2017.0 324.00 2315.0 5.4980 5.5420 100.000 100.000 5.4980 5.5420 0.00000 0.00000 0.00 0.000 9.031 9.031 0.000 9.058 9.058 0.000
H15MET 2017-11-20 23:00:00 2626 208 900.0 2017.0 324.00 2300.0 5.3860 5.4280 100.000 100.000 5.3860 5.4280 0.00000 0.00000 0.00 0.000 8.960 8.960 0.000 8.987 8.987 0.000
H15MET 2017-11-20 22:45:00 2625 208 900.0 2017.0 324.00 2245.0 5.2950 5.3640 100.000 100.000 5.2950 5.3640 0.00000 0.00000 0.00 0.000 8.904 8.904 0.000 8.947 8.947 0.000
H15MET 2017-11-20 22:30:00 2624 208 900.0 2017.0 324.00 2230.0 5.2370 5.3240 100.000 100.000 5.2370 5.3240 0.00000 0.00000 0.00 0.000 8.868 8.868 0.000 8.922 8.922 0.000
H15MET 2017-11-20 22:15:00 2623 208 900.0 2017.0 324.00 2215.0 5.1400 5.2040 100.000 100.000 5.1400 5.2040 0.00000 0.00000 0.00 0.000 8.808 8.808 0.000 8.848 8.848 0.000
H15MET 2017-11-20 22:00:00 2622 208 900.0 2017.0 324.00 2200.0 5.0830 5.0880 100.000 100.000 5.0830 5.0880 0.00000 0.00000 0.00 0.000 8.773 8.773 0.000 8.776 8.776 0.000
H15MET 2017-11-20 21:45:00 2621 208 900.0 2017.0 324.00 2145.0 5.0440 5.0640 100.000 100.000 5.0440 5.0640 0.00000 0.00000 0.00 0.000 8.749 8.749 0.000 8.762 8.762 0.000
H15MET 2017-11-20 21:30:00 2620 208 900.0 2017.0 324.00 2130.0 4.9900 5.0080 100.000 100.000 4.9900 5.0080 0.00000 0.00000 0.00 0.000 8.717 8.717 0.000 8.728 8.728 0.000
H15MET 2017-11-20 21:15:00 2619 208 900.0 2017.0 324.00 2115.0 5.0110 5.0330 100.000 100.000 5.0110 5.0330 0.00000 0.00000 0.00 0.000 8.729 8.729 0.000 8.743 8.743 0.000
H15MET 2017-11-20 21:00:00 2618 208 900.0 2017.0 324.00 2100.0 4.9110 4.8700 100.000 100.000 4.9110 4.8700 0.00000 0.00000 0.00 0.000 8.669 8.669 0.000 8.644 8.644 0.000
H15MET 2017-11-20 20:45:00 2617 208 900.0 2017.0 324.00 2045.0 4.8780 4.8070 100.000 100.000 4.8780 4.8060 0.00000 0.00000 0.00 0.000 8.649 8.649 0.000 8.606 8.605 0.000
H15MET 2017-11-20 20:30:00 2616 208 900.0 2017.0 324.00 2030.0 4.8400 4.8800 100.000 100.000 4.8400 4.8800 0.00000 0.00000 0.00 0.000 8.626 8.626 0.000 8.650 8.650 0.000
H15MET 2017-11-20 20:15:00 2615 208 900.0 2017.0 324.00 2015.0 4.8230 4.7970 100.000 100.000 4.8230 4.7970 0.00000 0.00000 0.00 0.000 8.615 8.615 0.000 8.600 8.600 0.000
H15MET 2017-11-20 20:00:00 2614 208 900.0 2017.0 324.00 2000.0 4.8180 4.8270 100.000 100.000 4.8180 4.8270 0.00000 0.00000 0.00 0.000 8.612 8.612 0.000 8.618 8.618 0.000
H15MET 2017-11-20 19:45:00 2613 208 900.0 2017.0 324.00 1945.0 4.7640 4.6860 100.000 100.000 4.7640 4.6860 0.00000 0.00000 0.00 0.000 8.580 8.580 0.000 8.533 8.533 0.000
H15MET 2017-11-20 19:30:00 2612 208 900.0 2017.0 324.00 1930.0 4.7040 4.6550 100.000 100.000 4.7040 4.6550 0.00000 0.00000 0.00 0.000 8.544 8.544 0.000 8.515 8.515 0.000
H15MET 2017-11-20 19:15:00 2611 208 900.0 2017.0 324.00 1915.0 4.7210 4.6040 100.000 100.000 4.7210 4.6040 0.00000 0.00000 0.00 0.000 8.554 8.554 0.000 8.484 8.484 0.000
H15MET 2017-11-20 19:00:00 2610 208 900.0 2017.0 324.00 1900.0 4.7300 4.5930 100.000 100.000 4.7300 4.5930 0.00000 0.00000 0.00 0.000 8.560 8.560 0.000 8.478 8.478 0.000
H15MET 2017-11-20 18:45:00 2609 208 900.0 2017.0 324.00 1845.0 4.7040 4.6120 100.000 100.000 4.7040 4.6120 0.00000 0.00000 0.00 0.000 8.544 8.544 0.000 8.489 8.489 0.000
H15MET 2017-11-20 18:30:00 2608 208 900.0 2017.0 324.00 1830.0 4.7090 4.6410 100.000 100.000 4.7090 4.6410 0.00000 0.00000 0.00 0.000 8.547 8.547 0.000 8.506 8.506 0.000
H15MET 2017-11-20 18:15:00 2607 208 900.0 2017.0 324.00 1815.0 4.6870 4.5940 100.000 100.000 4.6870 4.5940 0.00000 0.00000 0.00 0.000 8.534 8.534 0.000 8.479 8.479 0.000
H15MET 2017-11-20 18:00:00 2606 208 900.0 2017.0 324.00 1800.0 4.6910 4.5700 100.000 100.000 4.6910 4.5700 0.00000 0.00000 0.00 0.000 8.536 8.536 0.000 8.464 8.464 0.000
H15MET 2017-11-20 17:45:00 2605 208 900.0 2017.0 324.00 1745.0 4.8040 4.6680 100.000 100.000 4.8040 4.6680 0.00000 0.00000 0.00 0.000 8.604 8.604 0.000 8.523 8.523 0.000
H15MET 2017-11-20 17:30:00 2604 208 900.0 2017.0 324.00 1730.0 4.8290 4.7580 100.000 100.000 4.8290 4.7580 0.06000 0.02900 299.10 0.795 8.619 8.619 0.000 8.576 8.576 0.000
H15MET 2017-11-20 17:15:00 2603 208 900.0 2017.0 324.00 1715.0 4.8250 4.6590 100.000 100.000 4.8250 4.6590 0.03500 0.03500 58.54 0.156 8.617 8.617 0.000 8.517 8.517 0.000
H15MET 2017-11-20 17:00:00 2602 208 900.0 2017.0 324.00 1700.0 4.9190 4.8430 100.000 100.000 4.9190 4.8430 0.03700 0.03700 76.50 0.812 8.673 8.673 0.000 8.628 8.628 0.000
H15MET 2017-11-20 16:45:00 2601 208 900.0 2017.0 324.00 1645.0 4.9150 4.8510 100.000 100.000 4.9150 4.8510 0.01800 0.00300 330.00 0.338 8.671 8.671 0.000 8.632 8.632 0.000
H15MET 2017-11-20 16:30:00 2600 208 900.0 2017.0 324.00 1630.0 4.9100 4.8910 100.000 100.000 4.9100 4.8910 0.01700 0.01700 75.50 1.503 8.668 8.668 0.000 8.657 8.657 0.000
H15MET 2017-11-20 16:15:00 2599 208 900.0 2017.0 324.00 1615.0 4.9350 4.9300 100.000 100.000 4.9350 4.9300 0.00400 0.00400 75.50 0.012 8.683 8.683 0.000 8.680 8.680 0.000
H15MET 2017-11-20 16:00:00 2598 208 900.0 2017.0 324.00 1600.0 4.9520 4.9130 100.000 100.000 4.9520 4.9130 0.00000 0.00000 0.00 0.000 8.693 8.693 0.000 8.670 8.670 0.000
H15MET 2017-11-20 15:45:00 2597 208 900.0 2017.0 324.00 1545.0 5.0320 5.0490 100.000 100.000 5.0320 5.0490 0.02400 0.02400 75.20 0.066 8.742 8.742 0.000 8.753 8.753 0.000
H15MET 2017-11-20 15:30:00 2596 208 900.0 2017.0 324.00 1530.0 5.0410 5.0150 100.000 100.000 5.0410 5.0150 0.00000 0.00000 0.00 0.000 8.748 8.748 0.000 8.732 8.732 0.000
H15MET 2017-11-20 15:15:00 2595 208 900.0 2017.0 324.00 1515.0 5.1520 5.2280 100.000 100.000 5.1520 5.2280 0.00000 0.00000 0.00 0.000 8.816 8.816 0.000 8.862 8.862 0.000
H15MET 2017-11-20 15:00:00 2594 208 900.0 2017.0 324.00 1500.0 5.1880 5.2690 100.000 100.000 5.1880 5.2690 0.00000 0.00000 0.00 0.000 8.838 8.838 0.000 8.888 8.888 0.000
H15MET 2017-11-20 14:45:00 2593 208 900.0 2017.0 324.00 1445.0 5.2500 5.2750 100.000 100.000 5.2500 5.2750 0.00900 0.00900 87.70 0.000 8.876 8.876 0.000 8.892 8.892 0.000
H15MET 2017-11-20 14:30:00 2592 208 900.0 2017.0 324.00 1430.0 5.3770 5.4490 100.000 100.000 5.3770 5.4480 0.01900 0.01900 81.00 0.015 8.955 8.955 0.000 9.000 8.999 0.000
H15MET 2017-11-20 14:15:00 2591 208 900.0 2017.0 324.00 1415.0 5.5530 5.7640 100.000 100.000 5.5530 5.7640 0.03600 0.03600 325.40 1.433 9.065 9.065 0.000 9.199 9.199 0.000
H15MET 2017-11-20 14:00:00 2590 208 900.0 2017.0 324.00 1400.0 5.4720 5.8280 100.000 100.000 5.4720 5.8280 0.00000 0.00000 0.00 0.000 9.014 9.014 0.000 9.240 9.240 0.000
H15MET 2017-11-20 13:45:00 2589 208 900.0 2017.0 324.00 1345.0 5.4830 5.8040 100.000 100.000 5.4830 5.8040 0.00000 0.00000 0.00 0.000 9.021 9.021 0.000 9.224 9.224 0.000
H15MET 2017-11-20 13:30:00 2588 208 900.0 2017.0 324.00 1330.0 5.6210 5.8980 100.000 100.000 5.6210 5.8980 0.00000 0.00000 0.00 0.000 9.108 9.108 0.000 9.285 9.285 0.000
H15MET 2017-11-20 13:15:00 2587 208 900.0 2017.0 324.00 1315.0 5.7500 5.9950 100.000 100.000 5.7500 5.9950 0.01200 0.01200 73.80 0.571 9.190 9.190 0.000 9.347 9.347 0.000
H15MET 2017-11-20 13:00:00 2586 208 900.0 2017.0 324.00 1300.0 6.0300 6.2510 100.000 100.000 6.0300 6.2510 0.00300 0.00300 70.30 0.826 9.370 9.370 0.000 9.514 9.514 0.000
H15MET 2017-11-20 12:45:00 2585 208 900.0 2017.0 324.00 1245.0 6.2620 6.4220 100.000 100.000 6.2620 6.4220 0.00500 0.00500 43.32 0.347 9.522 9.522 0.000 9.627 9.627 0.000
H15MET 2017-11-20 12:30:00 2584 208 900.0 2017.0 324.00 1230.0 6.9240 6.8880 100.000 100.000 6.9240 6.8880 0.00000 0.00000 0.00 0.000 9.966 9.966 0.000 9.941 9.941 0.000
H15MET 2017-11-20 12:15:00 2583 208 900.0 2017.0 324.00 1215.0 6.9420 6.9180 100.000 100.000 6.9420 6.9180 0.01700 0.01700 50.81 2.699 9.978 9.978 0.000 9.962 9.962 0.000
H15MET 2017-11-20 12:00:00 2582 208 900.0 2017.0 324.00 1200.0 6.9420 7.1000 100.000 100.000 6.9420 7.1000 0.14700 0.08400 103.80 30.650 9.978 9.978 0.000 10.087 10.087 0.000
H15MET 2017-11-20 11:45:00 2581 208 900.0 2017.0 324.00 1145.0 6.9530 7.3300 100.000 100.000 6.9530 7.3300 0.30700 0.20300 133.40 30.660 9.986 9.986 0.000 10.247 10.247 0.000
H15MET 2017-11-20 11:30:00 2580 208 900.0 2017.0 324.00 1130.0 7.4100 7.9000 100.000 100.000 7.4100 7.9000 0.02500 0.00500 167.60 18.050 10.304 10.304 0.000 10.654 10.654 0.000
H15MET 2017-11-20 11:15:00 2579 208 900.0 2017.0 324.00 1115.0 7.9500 8.2100 100.000 100.000 7.9500 8.2100 0.04400 0.03300 51.79 2.771 10.691 10.691 -0.000 10.881 10.881 0.000
H15MET 2017-11-20 11:00:00 2578 208 900.0 2017.0 324.00 1100.0 8.2800 8.4300 100.000 100.000 8.2800 8.4300 0.11300 0.06800 340.30 28.460 10.933 10.933 0.000 11.045 11.045 -0.000
H15MET 2017-11-20 10:45:00 2577 208 900.0 2017.0 324.00 1045.0 8.3200 8.4200 100.000 100.000 8.3200 8.4200 0.19200 0.13900 16.36 26.130 10.963 10.963 0.000 11.038 11.038 0.000
H15MET 2017-11-20 10:30:00 2576 208 900.0 2017.0 324.00 1030.0 8.3700 8.4700 100.000 100.000 8.3700 8.4700 0.24000 0.16200 17.00 34.000 11.000 11.000 0.000 11.075 11.075 0.000
H15MET 2017-11-20 10:15:00 2575 208 900.0 2017.0 324.00 1015.0 8.2700 8.4300 100.000 100.000 8.2700 8.4300 0.28900 0.22200 44.21 24.030 10.926 10.926 0.000 11.045 11.045 -0.000
H15MET 2017-11-20 10:00:00 2574 208 900.0 2017.0 324.00 1000.0 8.0700 8.2200 100.000 100.000 8.0700 8.2200 0.36300 0.25300 16.93 34.560 10.778 10.778 0.000 10.889 10.889 0.000
H15MET 2017-11-20 09:45:00 2573 208 900.0 2017.0 324.00 945.0 7.7400 7.9200 100.000 100.000 7.7400 7.9200 0.27300 0.23400 10.17 21.490 10.539 10.539 0.000 10.669 10.669 0.000
H15MET 2017-11-20 09:30:00 2572 208 900.0 2017.0 324.00 930.0 7.4500 7.7500 100.000 100.000 7.4500 7.7500 0.05800 0.04900 26.33 10.610 10.332 10.332 0.000 10.546 10.546 0.000
H15MET 2017-11-20 09:15:00 2571 208 900.0 2017.0 324.00 915.0 7.3200 7.5500 100.000 100.000 7.3200 7.5500 0.17700 0.14700 42.00 16.050 10.240 10.240 0.000 10.403 10.403 0.000
H15MET 2017-11-20 09:00:00 2570 208 900.0 2017.0 324.00 900.0 6.9610 7.3000 100.000 100.000 6.9610 7.3000 0.37300 0.26500 357.10 36.270 9.991 9.991 0.000 10.226 10.226 0.000
H15MET 2017-11-20 08:45:00 2569 208 900.0 2017.0 324.00 845.0 6.8050 7.1700 100.000 100.000 6.8050 7.1700 0.03700 0.03100 2.84 3.050 9.885 9.885 0.000 10.136 10.136 0.000
H15MET 2017-11-20 08:30:00 2568 208 900.0 2017.0 324.00 830.0 6.0640 6.6270 100.000 100.000 6.0640 6.6270 0.11000 0.06300 10.04 24.560 9.392 9.392 0.000 9.764 9.764 0.000
H15MET 2017-11-20 08:15:00 2567 208 900.0 2017.0 324.00 815.0 5.3070 5.7330 100.000 100.000 5.3070 5.7330 0.09300 0.07400 72.70 16.930 8.911 8.911 0.000 9.179 9.179 0.000
H15MET 2017-11-20 08:00:00 2566 208 900.0 2017.0 324.00 800.0 5.2240 5.5900 100.000 100.000 5.2240 5.5900 0.13200 0.13000 75.30 5.740 8.860 8.860 0.000 9.088 9.088 0.000
H15MET 2017-11-20 07:45:00 2565 208 900.0 2017.0 324.00 745.0 5.3310 5.9000 100.000 100.000 5.3310 5.9000 0.06500 0.06500 64.72 1.353 8.926 8.926 0.000 9.286 9.286 0.000
H15MET 2017-11-20 07:30:00 2564 208 900.0 2017.0 324.00 730.0 5.3410 5.8590 100.000 100.000 5.3410 5.8590 0.03400 0.03400 65.45 1.292 8.932 8.932 0.000 9.260 9.260 0.000
H15MET 2017-11-20 07:15:00 2563 208 900.0 2017.0 324.00 715.0 5.3190 5.7810 100.000 100.000 5.3190 5.7810 0.01100 0.01100 86.90 0.623 8.919 8.919 0.000 9.210 9.210 0.000
H15MET 2017-11-20 07:00:00 2562 208 900.0 2017.0 324.00 700.0 5.3190 5.7480 100.000 100.000 5.3190 5.7480 0.07800 0.07600 72.30 5.305 8.919 8.919 0.000 9.189 9.189 0.000
H15MET 2017-11-20 06:45:00 2561 208 900.0 2017.0 324.00 645.0 4.9800 5.4720 100.000 100.000 4.9800 5.4720 0.02100 0.02100 69.34 0.336 8.710 8.710 0.000 9.014 9.014 0.000
H15MET 2017-11-20 06:30:00 2560 208 900.0 2017.0 324.00 630.0 5.0950 5.4540 100.000 100.000 5.0950 5.4540 0.07200 0.07100 77.40 2.399 8.781 8.781 0.000 9.003 9.003 0.000
H15MET 2017-11-20 06:15:00 2559 208 900.0 2017.0 324.00 615.0 4.9940 5.3590 100.000 100.000 4.9940 5.3590 0.10700 0.10300 63.64 6.914 8.719 8.719 0.000 8.944 8.944 0.000
H15MET 2017-11-20 06:00:00 2558 208 900.0 2017.0 324.00 600.0 5.0370 5.3450 100.000 100.000 5.0370 5.3450 0.00000 0.00000 0.00 0.000 8.745 8.745 0.000 8.935 8.935 0.000
H15MET 2017-11-20 05:45:00 2557 208 900.0 2017.0 324.00 545.0 5.0150 5.4240 100.000 100.000 5.0150 5.4240 0.03000 0.02900 334.60 3.775 8.732 8.732 0.000 8.984 8.984 0.000
H15MET 2017-11-20 05:30:00 2556 208 900.0 2017.0 324.00 530.0 4.7700 5.2910 100.000 100.000 4.7700 5.2910 0.00000 0.00000 0.00 0.000 8.584 8.584 0.000 8.901 8.901 0.000
H15MET 2017-11-20 05:15:00 2555 208 900.0 2017.0 324.00 515.0 4.4610 4.8710 100.000 100.000 4.4610 4.8710 0.00000 0.00000 0.00 0.000 8.400 8.400 0.000 8.644 8.644 0.000
H15MET 2017-11-20 05:00:00 2554 208 900.0 2017.0 324.00 500.0 4.4250 4.7940 100.000 100.000 4.4250 4.7940 0.11900 0.11900 64.45 1.744 8.379 8.379 0.000 8.598 8.598 0.000
H15MET 2017-11-20 04:45:00 2553 208 900.0 2017.0 324.00 445.0 4.4740 5.0100 100.000 100.000 4.4740 5.0100 0.11300 0.11200 74.50 1.938 8.408 8.408 0.000 8.729 8.729 0.000
H15MET 2017-11-20 04:30:00 2552 208 900.0 2017.0 324.00 430.0 4.5230 5.0390 100.000 100.000 4.5230 5.0380 0.09300 0.09200 63.90 2.287 8.436 8.436 0.000 8.746 8.746 0.000
H15MET 2017-11-20 04:15:00 2551 208 900.0 2017.0 324.00 415.0 4.3120 4.6540 100.000 100.000 4.3120 4.6540 0.07100 0.06300 65.62 12.830 8.313 8.313 0.000 8.514 8.514 0.000
H15MET 2017-11-20 04:00:00 2550 208 900.0 2017.0 324.00 400.0 4.0910 4.5190 100.000 100.000 4.0910 4.5190 0.15200 0.15100 71.50 3.059 8.184 8.184 0.000 8.434 8.434 0.000
H15MET 2017-11-20 03:45:00 2549 208 900.0 2017.0 324.00 345.0 4.0990 4.5310 100.000 100.000 4.0990 4.5310 0.02600 0.02500 54.25 3.917 8.189 8.189 0.000 8.441 8.441 0.000
H15MET 2017-11-20 03:30:00 2548 208 900.0 2017.0 324.00 330.0 4.1050 4.5320 100.000 100.000 4.1050 4.5320 0.03100 0.03100 56.42 0.847 8.193 8.193 0.000 8.442 8.442 0.000
H15MET 2017-11-20 03:15:00 2547 208 900.0 2017.0 324.00 315.0 4.2380 4.6680 100.000 100.000 4.2380 4.6680 0.18100 0.17700 57.78 6.227 8.269 8.269 0.000 8.523 8.523 0.000
H15MET 2017-11-20 03:00:00 2546 208 900.0 2017.0 324.00 300.0 3.9500 4.4290 100.000 100.000 3.9500 4.4290 0.18000 0.17900 66.44 3.657 8.104 8.104 0.000 8.381 8.381 0.000
H15MET 2017-11-20 02:45:00 2545 208 900.0 2017.0 324.00 245.0 4.0170 4.4450 100.000 100.000 4.0170 4.4450 0.19800 0.18700 67.02 12.460 8.142 8.142 0.000 8.390 8.390 0.000
H15MET 2017-11-20 02:30:00 2544 208 900.0 2017.0 324.00 230.0 3.8880 4.3930 100.000 100.000 3.8880 4.3930 0.03400 0.03400 59.48 0.708 8.068 8.068 0.000 8.360 8.360 0.000
H15MET 2017-11-20 02:15:00 2543 208 900.0 2017.0 324.00 215.0 3.7720 4.2480 100.000 100.000 3.7720 4.2480 0.00300 0.00300 24.46 0.942 8.003 8.003 0.000 8.275 8.275 0.000
H15MET 2017-11-20 02:00:00 2542 208 900.0 2017.0 324.00 200.0 3.9160 4.4010 100.000 100.000 3.9160 4.4010 0.00000 0.00000 0.00 0.000 8.084 8.084 0.000 8.365 8.365 0.000
H15MET 2017-11-20 01:45:00 2541 208 900.0 2017.0 324.00 145.0 4.0550 4.5680 100.000 100.000 4.0550 4.5680 0.00000 0.00000 0.00 0.000 8.164 8.164 0.000 8.463 8.463 0.000
H15MET 2017-11-20 01:30:00 2540 208 900.0 2017.0 324.00 130.0 3.8380 4.2360 100.000 100.000 3.8380 4.2360 0.04200 0.04200 70.10 2.954 8.040 8.040 0.000 8.268 8.268 0.000
H15MET 2017-11-20 01:15:00 2539 208 900.0 2017.0 324.00 115.0 3.6550 4.0510 100.000 100.000 3.6550 4.0510 0.04800 0.04600 68.14 7.070 7.937 7.937 0.000 8.161 8.161 0.000
H15MET 2017-11-20 01:00:00 2538 208 900.0 2017.0 324.00 100.0 3.3750 3.7900 100.000 100.000 3.3750 3.7900 0.19500 0.18100 60.26 10.070 7.781 7.781 0.000 8.013 8.013 0.000
H15MET 2017-11-20 00:45:00 2537 208 900.0 2017.0 324.00 45.0 2.9910 3.3240 100.000 100.000 2.9910 3.3240 0.00000 0.00000 0.00 0.000 7.572 7.572 0.000 7.753 7.753 0.000
H15MET 2017-11-20 00:30:00 2536 208 900.0 2017.0 324.00 30.0 2.9480 3.2400 100.000 100.000 2.9480 3.2400 0.04000 0.03500 52.89 8.990 7.549 7.549 0.000 7.707 7.707 0.000
H15MET 2017-11-20 00:15:00 2535 208 900.0 2017.0 324.00 15.0 3.0430 3.4610 100.000 100.000 3.0430 3.4610 0.17600 0.17400 66.48 4.406 7.600 7.600 0.000 7.829 7.829 0.000
H15MET 2017-11-20 00:00:00 2534 208 900.0 2017.0 323.00 2400.0 2.8790 3.1910 100.000 100.000 2.8790 3.1910 0.07900 0.07800 64.43 4.658 7.512 7.512 0.000 7.681 7.681 0.000
H15MET 2017-11-19 23:45:00 2533 208 900.0 2017.0 323.00 2345.0 2.8060 3.0920 100.000 100.000 2.8060 3.0920 0.02700 0.02300 106.00 10.070 7.474 7.474 0.000 7.627 7.627 0.000
H15MET 2017-11-19 23:30:00 2532 208 900.0 2017.0 323.00 2330.0 2.6890 2.9370 100.000 100.000 2.6890 2.9370 0.04100 0.04000 56.04 4.375 7.412 7.412 0.000 7.544 7.544 0.000
H15MET 2017-11-19 23:15:00 2531 208 900.0 2017.0 323.00 2315.0 2.5020 2.6870 100.000 100.000 2.5020 2.6870 0.05900 0.05900 60.14 1.113 7.314 7.314 0.000 7.411 7.411 0.000
H15MET 2017-11-19 23:00:00 2530 208 900.0 2017.0 323.00 2300.0 2.1790 2.3420 100.000 100.000 2.1790 2.3420 0.02000 0.02000 61.20 0.135 7.147 7.147 0.000 7.231 7.231 0.000
H15MET 2017-11-19 22:45:00 2529 208 900.0 2017.0 323.00 2245.0 2.0710 2.1810 100.000 100.000 2.0710 2.1810 0.00000 0.00000 0.00 0.000 7.092 7.092 0.000 7.148 7.148 0.000
H15MET 2017-11-19 22:30:00 2528 208 900.0 2017.0 323.00 2230.0 1.8660 1.9800 100.000 100.000 1.8660 1.9800 0.00000 0.00000 0.00 0.000 6.989 6.989 0.000 7.046 7.046 -0.000
H15MET 2017-11-19 22:15:00 2527 208 900.0 2017.0 323.00 2215.0 1.7640 1.8100 100.000 100.000 1.7640 1.8100 0.00000 0.00000 0.00 0.000 6.938 6.938 0.000 6.961 6.961 0.000
H15MET 2017-11-19 22:00:00 2526 208 900.0 2017.0 323.00 2200.0 1.7090 1.7360 100.000 100.000 1.7090 1.7360 0.00000 0.00000 0.00 0.000 6.911 6.911 0.000 6.924 6.924 0.000
H15MET 2017-11-19 21:45:00 2525 208 900.0 2017.0 323.00 2145.0 1.7290 1.7390 100.000 100.000 1.7290 1.7390 0.00000 0.00000 0.00 0.000 6.920 6.920 0.000 6.925 6.925 0.000
H15MET 2017-11-19 21:30:00 2524 208 900.0 2017.0 323.00 2130.0 1.6810 1.7190 100.000 100.000 1.6810 1.7180 0.00000 0.00000 0.00 0.000 6.897 6.897 0.000 6.915 6.915 0.000
H15MET 2017-11-19 21:15:00 2523 208 900.0 2017.0 323.00 2115.0 1.6370 1.6420 100.000 100.000 1.6370 1.6420 0.00000 0.00000 0.00 0.000 6.875 6.875 0.000 6.877 6.877 0.000
H15MET 2017-11-19 21:00:00 2522 208 900.0 2017.0 323.00 2100.0 1.6410 1.6700 100.000 100.000 1.6410 1.6700 0.00000 0.00000 0.00 0.000 6.877 6.877 0.000 6.891 6.891 -0.000
H15MET 2017-11-19 20:45:00 2521 208 900.0 2017.0 323.00 2045.0 1.5280 1.5150 100.000 100.000 1.5280 1.5150 0.00000 0.00000 92.90 0.000 6.821 6.821 0.000 6.815 6.815 0.000
H15MET 2017-11-19 20:30:00 2520 208 900.0 2017.0 323.00 2030.0 1.4760 1.4660 100.000 100.000 1.4760 1.4660 0.00000 0.00000 0.00 0.000 6.796 6.796 0.000 6.791 6.791 0.000
H15MET 2017-11-19 20:15:00 2519 208 900.0 2017.0 323.00 2015.0 1.4640 1.4620 100.000 100.000 1.4640 1.4620 0.05300 0.05200 56.59 2.780 6.790 6.790 0.000 6.789 6.789 0.000
H15MET 2017-11-19 20:00:00 2518 208 900.0 2017.0 323.00 2000.0 1.4260 1.4210 100.000 100.000 1.4260 1.4210 0.10800 0.10800 65.42 0.891 6.771 6.771 0.000 6.769 6.769 0.000
H15MET 2017-11-19 19:45:00 2517 208 900.0 2017.0 323.00 1945.0 1.4000 1.4160 100.000 100.000 1.4000 1.4160 0.02300 0.02100 63.55 0.562 6.759 6.759 0.000 6.767 6.767 0.000
H15MET 2017-11-19 19:30:00 2516 208 900.0 2017.0 323.00 1930.0 1.3870 1.4240 100.000 100.000 1.3870 1.4240 0.10700 0.10300 54.99 3.822 6.753 6.753 0.000 6.771 6.771 0.000
H15MET 2017-11-19 19:15:00 2515 208 900.0 2017.0 323.00 1915.0 1.2870 1.2980 100.000 100.000 1.2870 1.2980 0.25600 0.24200 58.60 13.730 6.704 6.704 0.000 6.709 6.709 0.000
H15MET 2017-11-19 19:00:00 2514 208 900.0 2017.0 323.00 1900.0 1.2910 1.2970 100.000 100.000 1.2910 1.2970 0.16700 0.15100 70.00 13.420 6.706 6.706 0.000 6.709 6.709 0.000
H15MET 2017-11-19 18:45:00 2513 208 900.0 2017.0 323.00 1845.0 1.1970 1.2060 100.000 100.000 1.1970 1.2060 0.14000 0.14000 61.57 0.647 6.661 6.661 -0.000 6.665 6.665 0.000
H15MET 2017-11-19 18:30:00 2512 208 900.0 2017.0 323.00 1830.0 1.1550 1.1400 100.000 100.000 1.1550 1.1400 0.00000 0.00000 0.00 0.000 6.641 6.641 0.000 6.633 6.633 0.000
H15MET 2017-11-19 18:15:00 2511 208 900.0 2017.0 323.00 1815.0 1.0960 1.0760 100.000 100.000 1.0960 1.0760 0.00000 0.00000 0.00 0.000 6.612 6.612 0.000 6.603 6.603 0.000
H15MET 2017-11-19 18:00:00 2510 208 900.0 2017.0 323.00 1800.0 0.9090 0.8510 100.000 100.000 0.9090 0.8510 0.00000 0.00000 0.00 0.000 6.524 6.524 0.000 6.497 6.497 -0.000
H15MET 2017-11-19 17:45:00 2509 208 900.0 2017.0 323.00 1745.0 0.8890 0.7840 100.000 100.000 0.8890 0.7840 0.00000 0.00000 0.00 0.000 6.514 6.514 0.000 6.465 6.465 0.000
H15MET 2017-11-19 17:30:00 2508 208 900.0 2017.0 323.00 1730.0 0.8310 0.7190 100.000 100.000 0.8310 0.7190 0.00000 0.00000 0.00 0.000 6.487 6.487 0.000 6.435 6.435 0.000
H15MET 2017-11-19 17:15:00 2507 208 900.0 2017.0 323.00 1715.0 0.7630 0.6420 100.000 100.000 0.7630 0.6420 0.00000 0.00000 0.00 0.000 6.455 6.455 0.000 6.399 6.399 -0.000
H15MET 2017-11-19 17:00:00 2506 208 900.0 2017.0 323.00 1700.0 0.7860 0.6810 100.000 100.000 0.7860 0.6810 0.05000 0.04300 90.10 9.810 6.466 6.466 0.000 6.417 6.417 0.000
H15MET 2017-11-19 16:45:00 2505 208 900.0 2017.0 323.00 1645.0 0.8130 0.7110 100.000 100.000 0.8130 0.7110 0.11900 0.11800 63.97 1.773 6.479 6.479 0.000 6.431 6.431 0.000
H15MET 2017-11-19 16:30:00 2504 208 900.0 2017.0 323.00 1630.0 0.8240 0.6950 100.000 100.000 0.8240 0.6950 0.14600 0.14500 58.30 3.393 6.484 6.484 0.000 6.424 6.424 0.000
H15MET 2017-11-19 16:15:00 2503 208 900.0 2017.0 323.00 1615.0 0.7650 0.6190 100.000 100.000 0.7650 0.6190 0.09900 0.09800 60.06 3.380 6.456 6.456 0.000 6.388 6.388 0.000
H15MET 2017-11-19 16:00:00 2502 208 900.0 2017.0 323.00 1600.0 0.8340 0.6590 100.000 100.000 0.8340 0.6580 0.11000 0.11000 59.73 2.182 6.489 6.489 0.000 6.407 6.407 0.000
H15MET 2017-11-19 15:45:00 2501 208 900.0 2017.0 323.00 1545.0 0.9200 0.7470 100.000 100.000 0.9200 0.7470 0.00000 0.00000 0.00 0.000 6.529 6.529 0.000 6.448 6.448 0.000
H15MET 2017-11-19 15:30:00 2500 208 900.0 2017.0 323.00 1530.0 0.9940 0.8250 100.000 100.000 0.9940 0.8250 0.00000 0.00000 0.00 0.000 6.564 6.564 0.000 6.484 6.484 0.000
H15MET 2017-11-19 15:15:00 2499 208 900.0 2017.0 323.00 1515.0 0.9600 0.8020 100.000 100.000 0.9600 0.8020 0.00000 0.00000 0.00 0.000 6.548 6.548 0.000 6.474 6.474 0.000
H15MET 2017-11-19 15:00:00 2498 208 900.0 2017.0 323.00 1500.0 0.9230 0.7710 100.000 100.000 0.9230 0.7710 0.00000 0.00000 0.00 0.000 6.530 6.530 0.000 6.459 6.459 0.000
H15MET 2017-11-19 14:45:00 2497 208 900.0 2017.0 323.00 1445.0 1.0970 0.9110 100.000 100.000 1.0970 0.9110 0.08500 0.08500 60.23 0.097 6.613 6.613 0.000 6.525 6.525 0.000
H15MET 2017-11-19 14:30:00 2496 208 900.0 2017.0 323.00 1430.0 1.2520 1.0780 100.000 100.000 1.2520 1.0780 0.12700 0.12600 59.80 0.966 6.687 6.687 0.000 6.604 6.604 -0.000
H15MET 2017-11-19 14:15:00 2495 208 900.0 2017.0 323.00 1415.0 1.2410 1.1140 100.000 100.000 1.2410 1.1140 0.13600 0.13600 59.71 0.656 6.682 6.682 0.000 6.621 6.621 -0.000
H15MET 2017-11-19 14:00:00 2494 208 900.0 2017.0 323.00 1400.0 1.1120 1.0040 100.000 100.000 1.1120 1.0040 0.03800 0.03800 58.60 0.035 6.620 6.620 0.000 6.569 6.569 0.000
H15MET 2017-11-19 13:45:00 2493 208 900.0 2017.0 323.00 1345.0 1.1110 0.9860 100.000 100.000 1.1110 0.9860 0.05400 0.05400 59.06 0.047 6.620 6.620 0.000 6.560 6.560 0.000
H15MET 2017-11-19 13:30:00 2492 208 900.0 2017.0 323.00 1330.0 1.1460 1.0690 100.000 100.000 1.1450 1.0690 0.04200 0.04200 58.09 0.054 6.636 6.636 0.000 6.600 6.600 0.000
H15MET 2017-11-19 13:15:00 2491 208 900.0 2017.0 323.00 1315.0 1.0410 0.8970 100.000 100.000 1.0410 0.8970 0.09700 0.09700 55.54 0.074 6.586 6.586 0.000 6.518 6.518 0.000
H15MET 2017-11-19 13:00:00 2490 208 900.0 2017.0 323.00 1300.0 1.0330 0.8290 100.000 100.000 1.0330 0.8290 0.00000 0.00000 0.00 0.000 6.583 6.583 0.000 6.486 6.486 0.000
H15MET 2017-11-19 12:45:00 2489 208 900.0 2017.0 323.00 1245.0 1.0230 0.7760 100.000 100.000 1.0230 0.7760 0.00000 0.00000 0.00 0.000 6.578 6.578 0.000 6.461 6.461 0.000
H15MET 2017-11-19 12:30:00 2488 208 900.0 2017.0 323.00 1230.0 1.0170 0.7910 100.000 100.000 1.0170 0.7910 0.02600 0.02600 57.35 0.057 6.575 6.575 0.000 6.468 6.468 -0.000
H15MET 2017-11-19 12:15:00 2487 208 900.0 2017.0 323.00 1215.0 1.0230 0.8680 100.000 100.000 1.0230 0.8680 0.02800 0.02800 61.08 0.187 6.578 6.578 0.000 6.505 6.505 0.000
H15MET 2017-11-19 12:00:00 2486 208 900.0 2017.0 323.00 1200.0 0.8410 0.6640 100.000 100.000 0.8410 0.6640 0.03300 0.03300 63.90 0.032 6.492 6.492 0.000 6.409 6.409 0.000
H15MET 2017-11-19 11:45:00 2485 208 900.0 2017.0 323.00 1145.0 0.5210 0.4480 100.000 100.000 0.5210 0.4480 0.00000 0.00000 0.00 0.000 6.343 6.343 0.000 6.310 6.310 0.000
H15MET 2017-11-19 11:30:00 2484 208 900.0 2017.0 323.00 1130.0 0.2260 0.1810 100.000 100.000 0.2260 0.1810 0.00000 0.00000 0.00 0.000 6.209 6.209 0.000 6.189 6.189 -0.000
H15MET 2017-11-19 11:15:00 2483 208 900.0 2017.0 323.00 1115.0 0.0540 0.0100 100.000 100.000 0.0540 0.0100 0.00000 0.00000 0.00 0.000 6.132 6.132 -0.000 6.112 6.112 0.000
H15MET 2017-11-19 11:00:00 2482 208 900.0 2017.0 323.00 1100.0 -0.0320 -0.1040 100.000 100.000 -0.0320 -0.1040 0.00000 0.00000 0.00 0.000 6.094 6.094 -0.000 6.062 6.062 0.000
H15MET 2017-11-19 10:45:00 2481 208 900.0 2017.0 323.00 1045.0 -0.0780 -0.2060 100.000 100.000 -0.0780 -0.2060 0.00000 0.00000 0.00 0.000 6.073 6.073 0.000 6.017 6.017 0.000
H15MET 2017-11-19 10:30:00 2480 208 900.0 2017.0 323.00 1030.0 -0.1090 -0.3170 100.000 100.000 -0.1090 -0.3170 0.00000 0.00000 0.00 0.000 6.060 6.060 0.000 5.968 5.968 0.000
H15MET 2017-11-19 10:15:00 2479 208 900.0 2017.0 323.00 1015.0 -0.1270 -0.3770 100.000 100.000 -0.1270 -0.3770 0.00000 0.00000 0.00 0.000 6.052 6.052 0.000 5.942 5.942 0.000
H15MET 2017-11-19 10:00:00 2478 208 900.0 2017.0 323.00 1000.0 -0.1610 -0.4090 100.000 100.000 -0.1620 -0.4090 0.00000 0.00000 0.00 0.000 6.037 6.036 -0.000 5.928 5.928 0.000
H15MET 2017-11-19 09:45:00 2477 208 900.0 2017.0 323.00 945.0 -0.3920 -0.5790 100.000 100.000 -0.3920 -0.5790 0.00000 0.00000 0.00 0.000 5.936 5.936 0.000 5.855 5.855 0.000
H15MET 2017-11-19 09:30:00 2476 208 900.0 2017.0 323.00 930.0 -0.7460 -0.8780 100.000 100.000 -0.7460 -0.8780 0.00000 0.00000 0.00 0.000 5.784 5.784 0.000 5.728 5.728 -0.000
H15MET 2017-11-19 09:15:00 2475 208 900.0 2017.0 323.00 915.0 -1.0710 -1.1810 100.000 100.000 -1.0710 -1.1810 0.00000 0.00000 0.00 0.000 5.648 5.648 0.000 5.602 5.602 0.000
H15MET 2017-11-19 09:00:00 2474 208 900.0 2017.0 323.00 900.0 -1.3580 -1.4770 100.000 100.000 -1.3580 -1.4770 0.00000 0.00000 0.00 0.000 5.530 5.530 0.000 5.482 5.482 0.000
H15MET 2017-11-19 08:45:00 2473 208 900.0 2017.0 323.00 845.0 -1.5940 -1.7290 100.000 100.000 -1.5940 -1.7290 0.00000 0.00000 0.00 0.000 5.435 5.435 0.000 5.381 5.381 0.000
H15MET 2017-11-19 08:30:00 2472 208 900.0 2017.0 323.00 830.0 -1.7740 -1.9360 100.000 100.000 -1.7740 -1.9360 0.00000 0.00000 0.00 0.000 5.363 5.363 0.000 5.299 5.299 0.000
H15MET 2017-11-19 08:15:00 2471 208 900.0 2017.0 323.00 815.0 -1.8830 -2.0660 100.000 100.000 -1.8830 -2.0660 0.00000 0.00000 0.00 0.000 5.320 5.320 0.000 5.248 5.248 0.000
H15MET 2017-11-19 08:00:00 2470 208 900.0 2017.0 323.00 800.0 -1.8220 -2.0250 100.000 100.000 -1.8220 -2.0250 0.00000 0.00000 0.00 0.000 5.344 5.344 0.000 5.264 5.264 0.000
H15MET 2017-11-19 07:45:00 2469 208 900.0 2017.0 323.00 745.0 -1.7870 -1.9440 100.000 100.000 -1.7870 -1.9440 0.00000 0.00000 0.00 0.000 5.358 5.358 0.000 5.296 5.296 0.000
H15MET 2017-11-19 07:30:00 2468 208 900.0 2017.0 323.00 730.0 -1.7940 -1.9320 100.000 100.000 -1.7940 -1.9320 0.00000 0.00000 0.00 0.000 5.355 5.355 0.000 5.301 5.301 0.000
H15MET 2017-11-19 07:15:00 2467 208 900.0 2017.0 323.00 715.0 -1.5860 -1.7650 100.000 100.000 -1.5860 -1.7650 0.00000 0.00000 0.00 0.000 5.438 5.438 0.000 5.366 5.366 -0.000
H15MET 2017-11-19 07:00:00 2466 208 900.0 2017.0 323.00 700.0 -1.7280 -1.8740 100.000 100.000 -1.7280 -1.8740 0.00000 0.00000 0.00 0.000 5.381 5.381 -0.000 5.323 5.323 0.000
H15MET 2017-11-19 06:45:00 2465 208 900.0 2017.0 323.00 645.0 -1.7430 -1.9000 100.000 100.000 -1.7430 -1.9000 0.00000 0.00000 0.00 0.000 5.375 5.375 0.000 5.313 5.313 0.000
H15MET 2017-11-19 06:30:00 2464 208 900.0 2017.0 323.00 630.0 -1.5670 -1.6370 100.000 100.000 -1.5670 -1.6370 0.00000 0.00000 0.00 0.000 5.445 5.445 0.000 5.417 5.417 0.000
H15MET 2017-11-19 06:15:00 2463 208 900.0 2017.0 323.00 615.0 -1.4180 -1.5010 100.000 100.000 -1.4180 -1.5010 0.00000 0.00000 0.00 0.000 5.506 5.506 0.000 5.472 5.472 0.000
H15MET 2017-11-19 06:00:00 2462 208 900.0 2017.0 323.00 600.0 -1.5510 -1.7290 100.000 100.000 -1.5510 -1.7290 0.00000 0.00000 0.00 0.000 5.452 5.452 0.000 5.381 5.381 0.000
H15MET 2017-11-19 05:45:00 2461 208 900.0 2017.0 323.00 545.0 -1.6140 -1.8220 100.000 100.000 -1.6140 -1.8220 0.00000 0.00000 0.00 0.000 5.427 5.427 0.000 5.344 5.344 0.000
H15MET 2017-11-19 05:30:00 2460 208 900.0 2017.0 323.00 530.0 -1.5770 -1.7930 100.000 100.000 -1.5770 -1.7930 0.00000 0.00000 0.00 0.000 5.441 5.441 0.000 5.355 5.355 0.000
H15MET 2017-11-19 05:15:00 2459 208 900.0 2017.0 323.00 515.0 -1.6550 -1.8630 100.000 100.000 -1.6550 -1.8630 0.00000 0.00000 0.00 0.000 5.410 5.410 -0.000 5.328 5.328 0.000
H15MET 2017-11-19 05:00:00 2458 208 900.0 2017.0 323.00 500.0 -1.7040 -1.8380 100.000 100.000 -1.7040 -1.8380 0.00000 0.00000 0.00 0.000 5.391 5.391 0.000 5.338 5.338 0.000
H15MET 2017-11-19 04:45:00 2457 208 900.0 2017.0 323.00 445.0 -1.5710 -1.7690 100.000 100.000 -1.5710 -1.7690 0.00000 0.00000 0.00 0.000 5.444 5.444 0.000 5.365 5.365 0.000
H15MET 2017-11-19 04:30:00 2456 208 900.0 2017.0 323.00 430.0 -1.4900 -1.6830 100.000 100.000 -1.4900 -1.6830 0.00000 0.00000 0.00 0.000 5.476 5.476 0.000 5.399 5.399 -0.000
H15MET 2017-11-19 04:15:00 2455 208 900.0 2017.0 323.00 415.0 -1.3590 -1.5530 100.000 100.000 -1.3590 -1.5540 0.00000 0.00000 113.70 0.007 5.530 5.530 0.000 5.451 5.451 -0.000
H15MET 2017-11-19 04:00:00 2454 208 900.0 2017.0 323.00 400.0 -1.4080 -1.6240 100.000 100.000 -1.4080 -1.6240 0.00000 0.00000 0.00 0.000 5.510 5.510 0.000 5.423 5.423 0.000
H15MET 2017-11-19 03:45:00 2453 208 900.0 2017.0 323.00 345.0 -1.4200 -1.5700 100.000 100.000 -1.4210 -1.5700 0.00000 0.00000 0.00 0.000 5.505 5.504 0.000 5.444 5.444 0.000
H15MET 2017-11-19 03:30:00 2452 208 900.0 2017.0 323.00 330.0 -1.3500 -1.5120 100.000 100.000 -1.3500 -1.5120 0.00000 0.00000 0.00 0.000 5.533 5.533 0.000 5.468 5.468 0.000
H15MET 2017-11-19 03:15:00 2451 208 900.0 2017.0 323.00 315.0 -1.2110 -1.4310 100.000 100.000 -1.2110 -1.4310 0.00000 0.00000 0.00 0.000 5.590 5.590 0.000 5.500 5.500 0.000
H15MET 2017-11-19 03:00:00 2450 208 900.0 2017.0 323.00 300.0 -1.3080 -1.5110 100.000 100.000 -1.3080 -1.5110 0.00100 0.00100 330.20 0.004 5.550 5.550 -0.000 5.468 5.468 0.000
H15MET 2017-11-19 02:45:00 2449 208 900.0 2017.0 323.00 245.0 -1.2090 -1.4090 100.000 100.000 -1.2090 -1.4100 0.00000 0.00000 0.00 0.000 5.591 5.591 0.000 5.509 5.509 0.000
H15MET 2017-11-19 02:30:00 2448 208 900.0 2017.0 323.00 230.0 -1.1430 -1.3230 100.000 100.000 -1.1430 -1.3230 0.00000 0.00000 0.00 0.000 5.618 5.618 -0.000 5.544 5.544 0.000
H15MET 2017-11-19 02:15:00 2447 208 900.0 2017.0 323.00 215.0 -1.0770 -1.2750 100.000 100.000 -1.0770 -1.2750 0.00000 0.00000 0.00 0.000 5.645 5.645 0.000 5.564 5.564 0.000
H15MET 2017-11-19 02:00:00 2446 208 900.0 2017.0 323.00 200.0 -1.1400 -1.3250 100.000 100.000 -1.1400 -1.3250 0.00000 0.00000 0.00 0.000 5.619 5.619 0.000 5.543 5.543 0.000
H15MET 2017-11-19 01:45:00 2445 208 900.0 2017.0 323.00 145.0 -1.0600 -1.2520 100.000 100.000 -1.0600 -1.2520 0.00000 0.00000 0.00 0.000 5.652 5.652 0.000 5.573 5.573 -0.000
H15MET 2017-11-19 01:30:00 2444 208 900.0 2017.0 323.00 130.0 -1.0560 -1.2330 100.000 100.000 -1.0560 -1.2330 0.00000 0.00000 0.00 0.000 5.654 5.654 0.000 5.581 5.581 0.000
H15MET 2017-11-19 01:15:00 2443 208 900.0 2017.0 323.00 115.0 -1.0040 -1.2430 100.000 100.000 -1.0040 -1.2430 0.00000 0.00000 0.00 0.000 5.676 5.676 0.000 5.577 5.577 0.000
H15MET 2017-11-19 01:00:00 2442 208 900.0 2017.0 323.00 100.0 -0.9630 -1.1700 100.000 100.000 -0.9630 -1.1700 0.00000 0.00000 0.00 0.000 5.693 5.693 0.000 5.607 5.607 -0.000
H15MET 2017-11-19 00:45:00 2441 208 900.0 2017.0 323.00 45.0 -0.9330 -1.0730 100.000 100.000 -0.9330 -1.0730 0.00000 0.00000 0.00 0.000 5.705 5.705 0.000 5.647 5.647 -0.000
H15MET 2017-11-19 00:30:00 2440 208 900.0 2017.0 323.00 30.0 -0.8030 -1.0030 100.000 100.000 -0.8030 -1.0030 0.00000 0.00000 0.00 0.000 5.760 5.760 0.000 5.676 5.676 -0.000
H15MET 2017-11-19 00:15:00 2439 208 900.0 2017.0 323.00 15.0 -0.7470 -0.9630 100.000 100.000 -0.7470 -0.9630 0.00000 0.00000 0.00 0.000 5.784 5.784 -0.000 5.693 5.693 0.000
H15MET 2017-11-19 00:00:00 2438 208 900.0 2017.0 322.00 2400.0 -0.7760 -1.0050 100.000 100.000 -0.7760 -1.0050 0.00000 0.00000 0.00 0.000 5.771 5.771 0.000 5.675 5.675 -0.000
H15MET 2017-11-18 23:45:00 2437 208 900.0 2017.0 322.00 2345.0 -0.8080 -0.9980 100.000 100.000 -0.8080 -0.9980 0.00000 0.00000 0.00 0.000 5.758 5.758 0.000 5.678 5.678 0.000
H15MET 2017-11-18 23:30:00 2436 208 900.0 2017.0 322.00 2330.0 -0.8080 -0.9570 100.000 100.000 -0.8080 -0.9570 0.00000 0.00000 0.00 0.000 5.758 5.758 0.000 5.695 5.695 0.000
H15MET 2017-11-18 23:15:00 2435 208 900.0 2017.0 322.00 2315.0 -0.7970 -0.9770 100.000 100.000 -0.7970 -0.9770 0.00000 0.00000 0.00 0.000 5.762 5.762 0.000 5.687 5.687 0.000
H15MET 2017-11-18 23:00:00 2434 208 900.0 2017.0 322.00 2300.0 -0.6860 -0.8710 100.000 100.000 -0.6860 -0.8710 0.00000 0.00000 0.00 0.000 5.810 5.810 0.000 5.731 5.731 0.000
H15MET 2017-11-18 22:45:00 2433 208 900.0 2017.0 322.00 2245.0 -0.5950 -0.8000 100.000 100.000 -0.5950 -0.8000 0.00000 0.00000 0.00 0.000 5.848 5.848 0.000 5.761 5.761 0.000
H15MET 2017-11-18 22:30:00 2432 208 900.0 2017.0 322.00 2230.0 -0.6570 -0.8610 100.000 100.000 -0.6570 -0.8610 0.00000 0.00000 0.00 0.000 5.822 5.822 0.000 5.736 5.736 0.000
H15MET 2017-11-18 22:15:00 2431 208 900.0 2017.0 322.00 2215.0 -0.7320 -0.9210 100.000 100.000 -0.7320 -0.9210 0.00000 0.00000 0.00 0.000 5.790 5.790 0.000 5.710 5.710 0.000
H15MET 2017-11-18 22:00:00 2430 208 900.0 2017.0 322.00 2200.0 -0.5770 -0.7880 100.000 100.000 -0.5770 -0.7880 0.00000 0.00000 0.00 0.000 5.856 5.856 0.000 5.766 5.766 0.000
H15MET 2017-11-18 21:45:00 2429 208 900.0 2017.0 322.00 2145.0 -0.5660 -0.7550 100.000 100.000 -0.5660 -0.7550 0.00000 0.00000 0.00 0.000 5.861 5.861 0.000 5.780 5.780 0.000
H15MET 2017-11-18 21:30:00 2428 208 900.0 2017.0 322.00 2130.0 -0.4730 -0.6320 100.000 100.000 -0.4730 -0.6320 0.00000 0.00000 0.00 0.000 5.901 5.901 0.000 5.833 5.833 0.000
H15MET 2017-11-18 21:15:00 2427 208 900.0 2017.0 322.00 2115.0 -0.3750 -0.5980 100.000 100.000 -0.3750 -0.5980 0.00000 0.00000 0.00 0.000 5.943 5.943 -0.000 5.847 5.847 0.000
H15MET 2017-11-18 21:00:00 2426 208 900.0 2017.0 322.00 2100.0 -0.4310 -0.7090 100.000 100.000 -0.4310 -0.7090 0.00000 0.00000 0.00 0.000 5.919 5.919 0.000 5.800 5.800 0.000
H15MET 2017-11-18 20:45:00 2425 208 900.0 2017.0 322.00 2045.0 -0.5600 -0.7810 100.000 100.000 -0.5600 -0.7810 0.00000 0.00000 0.00 0.000 5.863 5.863 0.000 5.769 5.769 0.000
H15MET 2017-11-18 20:30:00 2424 208 900.0 2017.0 322.00 2030.0 -0.6000 -0.7940 100.000 100.000 -0.6000 -0.7940 0.00000 0.00000 0.00 0.000 5.846 5.846 0.000 5.764 5.764 0.000
H15MET 2017-11-18 20:15:00 2423 208 900.0 2017.0 322.00 2015.0 -0.6160 -0.7980 100.000 100.000 -0.6160 -0.7980 0.00000 0.00000 0.00 0.000 5.839 5.839 0.000 5.762 5.762 0.000
H15MET 2017-11-18 20:00:00 2422 208 900.0 2017.0 322.00 2000.0 -0.5900 -0.7390 100.000 100.000 -0.5900 -0.7390 0.00000 0.00000 0.00 0.000 5.850 5.850 0.000 5.787 5.787 0.000
H15MET 2017-11-18 19:45:00 2421 208 900.0 2017.0 322.00 1945.0 -0.4960 -0.6610 100.000 100.000 -0.4960 -0.6610 0.00000 0.00000 0.00 0.000 5.891 5.891 0.000 5.820 5.820 0.000
H15MET 2017-11-18 19:30:00 2420 208 900.0 2017.0 322.00 1930.0 -0.3850 -0.5640 100.000 100.000 -0.3850 -0.5640 0.00000 0.00000 0.00 0.000 5.939 5.939 0.000 5.862 5.862 0.000
H15MET 2017-11-18 19:15:00 2419 208 900.0 2017.0 322.00 1915.0 -0.0960 -0.2870 100.000 100.000 -0.0960 -0.2870 0.00000 0.00000 0.00 0.000 6.065 6.065 0.000 5.981 5.981 0.000
H15MET 2017-11-18 19:00:00 2418 208 900.0 2017.0 322.00 1900.0 -0.0600 -0.2430 100.000 100.000 -0.0600 -0.2430 0.00000 0.00000 0.00 0.000 6.081 6.081 -0.000 6.001 6.001 -0.000
H15MET 2017-11-18 18:45:00 2417 208 900.0 2017.0 322.00 1845.0 0.0050 -0.1640 100.000 100.000 0.0050 -0.1640 0.00000 0.00000 0.00 0.000 6.110 6.110 0.000 6.035 6.035 0.000
H15MET 2017-11-18 18:30:00 2416 208 900.0 2017.0 322.00 1830.0 0.1180 -0.0480 100.000 100.000 0.1180 -0.0480 0.00000 0.00000 0.00 0.000 6.160 6.160 0.000 6.086 6.086 0.000
H15MET 2017-11-18 18:15:00 2415 208 900.0 2017.0 322.00 1815.0 0.1330 -0.0310 100.000 100.000 0.1330 -0.0310 0.00000 0.00000 0.00 0.000 6.167 6.167 0.000 6.094 6.094 0.000
H15MET 2017-11-18 18:00:00 2414 208 900.0 2017.0 322.00 1800.0 0.1240 -0.0330 100.000 100.000 0.1240 -0.0330 0.00000 0.00000 0.00 0.000 6.163 6.163 0.000 6.093 6.093 0.000
H15MET 2017-11-18 17:45:00 2413 208 900.0 2017.0 322.00 1745.0 0.1260 -0.0150 100.000 100.000 0.1260 -0.0150 0.00000 0.00000 0.00 0.000 6.164 6.164 0.000 6.101 6.101 0.000
H15MET 2017-11-18 17:30:00 2412 208 900.0 2017.0 322.00 1730.0 0.1520 -0.0070 100.000 100.000 0.1520 -0.0070 0.00000 0.00000 0.00 0.000 6.176 6.176 0.000 6.105 6.105 0.000
H15MET 2017-11-18 17:15:00 2411 208 900.0 2017.0 322.00 1715.0 0.2070 0.0610 100.000 100.000 0.2070 0.0610 0.00000 0.00000 0.00 0.000 6.200 6.200 0.000 6.135 6.135 0.000
H15MET 2017-11-18 17:00:00 2410 208 900.0 2017.0 322.00 1700.0 0.2710 0.1170 100.000 100.000 0.2710 0.1170 0.00000 0.00000 0.00 0.000 6.229 6.229 0.000 6.160 6.160 0.000
H15MET 2017-11-18 16:45:00 2409 208 900.0 2017.0 322.00 1645.0 0.3290 0.1580 100.000 100.000 0.3290 0.1580 0.00000 0.00000 0.00 0.000 6.256 6.256 0.000 6.178 6.178 0.000
H15MET 2017-11-18 16:30:00 2408 208 900.0 2017.0 322.00 1630.0 0.3890 0.2180 100.000 100.000 0.3880 0.2180 0.00000 0.00000 0.00 0.000 6.283 6.282 0.000 6.205 6.205 -0.000
H15MET 2017-11-18 16:15:00 2407 208 900.0 2017.0 322.00 1615.0 0.4870 0.2800 100.000 100.000 0.4870 0.2800 0.00000 0.00000 0.00 0.000 6.328 6.328 0.000 6.233 6.233 0.000
H15MET 2017-11-18 16:00:00 2406 208 900.0 2017.0 322.00 1600.0 0.6330 0.3890 100.000 100.000 0.6330 0.3890 0.00000 0.00000 0.00 0.000 6.395 6.395 0.000 6.283 6.283 0.000
H15MET 2017-11-18 15:45:00 2405 208 900.0 2017.0 322.00 1545.0 0.7620 0.5090 100.000 100.000 0.7620 0.5090 0.00000 0.00000 0.00 0.000 6.455 6.455 -0.000 6.338 6.338 0.000
H15MET 2017-11-18 15:30:00 2404 208 900.0 2017.0 322.00 1530.0 0.8420 0.5950 100.000 100.000 0.8420 0.5950 0.00000 0.00000 0.00 0.000 6.492 6.492 -0.000 6.377 6.377 -0.000
H15MET 2017-11-18 15:15:00 2403 208 900.0 2017.0 322.00 1515.0 0.8820 0.6720 100.000 100.000 0.8820 0.6720 0.00000 0.00000 0.00 0.000 6.511 6.511 0.000 6.413 6.413 0.000
H15MET 2017-11-18 15:00:00 2402 208 900.0 2017.0 322.00 1500.0 0.9570 0.7510 100.000 100.000 0.9570 0.7510 0.00000 0.00000 0.00 0.000 6.546 6.546 0.000 6.450 6.450 0.000
H15MET 2017-11-18 14:45:00 2401 208 900.0 2017.0 322.00 1445.0 0.9950 0.7900 100.000 100.000 0.9950 0.7900 0.00000 0.00000 0.00 0.000 6.564 6.564 -0.000 6.468 6.468 -0.000
H15MET 2017-11-18 14:30:00 2400 208 900.0 2017.0 322.00 1430.0 1.0090 0.8130 100.000 100.000 1.0090 0.8130 0.00000 0.00000 0.00 0.000 6.571 6.571 0.000 6.479 6.479 0.000
H15MET 2017-11-18 14:15:00 2399 208 900.0 2017.0 322.00 1415.0 1.0560 0.8610 100.000 100.000 1.0560 0.8610 0.00000 0.00000 0.00 0.000 6.593 6.593 0.000 6.501 6.501 0.000
H15MET 2017-11-18 14:00:00 2398 208 900.0 2017.0 322.00 1400.0 1.0610 0.8600 100.000 100.000 1.0610 0.8590 0.00000 0.00000 0.00 0.000 6.596 6.596 0.000 6.501 6.500 0.000
H15MET 2017-11-18 13:45:00 2397 208 900.0 2017.0 322.00 1345.0 1.0020 0.8020 100.000 100.000 1.0020 0.8020 0.02500 0.02500 60.07 0.533 6.568 6.568 0.000 6.474 6.474 0.000
H15MET 2017-11-18 13:30:00 2396 208 900.0 2017.0 322.00 1330.0 0.9300 0.7520 100.000 100.000 0.9300 0.7520 0.00000 0.00000 0.00 0.000 6.534 6.534 0.000 6.450 6.450 0.000
H15MET 2017-11-18 13:15:00 2395 208 900.0 2017.0 322.00 1315.0 0.8530 0.6700 100.000 100.000 0.8530 0.6700 0.00000 0.00000 0.00 0.000 6.498 6.498 0.000 6.412 6.412 -0.000
H15MET 2017-11-18 13:00:00 2394 208 900.0 2017.0 322.00 1300.0 0.8570 0.6470 100.000 100.000 0.8570 0.6470 0.00000 0.00000 0.00 0.000 6.499 6.499 0.000 6.401 6.401 0.000
H15MET 2017-11-18 12:45:00 2393 208 900.0 2017.0 322.00 1245.0 0.8580 0.7200 100.000 100.000 0.8580 0.7200 0.00000 0.00000 0.00 0.000 6.500 6.500 0.000 6.435 6.435 0.000
H15MET 2017-11-18 12:30:00 2392 208 900.0 2017.0 322.00 1230.0 0.6880 0.5580 100.000 100.000 0.6880 0.5580 0.00000 0.00000 0.00 0.000 6.420 6.420 0.000 6.360 6.360 0.000
H15MET 2017-11-18 12:15:00 2391 208 900.0 2017.0 322.00 1215.0 0.5520 0.3400 100.000 100.000 0.5520 0.3400 0.00000 0.00000 0.00 0.000 6.358 6.358 0.000 6.261 6.261 0.000
H15MET 2017-11-18 12:00:00 2390 208 900.0 2017.0 322.00 1200.0 0.7010 0.3860 100.000 100.000 0.7010 0.3860 0.00000 0.00000 0.00 0.000 6.427 6.427 0.000 6.282 6.282 0.000
H15MET 2017-11-18 11:45:00 2389 208 900.0 2017.0 322.00 1145.0 0.8980 0.5520 100.000 100.000 0.8980 0.5520 0.02100 0.02100 72.50 0.022 6.519 6.519 0.000 6.358 6.358 0.000
H15MET 2017-11-18 11:30:00 2388 208 900.0 2017.0 322.00 1130.0 0.5360 0.2100 100.000 100.000 0.5360 0.2100 0.00000 0.00000 0.00 0.000 6.350 6.350 0.000 6.202 6.202 0.000
H15MET 2017-11-18 11:15:00 2387 208 900.0 2017.0 322.00 1115.0 0.3860 0.0600 100.000 100.000 0.3860 0.0600 0.00000 0.00000 0.00 0.000 6.282 6.282 0.000 6.135 6.135 0.000
H15MET 2017-11-18 11:00:00 2386 208 900.0 2017.0 322.00 1100.0 0.2330 -0.0310 100.000 100.000 0.2330 -0.0310 0.00000 0.00000 0.00 0.000 6.212 6.212 0.000 6.094 6.094 0.000
H15MET 2017-11-18 10:45:00 2385 208 900.0 2017.0 322.00 1045.0 0.1740 -0.1080 100.000 100.000 0.1740 -0.1080 0.00000 0.00000 0.00 0.000 6.186 6.186 0.000 6.060 6.060 -0.000
H15MET 2017-11-18 10:30:00 2384 208 900.0 2017.0 322.00 1030.0 0.2800 -0.0050 100.000 100.000 0.2800 -0.0050 0.00000 0.00000 0.00 0.000 6.233 6.233 0.000 6.106 6.106 0.000
H15MET 2017-11-18 10:15:00 2383 208 900.0 2017.0 322.00 1015.0 0.1490 -0.1670 100.000 100.000 0.1490 -0.1670 0.00000 0.00000 0.00 0.000 6.174 6.174 0.000 6.034 6.034 0.000
H15MET 2017-11-18 10:00:00 2382 208 900.0 2017.0 322.00 1000.0 0.0100 -0.2480 100.000 100.000 0.0100 -0.2480 0.00000 0.00000 0.00 0.000 6.112 6.112 0.000 5.998 5.998 0.000
H15MET 2017-11-18 09:45:00 2381 208 900.0 2017.0 322.00 945.0 -0.1220 -0.4060 100.000 100.000 -0.1220 -0.4060 0.00000 0.00000 0.00 0.000 6.054 6.054 0.000 5.930 5.930 -0.000
H15MET 2017-11-18 09:30:00 2380 208 900.0 2017.0 322.00 930.0 -0.3120 -0.6050 100.000 100.000 -0.3120 -0.6050 0.00000 0.00000 0.00 0.000 5.971 5.971 0.000 5.844 5.844 0.000
H15MET 2017-11-18 09:15:00 2379 208 900.0 2017.0 322.00 915.0 -0.5000 -0.7550 100.000 100.000 -0.5000 -0.7550 0.00500 0.00500 317.70 0.664 5.889 5.889 0.000 5.780 5.780 0.000
H15MET 2017-11-18 09:00:00 2378 208 900.0 2017.0 322.00 900.0 -0.8240 -1.0600 100.000 100.000 -0.8240 -1.0600 0.00000 0.00000 0.00 0.000 5.751 5.751 0.000 5.652 5.652 0.000
H15MET 2017-11-18 08:45:00 2377 208 900.0 2017.0 322.00 845.0 -1.0690 -1.2880 100.000 100.000 -1.0690 -1.2880 0.00000 0.00000 0.00 0.000 5.649 5.649 0.000 5.558 5.558 0.000
H15MET 2017-11-18 08:30:00 2376 208 900.0 2017.0 322.00 830.0 -1.1710 -1.3840 100.000 100.000 -1.1710 -1.3840 0.00000 0.00000 0.00 0.000 5.607 5.607 0.000 5.519 5.519 0.000
H15MET 2017-11-18 08:15:00 2375 208 900.0 2017.0 322.00 815.0 -1.2900 -1.4990 100.000 100.000 -1.2900 -1.4990 0.00000 0.00000 0.00 0.000 5.558 5.558 0.000 5.473 5.473 0.000
H15MET 2017-11-18 08:00:00 2374 208 900.0 2017.0 322.00 800.0 -1.3850 -1.6090 100.000 100.000 -1.3850 -1.6090 0.00000 0.00000 0.00 0.000 5.519 5.519 0.000 5.429 5.429 -0.000
H15MET 2017-11-18 07:45:00 2373 208 900.0 2017.0 322.00 745.0 -1.4370 -1.6620 100.000 100.000 -1.4370 -1.6620 0.00000 0.00000 0.00 0.000 5.498 5.498 0.000 5.407 5.407 0.000
H15MET 2017-11-18 07:30:00 2372 208 900.0 2017.0 322.00 730.0 -1.4690 -1.7050 100.000 100.000 -1.4690 -1.7050 0.00000 0.00000 0.00 0.000 5.485 5.485 0.000 5.390 5.390 0.000
H15MET 2017-11-18 07:15:00 2371 208 900.0 2017.0 322.00 715.0 -1.3820 -1.6050 100.000 100.000 -1.3820 -1.6050 0.00000 0.00000 0.00 0.000 5.520 5.520 0.000 5.430 5.430 0.000
H15MET 2017-11-18 07:00:00 2370 208 900.0 2017.0 322.00 700.0 -1.3390 -1.5930 100.000 100.000 -1.3390 -1.5930 0.00000 0.00000 0.00 0.000 5.538 5.538 0.000 5.435 5.435 0.000
H15MET 2017-11-18 06:45:00 2369 208 900.0 2017.0 322.00 645.0 -1.2530 -1.5010 100.000 100.000 -1.2530 -1.5010 0.00000 0.00000 0.00 0.000 5.573 5.573 0.000 5.472 5.472 0.000
H15MET 2017-11-18 06:30:00 2368 208 900.0 2017.0 322.00 630.0 -1.1880 -1.4190 100.000 100.000 -1.1880 -1.4190 0.00000 0.00000 0.00 0.000 5.600 5.600 -0.000 5.505 5.505 0.000
H15MET 2017-11-18 06:15:00 2367 208 900.0 2017.0 322.00 615.0 -1.1170 -1.3510 100.000 100.000 -1.1170 -1.3510 0.00000 0.00000 0.00 0.000 5.629 5.629 0.000 5.533 5.533 0.000
H15MET 2017-11-18 06:00:00 2366 208 900.0 2017.0 322.00 600.0 -1.0840 -1.3020 100.000 100.000 -1.0840 -1.3020 0.00000 0.00000 0.00 0.000 5.642 5.642 0.000 5.553 5.553 0.000
H15MET 2017-11-18 05:45:00 2365 208 900.0 2017.0 322.00 545.0 -1.1260 -1.3630 100.000 100.000 -1.1260 -1.3630 0.04300 0.03500 277.90 11.710 5.625 5.625 -0.000 5.528 5.528 0.000
H15MET 2017-11-18 05:30:00 2364 208 900.0 2017.0 322.00 530.0 -1.1380 -1.3740 100.000 100.000 -1.1390 -1.3740 0.02500 0.02500 132.90 0.097 5.620 5.620 0.000 5.523 5.523 0.000
H15MET 2017-11-18 05:15:00 2363 208 900.0 2017.0 322.00 515.0 -1.1180 -1.3360 100.000 100.000 -1.1180 -1.3360 0.00000 0.00000 0.00 0.000 5.628 5.628 -0.000 5.539 5.539 -0.000
H15MET 2017-11-18 05:00:00 2362 208 900.0 2017.0 322.00 500.0 -1.1190 -1.3090 100.000 100.000 -1.1190 -1.3090 0.00000 0.00000 0.00 0.000 5.628 5.628 0.000 5.550 5.550 0.000
H15MET 2017-11-18 04:45:00 2361 208 900.0 2017.0 322.00 445.0 -1.0760 -1.2780 100.000 100.000 -1.0760 -1.2780 0.00000 0.00000 0.00 0.000 5.646 5.646 -0.000 5.563 5.563 -0.000
H15MET 2017-11-18 04:30:00 2360 208 900.0 2017.0 322.00 430.0 -1.1540 -1.3770 100.000 100.000 -1.1540 -1.3770 0.00000 0.00000 0.00 0.000 5.614 5.614 0.000 5.522 5.522 0.000
H15MET 2017-11-18 04:15:00 2359 208 900.0 2017.0 322.00 415.0 -1.1890 -1.3730 100.000 100.000 -1.1890 -1.3730 0.00000 0.00000 0.00 0.000 5.599 5.599 0.000 5.524 5.524 0.000
H15MET 2017-11-18 04:00:00 2358 208 900.0 2017.0 322.00 400.0 -1.1290 -1.3100 100.000 100.000 -1.1290 -1.3100 0.00000 0.00000 0.00 0.000 5.624 5.624 -0.000 5.549 5.549 0.000
H15MET 2017-11-18 03:45:00 2357 208 900.0 2017.0 322.00 345.0 -1.0190 -1.2340 100.000 100.000 -1.0190 -1.2340 0.00000 0.00000 0.00 0.000 5.669 5.669 0.000 5.581 5.581 0.000
H15MET 2017-11-18 03:30:00 2356 208 900.0 2017.0 322.00 330.0 -0.9700 -1.1590 100.000 100.000 -0.9700 -1.1600 0.00000 0.00000 0.00 0.000 5.690 5.690 0.000 5.611 5.611 0.000
H15MET 2017-11-18 03:15:00 2355 208 900.0 2017.0 322.00 315.0 -0.9420 -1.0520 100.000 100.000 -0.9420 -1.0520 0.00000 0.00000 0.00 0.000 5.702 5.702 0.000 5.656 5.656 -0.000
H15MET 2017-11-18 03:00:00 2354 208 900.0 2017.0 322.00 300.0 -0.7470 -0.9550 100.000 100.000 -0.7470 -0.9550 0.00000 0.00000 0.00 0.000 5.784 5.784 -0.000 5.696 5.696 0.000
H15MET 2017-11-18 02:45:00 2353 208 900.0 2017.0 322.00 245.0 -0.6450 -0.8410 100.000 100.000 -0.6450 -0.8410 0.00000 0.00000 0.00 0.000 5.827 5.827 0.000 5.744 5.744 0.000
H15MET 2017-11-18 02:30:00 2352 208 900.0 2017.0 322.00 230.0 -0.5890 -0.8120 100.000 100.000 -0.5890 -0.8120 0.00000 0.00000 0.00 0.000 5.851 5.851 0.000 5.756 5.756 0.000
H15MET 2017-11-18 02:15:00 2351 208 900.0 2017.0 322.00 215.0 -0.5440 -0.7960 100.000 100.000 -0.5440 -0.7960 0.00000 0.00000 0.00 0.000 5.870 5.870 -0.000 5.763 5.763 0.000
H15MET 2017-11-18 02:00:00 2350 208 900.0 2017.0 322.00 200.0 -0.4880 -0.7640 100.000 100.000 -0.4880 -0.7640 0.00000 0.00000 0.00 0.000 5.894 5.894 0.000 5.776 5.776 0.000
H15MET 2017-11-18 01:45:00 2349 208 900.0 2017.0 322.00 145.0 -0.4320 -0.7400 100.000 100.000 -0.4320 -0.7400 0.00000 0.00000 0.00 0.000 5.918 5.918 0.000 5.787 5.787 0.000
H15MET 2017-11-18 01:30:00 2348 208 900.0 2017.0 322.00 130.0 -0.4510 -0.7360 100.000 100.000 -0.4510 -0.7360 0.00000 0.00000 0.00 0.000 5.910 5.910 0.000 5.788 5.788 -0.000
H15MET 2017-11-18 01:15:00 2347 208 900.0 2017.0 322.00 115.0 -0.4210 -0.6810 100.000 100.000 -0.4210 -0.6810 0.00000 0.00000 0.00 0.000 5.923 5.923 0.000 5.812 5.812 0.000
H15MET 2017-11-18 01:00:00 2346 208 900.0 2017.0 322.00 100.0 -0.4230 -0.6550 100.000 100.000 -0.4230 -0.6550 0.00000 0.00000 0.00 0.000 5.922 5.922 0.000 5.823 5.823 0.000
H15MET 2017-11-18 00:45:00 2345 208 900.0 2017.0 322.00 45.0 -0.4340 -0.6690 100.000 100.000 -0.4340 -0.6690 0.00000 0.00000 0.00 0.000 5.918 5.918 0.000 5.817 5.817 0.000
H15MET 2017-11-18 00:30:00 2344 208 900.0 2017.0 322.00 30.0 -0.3910 -0.6480 100.000 100.000 -0.3910 -0.6480 0.00000 0.00000 0.00 0.000 5.936 5.936 0.000 5.826 5.826 0.000
H15MET 2017-11-18 00:15:00 2343 208 900.0 2017.0 322.00 15.0 -0.2960 -0.5300 100.000 100.000 -0.2960 -0.5300 0.00000 0.00000 0.00 0.000 5.977 5.977 0.000 5.876 5.876 0.000
H15MET 2017-11-18 00:00:00 2342 208 900.0 2017.0 321.00 2400.0 -0.1870 -0.4500 100.000 100.000 -0.1870 -0.4500 0.00000 0.00000 0.00 0.000 6.025 6.025 0.000 5.911 5.911 0.000
H15MET 2017-11-17 23:45:00 2341 208 900.0 2017.0 321.00 2345.0 -0.0550 -0.2840 100.000 100.000 -0.0550 -0.2840 0.00000 0.00000 0.00 0.000 6.083 6.083 0.000 5.983 5.983 0.000
H15MET 2017-11-17 23:30:00 2340 208 900.0 2017.0 321.00 2330.0 0.0080 -0.2310 100.000 100.000 0.0080 -0.2310 0.00000 0.00000 0.00 0.000 6.111 6.111 0.000 6.006 6.006 0.000
H15MET 2017-11-17 23:15:00 2339 208 900.0 2017.0 321.00 2315.0 -0.0270 -0.2740 100.000 100.000 -0.0270 -0.2740 0.00000 0.00000 0.00 0.000 6.096 6.096 0.000 5.987 5.987 0.000
H15MET 2017-11-17 23:00:00 2338 208 900.0 2017.0 321.00 2300.0 -0.0270 -0.2770 100.000 100.000 -0.0270 -0.2770 0.00000 0.00000 0.00 0.000 6.096 6.096 0.000 5.986 5.986 0.000
H15MET 2017-11-17 22:45:00 2337 208 900.0 2017.0 321.00 2245.0 -0.0200 -0.2540 100.000 100.000 -0.0200 -0.2540 0.00000 0.00000 0.00 0.000 6.099 6.099 0.000 5.996 5.996 0.000
H15MET 2017-11-17 22:30:00 2336 208 900.0 2017.0 321.00 2230.0 0.0160 -0.2280 100.000 100.000 0.0160 -0.2280 0.00000 0.00000 0.00 0.000 6.115 6.115 0.000 6.007 6.007 -0.000
H15MET 2017-11-17 22:15:00 2335 208 900.0 2017.0 321.00 2215.0 0.0050 -0.2310 100.000 100.000 0.0050 -0.2310 0.00000 0.00000 0.00 0.000 6.110 6.110 0.000 6.006 6.006 0.000
H15MET 2017-11-17 22:00:00 2334 208 900.0 2017.0 321.00 2200.0 0.0140 -0.2120 100.000 100.000 0.0140 -0.2120 0.00000 0.00000 0.00 0.000 6.114 6.114 0.000 6.014 6.014 0.000
H15MET 2017-11-17 21:45:00 2333 208 900.0 2017.0 321.00 2145.0 0.0600 -0.1760 100.000 100.000 0.0600 -0.1760 0.00000 0.00000 0.00 0.000 6.135 6.135 0.000 6.030 6.030 -0.000
H15MET 2017-11-17 21:30:00 2332 208 900.0 2017.0 321.00 2130.0 0.0550 -0.1670 100.000 100.000 0.0550 -0.1670 0.00000 0.00000 0.00 0.000 6.132 6.132 0.000 6.034 6.034 0.000
H15MET 2017-11-17 21:15:00 2331 208 900.0 2017.0 321.00 2115.0 0.0260 -0.1920 100.000 100.000 0.0260 -0.1920 0.00000 0.00000 0.00 0.000 6.119 6.119 0.000 6.023 6.023 0.000
H15MET 2017-11-17 21:00:00 2330 208 900.0 2017.0 321.00 2100.0 0.0060 -0.2200 100.000 100.000 0.0060 -0.2200 0.00000 0.00000 0.00 0.000 6.110 6.110 0.000 6.011 6.011 -0.000
H15MET 2017-11-17 20:45:00 2329 208 900.0 2017.0 321.00 2045.0 0.0360 -0.1910 100.000 100.000 0.0360 -0.1910 0.00000 0.00000 0.00 0.000 6.124 6.124 0.000 6.023 6.023 0.000
H15MET 2017-11-17 20:30:00 2328 208 900.0 2017.0 321.00 2030.0 0.0390 -0.1920 100.000 100.000 0.0390 -0.1920 0.00000 0.00000 0.00 0.000 6.125 6.125 0.000 6.023 6.023 0.000
H15MET 2017-11-17 20:15:00 2327 208 900.0 2017.0 321.00 2015.0 0.0300 -0.1920 100.000 100.000 0.0300 -0.1920 0.00000 0.00000 0.00 0.000 6.121 6.121 0.000 6.023 6.023 0.000
H15MET 2017-11-17 20:00:00 2326 208 900.0 2017.0 321.00 2000.0 0.0080 -0.2020 100.000 100.000 0.0080 -0.2020 0.00000 0.00000 0.00 0.000 6.111 6.111 0.000 6.019 6.019 0.000
H15MET 2017-11-17 19:45:00 2325 208 900.0 2017.0 321.00 1945.0 -0.0010 -0.2270 100.000 100.000 -0.0010 -0.2270 0.00000 0.00000 0.00 0.000 6.107 6.107 0.000 6.008 6.008 0.000
H15MET 2017-11-17 19:30:00 2324 208 900.0 2017.0 321.00 1930.0 0.0040 -0.2240 100.000 100.000 0.0040 -0.2240 0.00000 0.00000 0.00 0.000 6.110 6.110 0.000 6.009 6.009 0.000
H15MET 2017-11-17 19:15:00 2323 208 900.0 2017.0 321.00 1915.0 0.0040 -0.2290 100.000 100.000 0.0040 -0.2290 0.00000 0.00000 0.00 0.000 6.110 6.110 0.000 6.007 6.007 0.000
H15MET 2017-11-17 19:00:00 2322 208 900.0 2017.0 321.00 1900.0 -0.0080 -0.2290 100.000 100.000 -0.0080 -0.2290 0.00000 0.00000 0.00 0.000 6.104 6.104 0.000 6.007 6.007 0.000
H15MET 2017-11-17 18:45:00 2321 208 900.0 2017.0 321.00 1845.0 -0.0330 -0.2560 100.000 100.000 -0.0340 -0.2560 0.00000 0.00000 0.00 0.000 6.093 6.093 0.000 5.995 5.995 0.000
H15MET 2017-11-17 18:30:00 2320 208 900.0 2017.0 321.00 1830.0 -0.0110 -0.2390 100.000 100.000 -0.0110 -0.2390 0.00000 0.00000 0.00 0.000 6.103 6.103 0.000 6.002 6.002 -0.000
H15MET 2017-11-17 18:15:00 2319 208 900.0 2017.0 321.00 1815.0 -0.0150 -0.2270 100.000 100.000 -0.0150 -0.2270 0.00000 0.00000 0.00 0.000 6.101 6.101 0.000 6.008 6.008 0.000
H15MET 2017-11-17 18:00:00 2318 208 900.0 2017.0 321.00 1800.0 -0.0210 -0.2400 100.000 100.000 -0.0210 -0.2400 0.00000 0.00000 0.00 0.000 6.098 6.098 0.000 6.002 6.002 -0.000
H15MET 2017-11-17 17:45:00 2317 208 900.0 2017.0 321.00 1745.0 -0.0460 -0.2700 100.000 100.000 -0.0460 -0.2700 0.00000 0.00000 0.00 0.000 6.087 6.087 0.000 5.989 5.989 0.000
H15MET 2017-11-17 17:30:00 2316 208 900.0 2017.0 321.00 1730.0 -0.0390 -0.2730 100.000 100.000 -0.0390 -0.2730 0.00000 0.00000 0.00 0.000 6.090 6.090 -0.000 5.988 5.988 0.000
H15MET 2017-11-17 17:15:00 2315 208 900.0 2017.0 321.00 1715.0 -0.0460 -0.2800 100.000 100.000 -0.0460 -0.2800 0.00000 0.00000 0.00 0.000 6.087 6.087 0.000 5.984 5.984 0.000
H15MET 2017-11-17 17:00:00 2314 208 900.0 2017.0 321.00 1700.0 -0.0380 -0.2540 100.000 100.000 -0.0380 -0.2540 0.00000 0.00000 0.00 0.000 6.091 6.091 -0.000 5.996 5.996 0.000
H15MET 2017-11-17 16:45:00 2313 208 900.0 2017.0 321.00 1645.0 -0.0270 -0.2560 100.000 100.000 -0.0270 -0.2560 0.00000 0.00000 0.00 0.000 6.096 6.096 0.000 5.995 5.995 0.000
H15MET 2017-11-17 16:30:00 2312 208 900.0 2017.0 321.00 1630.0 -0.0230 -0.2590 100.000 100.000 -0.0230 -0.2600 0.00000 0.00000 0.00 0.000 6.098 6.098 0.000 5.994 5.993 0.000
H15MET 2017-11-17 16:15:00 2311 208 900.0 2017.0 321.00 1615.0 0.0040 -0.2430 100.000 100.000 0.0040 -0.2430 0.00000 0.00000 0.00 0.000 6.110 6.110 0.000 6.001 6.001 -0.000
H15MET 2017-11-17 16:00:00 2310 208 900.0 2017.0 321.00 1600.0 0.0480 -0.1900 100.000 100.000 0.0480 -0.1900 0.00000 0.00000 0.00 0.000 6.129 6.129 0.000 6.024 6.024 0.000
H15MET 2017-11-17 15:45:00 2309 208 900.0 2017.0 321.00 1545.0 0.1830 -0.1010 100.000 100.000 0.1830 -0.1010 0.00000 0.00000 0.00 0.000 6.190 6.190 0.000 6.063 6.063 0.000
H15MET 2017-11-17 15:30:00 2308 208 900.0 2017.0 321.00 1530.0 0.2310 -0.0380 100.000 100.000 0.2310 -0.0380 0.00000 0.00000 0.00 0.000 6.211 6.211 0.000 6.091 6.091 -0.000
H15MET 2017-11-17 15:15:00 2307 208 900.0 2017.0 321.00 1515.0 0.2080 -0.0830 100.000 100.000 0.2080 -0.0830 0.00000 0.00000 0.00 0.000 6.201 6.201 0.000 6.071 6.071 0.000
H15MET 2017-11-17 15:00:00 2306 208 900.0 2017.0 321.00 1500.0 0.2440 -0.0540 100.000 100.000 0.2440 -0.0540 0.00000 0.00000 0.00 0.000 6.217 6.217 0.000 6.084 6.084 0.000
H15MET 2017-11-17 14:45:00 2305 208 900.0 2017.0 321.00 1445.0 0.2830 -0.0120 100.000 100.000 0.2830 -0.0120 0.00000 0.00000 0.00 0.000 6.235 6.235 0.000 6.102 6.102 0.000
H15MET 2017-11-17 14:30:00 2304 208 900.0 2017.0 321.00 1430.0 0.4210 0.0670 100.000 100.000 0.4210 0.0670 0.00000 0.00000 0.00 0.000 6.297 6.297 0.000 6.138 6.138 0.000
H15MET 2017-11-17 14:15:00 2303 208 900.0 2017.0 321.00 1415.0 0.4280 0.0850 100.000 100.000 0.4280 0.0850 0.00000 0.00000 0.00 0.000 6.301 6.301 0.000 6.146 6.146 0.000
H15MET 2017-11-17 14:00:00 2302 208 900.0 2017.0 321.00 1400.0 0.4870 0.1660 100.000 100.000 0.4870 0.1660 0.00000 0.00000 0.00 0.000 6.328 6.328 0.000 6.182 6.182 0.000
H15MET 2017-11-17 13:45:00 2301 208 900.0 2017.0 321.00 1345.0 0.3260 0.0170 100.000 100.000 0.3260 0.0170 0.00000 0.00000 0.00 0.000 6.254 6.254 0.000 6.115 6.115 0.000
H15MET 2017-11-17 13:30:00 2300 208 900.0 2017.0 321.00 1330.0 0.5400 0.1840 100.000 100.000 0.5400 0.1840 0.00000 0.00000 0.00 0.000 6.352 6.352 0.000 6.190 6.190 0.000
H15MET 2017-11-17 13:15:00 2299 208 900.0 2017.0 321.00 1315.0 0.6110 0.2380 100.000 100.000 0.6110 0.2380 0.00000 0.00000 0.00 0.000 6.385 6.385 0.000 6.214 6.214 0.000
H15MET 2017-11-17 13:00:00 2298 208 900.0 2017.0 321.00 1300.0 0.5080 0.1950 100.000 100.000 0.5080 0.1950 0.00000 0.00000 0.00 0.000 6.337 6.337 0.000 6.195 6.195 0.000
H15MET 2017-11-17 12:45:00 2297 208 900.0 2017.0 321.00 1245.0 0.6870 0.3260 100.000 100.000 0.6870 0.3260 0.00000 0.00000 0.00 0.000 6.420 6.420 0.000 6.254 6.254 0.000
H15MET 2017-11-17 12:30:00 2296 208 900.0 2017.0 321.00 1230.0 0.7630 0.3330 100.000 100.000 0.7630 0.3330 0.00000 0.00000 0.00 0.000 6.455 6.455 0.000 6.257 6.257 -0.000
H15MET 2017-11-17 12:15:00 2295 208 900.0 2017.0 321.00 1215.0 0.7320 0.4110 100.000 100.000 0.7320 0.4110 0.00000 0.00000 0.00 0.000 6.441 6.441 0.000 6.293 6.293 0.000
H15MET 2017-11-17 12:00:00 2294 208 900.0 2017.0 321.00 1200.0 0.5740 0.3300 100.000 100.000 0.5740 0.3300 0.00000 0.00000 0.00 0.000 6.368 6.368 0.000 6.256 6.256 -0.000
H15MET 2017-11-17 11:45:00 2293 208 900.0 2017.0 321.00 1145.0 0.3520 0.1080 100.000 100.000 0.3520 0.1080 0.00000 0.00000 0.00 0.000 6.266 6.266 -0.000 6.156 6.156 0.000
H15MET 2017-11-17 11:30:00 2292 208 900.0 2017.0 321.00 1130.0 0.3200 0.0660 100.000 100.000 0.3200 0.0660 0.00000 0.00000 0.00 0.000 6.252 6.252 0.000 6.137 6.137 0.000
H15MET 2017-11-17 11:15:00 2291 208 900.0 2017.0 321.00 1115.0 0.2900 -0.0460 100.000 100.000 0.2900 -0.0460 0.00000 0.00000 0.00 0.000 6.238 6.238 0.000 6.087 6.087 0.000
H15MET 2017-11-17 11:00:00 2290 208 900.0 2017.0 321.00 1100.0 0.3370 0.0480 100.000 100.000 0.3370 0.0480 0.00000 0.00000 0.00 0.000 6.259 6.259 0.000 6.129 6.129 0.000
H15MET 2017-11-17 10:45:00 2289 208 900.0 2017.0 321.00 1045.0 0.2310 -0.0530 100.000 100.000 0.2310 -0.0530 0.00000 0.00000 0.00 0.000 6.211 6.211 0.000 6.084 6.084 0.000
H15MET 2017-11-17 10:30:00 2288 208 900.0 2017.0 321.00 1030.0 0.2020 -0.0960 100.000 100.000 0.2020 -0.0960 0.00100 0.00100 10.25 0.003 6.198 6.198 0.000 6.065 6.065 0.000
H15MET 2017-11-17 10:15:00 2287 208 900.0 2017.0 321.00 1015.0 0.1520 -0.1780 100.000 100.000 0.1520 -0.1780 0.00100 0.00100 286.80 0.007 6.176 6.176 0.000 6.029 6.029 0.000
H15MET 2017-11-17 10:00:00 2286 208 900.0 2017.0 321.00 1000.0 0.0890 -0.1880 100.000 100.000 0.0890 -0.1880 0.00000 0.00000 0.00 0.000 6.147 6.147 0.000 6.025 6.025 0.000
H15MET 2017-11-17 09:45:00 2285 208 900.0 2017.0 321.00 945.0 0.0260 -0.2430 100.000 100.000 0.0260 -0.2430 0.00200 0.00200 51.70 0.158 6.119 6.119 0.000 6.001 6.001 -0.000
H15MET 2017-11-17 09:30:00 2284 208 900.0 2017.0 321.00 930.0 -0.0140 -0.2890 100.000 100.000 -0.0140 -0.2890 0.00000 0.00000 0.00 0.000 6.102 6.102 0.000 5.981 5.981 0.000
H15MET 2017-11-17 09:15:00 2283 208 900.0 2017.0 321.00 915.0 -0.1130 -0.3550 100.000 100.000 -0.1130 -0.3550 0.00000 0.00000 0.00 0.000 6.058 6.058 0.000 5.952 5.952 0.000
H15MET 2017-11-17 09:00:00 2282 208 900.0 2017.0 321.00 900.0 -0.1650 -0.4460 100.000 100.000 -0.1660 -0.4460 0.00000 0.00000 0.00 0.000 6.035 6.034 0.000 5.912 5.912 0.000
H15MET 2017-11-17 08:45:00 2281 208 900.0 2017.0 321.00 845.0 -0.1790 -0.4420 100.000 100.000 -0.1790 -0.4420 0.00000 0.00000 0.00 0.000 6.029 6.029 0.000 5.914 5.914 0.000
H15MET 2017-11-17 08:30:00 2280 208 900.0 2017.0 321.00 830.0 -0.2590 -0.5370 100.000 100.000 -0.2590 -0.5370 0.00000 0.00000 0.00 0.000 5.994 5.994 0.000 5.873 5.873 -0.000
H15MET 2017-11-17 08:15:00 2279 208 900.0 2017.0 321.00 815.0 -0.2870 -0.5450 100.000 100.000 -0.2870 -0.5450 0.00000 0.00000 0.00 0.000 5.981 5.981 0.000 5.870 5.870 0.000
H15MET 2017-11-17 08:00:00 2278 208 900.0 2017.0 321.00 800.0 -0.3350 -0.6230 100.000 100.000 -0.3350 -0.6230 0.00000 0.00000 0.00 0.000 5.960 5.960 0.000 5.836 5.836 0.000
H15MET 2017-11-17 07:45:00 2277 208 900.0 2017.0 321.00 745.0 -0.3320 -0.6140 100.000 100.000 -0.3320 -0.6140 0.00000 0.00000 0.00 0.000 5.962 5.962 0.000 5.840 5.840 0.000
H15MET 2017-11-17 07:30:00 2276 208 900.0 2017.0 321.00 730.0 -0.2810 -0.5600 100.000 100.000 -0.2810 -0.5600 0.00000 0.00000 0.00 0.000 5.984 5.984 0.000 5.863 5.863 0.000
H15MET 2017-11-17 07:15:00 2275 208 900.0 2017.0 321.00 715.0 -0.3460 -0.6260 100.000 100.000 -0.3460 -0.6260 0.00000 0.00000 0.00 0.000 5.956 5.956 0.000 5.835 5.835 0.000
H15MET 2017-11-17 07:00:00 2274 208 900.0 2017.0 321.00 700.0 -0.3540 -0.6450 100.000 100.000 -0.3540 -0.6450 0.00000 0.00000 0.00 0.000 5.952 5.952 0.000 5.827 5.827 0.000
H15MET 2017-11-17 06:45:00 2273 208 900.0 2017.0 321.00 645.0 -0.3980 -0.6360 100.000 100.000 -0.3980 -0.6360 0.00000 0.00000 0.00 0.000 5.933 5.933 0.000 5.831 5.831 0.000
H15MET 2017-11-17 06:30:00 2272 208 900.0 2017.0 321.00 630.0 -0.3560 -0.6460 100.000 100.000 -0.3560 -0.6470 0.00000 0.00000 0.00 0.000 5.951 5.951 0.000 5.827 5.826 0.000
H15MET 2017-11-17 06:15:00 2271 208 900.0 2017.0 321.00 615.0 -0.3130 -0.6220 100.000 100.000 -0.3130 -0.6220 0.00000 0.00000 0.00 0.000 5.970 5.970 -0.000 5.837 5.837 0.000
H15MET 2017-11-17 06:00:00 2270 208 900.0 2017.0 321.00 600.0 -0.2670 -0.5910 100.000 100.000 -0.2670 -0.5910 0.00000 0.00000 0.00 0.000 5.990 5.990 0.000 5.850 5.850 0.000
H15MET 2017-11-17 05:45:00 2269 208 900.0 2017.0 321.00 545.0 -0.2880 -0.6210 100.000 100.000 -0.2880 -0.6210 0.00000 0.00000 0.00 0.000 5.981 5.981 0.000 5.837 5.837 0.000
H15MET 2017-11-17 05:30:00 2268 208 900.0 2017.0 321.00 530.0 -0.2880 -0.5810 100.000 100.000 -0.2880 -0.5810 0.00000 0.00000 0.00 0.000 5.981 5.981 0.000 5.854 5.854 0.000
H15MET 2017-11-17 05:15:00 2267 208 900.0 2017.0 321.00 515.0 -0.2440 -0.5480 100.000 100.000 -0.2440 -0.5480 0.00000 0.00000 0.00 0.000 6.000 6.000 0.000 5.868 5.868 0.000
H15MET 2017-11-17 05:00:00 2266 208 900.0 2017.0 321.00 500.0 -0.2160 -0.5200 100.000 100.000 -0.2160 -0.5200 0.00000 0.00000 0.00 0.000 6.012 6.012 -0.000 5.880 5.880 0.000
H15MET 2017-11-17 04:45:00 2265 208 900.0 2017.0 321.00 445.0 -0.1890 -0.4760 100.000 100.000 -0.1890 -0.4760 0.00000 0.00000 0.00 0.000 6.024 6.024 0.000 5.899 5.899 -0.000
H15MET 2017-11-17 04:30:00 2264 208 900.0 2017.0 321.00 430.0 -0.1930 -0.4840 100.000 100.000 -0.1930 -0.4840 0.00000 0.00000 0.00 0.000 6.023 6.023 0.000 5.896 5.896 0.000
H15MET 2017-11-17 04:15:00 2263 208 900.0 2017.0 321.00 415.0 -0.2100 -0.5070 100.000 100.000 -0.2100 -0.5070 0.00000 0.00000 0.00 0.000 6.015 6.015 0.000 5.886 5.886 0.000
H15MET 2017-11-17 04:00:00 2262 208 900.0 2017.0 321.00 400.0 -0.2380 -0.5210 100.000 100.000 -0.2380 -0.5210 0.00000 0.00000 0.00 0.000 6.003 6.003 0.000 5.880 5.880 0.000
H15MET 2017-11-17 03:45:00 2261 208 900.0 2017.0 321.00 345.0 -0.2410 -0.5370 100.000 100.000 -0.2410 -0.5370 0.00000 0.00000 0.00 0.000 6.002 6.002 0.000 5.873 5.873 -0.000
H15MET 2017-11-17 03:30:00 2260 208 900.0 2017.0 321.00 330.0 -0.2060 -0.4960 100.000 100.000 -0.2060 -0.4960 0.00000 0.00000 0.00 0.000 6.017 6.017 0.000 5.891 5.891 0.000
H15MET 2017-11-17 03:15:00 2259 208 900.0 2017.0 321.00 315.0 -0.1910 -0.4870 100.000 100.000 -0.1910 -0.4870 0.00000 0.00000 0.00 0.000 6.023 6.023 0.000 5.895 5.895 0.000
H15MET 2017-11-17 03:00:00 2258 208 900.0 2017.0 321.00 300.0 -0.2190 -0.5020 100.000 100.000 -0.2190 -0.5020 0.00000 0.00000 0.00 0.000 6.011 6.011 0.000 5.888 5.888 0.000
H15MET 2017-11-17 02:45:00 2257 208 900.0 2017.0 321.00 245.0 -0.2230 -0.5180 100.000 100.000 -0.2230 -0.5180 0.00000 0.00000 0.00 0.000 6.009 6.009 0.000 5.881 5.881 0.000
H15MET 2017-11-17 02:30:00 2256 208 900.0 2017.0 321.00 230.0 -0.2150 -0.5040 100.000 100.000 -0.2150 -0.5040 0.00000 0.00000 0.00 0.000 6.013 6.013 0.000 5.887 5.887 0.000
H15MET 2017-11-17 02:15:00 2255 208 900.0 2017.0 321.00 215.0 -0.1920 -0.4880 100.000 100.000 -0.1920 -0.4880 0.00000 0.00000 0.00 0.000 6.023 6.023 0.000 5.894 5.894 0.000
H15MET 2017-11-17 02:00:00 2254 208 900.0 2017.0 321.00 200.0 -0.1980 -0.4830 100.000 100.000 -0.1980 -0.4830 0.00000 0.00000 0.00 0.000 6.020 6.020 -0.000 5.896 5.896 0.000
H15MET 2017-11-17 01:45:00 2253 208 900.0 2017.0 321.00 145.0 -0.1670 -0.4520 100.000 100.000 -0.1670 -0.4520 0.00000 0.00000 0.00 0.000 6.034 6.034 0.000 5.910 5.910 -0.000
H15MET 2017-11-17 01:30:00 2252 208 900.0 2017.0 321.00 130.0 -0.1760 -0.4590 100.000 100.000 -0.1760 -0.4590 0.00000 0.00000 0.00 0.000 6.030 6.030 -0.000 5.907 5.907 -0.000
H15MET 2017-11-17 01:15:00 2251 208 900.0 2017.0 321.00 115.0 -0.1810 -0.4690 100.000 100.000 -0.1810 -0.4690 0.00000 0.00000 0.00 0.000 6.028 6.028 0.000 5.902 5.902 0.000
H15MET 2017-11-17 01:00:00 2250 208 900.0 2017.0 321.00 100.0 -0.1720 -0.4550 100.000 100.000 -0.1720 -0.4550 0.00000 0.00000 0.00 0.000 6.032 6.032 -0.000 5.908 5.908 0.000
H15MET 2017-11-17 00:45:00 2249 208 900.0 2017.0 321.00 45.0 -0.1700 -0.4620 100.000 100.000 -0.1700 -0.4620 0.00000 0.00000 0.00 0.000 6.033 6.033 0.000 5.905 5.905 0.000
H15MET 2017-11-17 00:30:00 2248 208 900.0 2017.0 321.00 30.0 -0.1570 -0.4460 100.000 100.000 -0.1570 -0.4460 0.00000 0.00000 0.00 0.000 6.038 6.038 0.000 5.912 5.912 0.000
H15MET 2017-11-17 00:15:00 2247 208 900.0 2017.0 321.00 15.0 -0.1270 -0.4060 100.000 100.000 -0.1270 -0.4060 0.00000 0.00000 0.00 0.000 6.052 6.052 0.000 5.930 5.930 -0.000
H15MET 2017-11-17 00:00:00 2246 208 900.0 2017.0 320.00 2400.0 -0.1210 -0.3730 100.000 100.000 -0.1210 -0.3730 0.00000 0.00000 0.00 0.000 6.054 6.054 0.000 5.944 5.944 0.000
H15MET 2017-11-16 23:45:00 2245 208 900.0 2017.0 320.00 2345.0 -0.0750 -0.3470 100.000 100.000 -0.0750 -0.3470 0.00000 0.00000 0.00 0.000 6.075 6.075 0.000 5.955 5.955 0.000
H15MET 2017-11-16 23:30:00 2244 208 900.0 2017.0 320.00 2330.0 -0.0550 -0.3010 100.000 100.000 -0.0550 -0.3010 0.00000 0.00000 0.00 0.000 6.083 6.083 0.000 5.975 5.975 0.000
H15MET 2017-11-16 23:15:00 2243 208 900.0 2017.0 320.00 2315.0 -0.0410 -0.2850 100.000 100.000 -0.0410 -0.2850 0.00000 0.00000 0.00 0.000 6.090 6.090 0.000 5.982 5.982 0.000
H15MET 2017-11-16 23:00:00 2242 208 900.0 2017.0 320.00 2300.0 -0.0150 -0.2840 100.000 100.000 -0.0150 -0.2840 0.00000 0.00000 0.00 0.000 6.101 6.101 0.000 5.983 5.983 0.000
H15MET 2017-11-16 22:45:00 2241 208 900.0 2017.0 320.00 2245.0 -0.0030 -0.2660 100.000 100.000 -0.0030 -0.2660 0.00000 0.00000 0.00 0.000 6.106 6.106 0.000 5.991 5.991 0.000
H15MET 2017-11-16 22:30:00 2240 208 900.0 2017.0 320.00 2230.0 0.0130 -0.2600 100.000 100.000 0.0130 -0.2600 0.00000 0.00000 0.00 0.000 6.114 6.114 0.000 5.993 5.993 0.000
H15MET 2017-11-16 22:15:00 2239 208 900.0 2017.0 320.00 2215.0 -0.0440 -0.3010 100.000 100.000 -0.0440 -0.3010 0.00000 0.00000 0.00 0.000 6.088 6.088 0.000 5.975 5.975 0.000
H15MET 2017-11-16 22:00:00 2238 208 900.0 2017.0 320.00 2200.0 -0.0810 -0.3370 100.000 100.000 -0.0810 -0.3370 0.00000 0.00000 0.00 0.000 6.072 6.072 0.000 5.960 5.960 0.000
H15MET 2017-11-16 21:45:00 2237 208 900.0 2017.0 320.00 2145.0 -0.1060 -0.3670 100.000 100.000 -0.1060 -0.3670 0.00000 0.00000 0.00 0.000 6.061 6.061 0.000 5.947 5.947 -0.000
H15MET 2017-11-16 21:30:00 2236 208 900.0 2017.0 320.00 2130.0 -0.1180 -0.3870 100.000 100.000 -0.1180 -0.3870 0.00000 0.00000 0.00 0.000 6.056 6.056 -0.000 5.938 5.938 0.000
H15MET 2017-11-16 21:15:00 2235 208 900.0 2017.0 320.00 2115.0 -0.1390 -0.4120 100.000 100.000 -0.1390 -0.4120 0.00000 0.00000 0.00 0.000 6.046 6.046 -0.000 5.927 5.927 0.000
H15MET 2017-11-16 21:00:00 2234 208 900.0 2017.0 320.00 2100.0 -0.1140 -0.3820 100.000 100.000 -0.1140 -0.3820 0.00000 0.00000 0.00 0.000 6.057 6.057 0.000 5.940 5.940 0.000
H15MET 2017-11-16 20:45:00 2233 208 900.0 2017.0 320.00 2045.0 -0.0920 -0.3620 100.000 100.000 -0.0920 -0.3620 0.00000 0.00000 0.00 0.000 6.067 6.067 0.000 5.949 5.949 0.000
H15MET 2017-11-16 20:30:00 2232 208 900.0 2017.0 320.00 2030.0 -0.0870 -0.3640 100.000 100.000 -0.0870 -0.3640 0.00000 0.00000 0.00 0.000 6.069 6.069 -0.000 5.948 5.948 0.000
H15MET 2017-11-16 20:15:00 2231 208 900.0 2017.0 320.00 2015.0 -0.0930 -0.3610 100.000 100.000 -0.0930 -0.3610 0.00000 0.00000 0.00 0.000 6.067 6.067 0.000 5.949 5.949 0.000
H15MET 2017-11-16 20:00:00 2230 208 900.0 2017.0 320.00 2000.0 -0.0750 -0.3280 100.000 100.000 -0.0750 -0.3280 0.00000 0.00000 0.00 0.000 6.075 6.075 0.000 5.964 5.964 0.000
H15MET 2017-11-16 19:45:00 2229 208 900.0 2017.0 320.00 1945.0 -0.0840 -0.3290 100.000 100.000 -0.0840 -0.3290 0.00000 0.00000 0.00 0.000 6.071 6.071 0.000 5.963 5.963 -0.000
H15MET 2017-11-16 19:30:00 2228 208 900.0 2017.0 320.00 1930.0 -0.0750 -0.3180 100.000 100.000 -0.0750 -0.3180 0.00000 0.00000 0.00 0.000 6.075 6.075 0.000 5.968 5.968 0.000
H15MET 2017-11-16 19:15:00 2227 208 900.0 2017.0 320.00 1915.0 -0.0950 -0.3440 100.000 100.000 -0.0950 -0.3440 0.00000 0.00000 0.00 0.000 6.066 6.066 0.000 5.957 5.957 0.000
H15MET 2017-11-16 19:00:00 2226 208 900.0 2017.0 320.00 1900.0 -0.0860 -0.3490 100.000 100.000 -0.0860 -0.3490 0.00000 0.00000 0.00 0.000 6.070 6.070 0.000 5.954 5.954 0.000
H15MET 2017-11-16 18:45:00 2225 208 900.0 2017.0 320.00 1845.0 -0.0950 -0.3520 100.000 100.000 -0.0950 -0.3520 0.00000 0.00000 0.00 0.000 6.066 6.066 0.000 5.953 5.953 -0.000
H15MET 2017-11-16 18:30:00 2224 208 900.0 2017.0 320.00 1830.0 -0.0930 -0.3510 100.000 100.000 -0.0930 -0.3510 0.00000 0.00000 0.00 0.000 6.067 6.067 0.000 5.954 5.954 0.000
H15MET 2017-11-16 18:15:00 2223 208 900.0 2017.0 320.00 1815.0 -0.0840 -0.3600 100.000 100.000 -0.0840 -0.3600 0.00000 0.00000 0.00 0.000 6.071 6.071 0.000 5.950 5.950 0.000
H15MET 2017-11-16 18:00:00 2222 208 900.0 2017.0 320.00 1800.0 -0.1180 -0.3830 100.000 100.000 -0.1180 -0.3830 0.00000 0.00000 0.00 0.000 6.056 6.056 -0.000 5.940 5.940 0.000
H15MET 2017-11-16 17:45:00 2221 208 900.0 2017.0 320.00 1745.0 -0.0940 -0.3590 100.000 100.000 -0.0940 -0.3590 0.00000 0.00000 0.00 0.000 6.066 6.066 -0.000 5.950 5.950 -0.000
H15MET 2017-11-16 17:30:00 2220 208 900.0 2017.0 320.00 1730.0 0.0020 -0.2200 100.000 100.000 0.0020 -0.2200 0.00000 0.00000 0.00 0.000 6.109 6.109 0.000 6.011 6.011 -0.000
H15MET 2017-11-16 17:15:00 2219 208 900.0 2017.0 320.00 1715.0 0.1990 0.0340 100.000 100.000 0.1990 0.0340 0.00000 0.00000 0.00 0.000 6.197 6.197 -0.000 6.123 6.123 0.000
H15MET 2017-11-16 17:00:00 2218 208 900.0 2017.0 320.00 1700.0 0.3670 0.2450 100.000 100.000 0.3670 0.2450 0.02500 0.02500 346.50 0.135 6.273 6.273 0.000 6.218 6.218 0.000
H15MET 2017-11-16 16:45:00 2217 208 900.0 2017.0 320.00 1645.0 0.4240 0.2540 100.000 100.000 0.4240 0.2540 0.01500 0.01500 78.50 3.684 6.299 6.299 0.000 6.222 6.222 -0.000
H15MET 2017-11-16 16:30:00 2216 208 900.0 2017.0 320.00 1630.0 0.4810 0.3510 100.000 100.000 0.4810 0.3510 0.01800 0.01800 57.92 0.611 6.325 6.325 0.000 6.266 6.266 0.000
H15MET 2017-11-16 16:15:00 2215 208 900.0 2017.0 320.00 1615.0 0.4510 0.3510 100.000 100.000 0.4510 0.3510 0.05600 0.05100 312.70 6.051 6.311 6.311 0.000 6.266 6.266 0.000
H15MET 2017-11-16 16:00:00 2214 208 900.0 2017.0 320.00 1600.0 0.3540 0.1630 100.000 100.000 0.3540 0.1630 0.00000 0.00000 0.00 0.000 6.267 6.267 0.000 6.181 6.181 0.000
H15MET 2017-11-16 15:45:00 2213 208 900.0 2017.0 320.00 1545.0 0.2850 0.0530 100.000 100.000 0.2850 0.0530 0.00000 0.00000 91.20 3.216 6.236 6.236 0.000 6.131 6.131 0.000
H15MET 2017-11-16 15:30:00 2212 208 900.0 2017.0 320.00 1530.0 0.2890 0.0530 100.000 100.000 0.2880 0.0530 0.05800 0.05800 59.55 1.673 6.237 6.237 0.000 6.131 6.131 0.000
H15MET 2017-11-16 15:15:00 2211 208 900.0 2017.0 320.00 1515.0 0.3260 0.0990 100.000 100.000 0.3260 0.0990 0.00200 0.00100 43.42 1.545 6.254 6.254 0.000 6.152 6.152 0.000
H15MET 2017-11-16 15:00:00 2210 208 900.0 2017.0 320.00 1500.0 0.2870 0.0210 100.000 100.000 0.2870 0.0210 0.00000 0.00000 0.00 0.000 6.237 6.237 0.000 6.117 6.117 0.000
H15MET 2017-11-16 14:45:00 2209 208 900.0 2017.0 320.00 1445.0 0.1850 -0.0680 100.000 100.000 0.1850 -0.0680 0.00000 0.00000 0.00 0.000 6.191 6.191 0.000 6.078 6.078 0.000
H15MET 2017-11-16 14:30:00 2208 208 900.0 2017.0 320.00 1430.0 0.1610 -0.0750 100.000 100.000 0.1610 -0.0750 0.01400 0.01400 56.68 3.277 6.180 6.180 0.000 6.075 6.075 0.000
H15MET 2017-11-16 14:15:00 2207 208 900.0 2017.0 320.00 1415.0 0.2360 0.0040 100.000 100.000 0.2360 0.0040 0.07500 0.06200 76.10 12.120 6.213 6.213 -0.000 6.110 6.110 0.000
H15MET 2017-11-16 14:00:00 2206 208 900.0 2017.0 320.00 1400.0 0.3150 0.0710 100.000 100.000 0.3150 0.0710 0.00000 0.00000 0.00 0.000 6.249 6.249 0.000 6.139 6.139 0.000
H15MET 2017-11-16 13:45:00 2205 208 900.0 2017.0 320.00 1345.0 0.2510 0.0330 100.000 100.000 0.2510 0.0330 0.00100 0.00100 45.67 0.000 6.220 6.220 0.000 6.122 6.122 0.000
H15MET 2017-11-16 13:30:00 2204 208 900.0 2017.0 320.00 1330.0 0.3240 0.1600 100.000 100.000 0.3240 0.1600 0.00100 0.00000 32.27 0.004 6.253 6.253 0.000 6.179 6.179 0.000
H15MET 2017-11-16 13:15:00 2203 208 900.0 2017.0 320.00 1315.0 0.4960 0.3450 100.000 100.000 0.4960 0.3450 0.01300 0.01300 326.10 1.670 6.332 6.332 0.000 6.263 6.263 0.000
H15MET 2017-11-16 13:00:00 2202 208 900.0 2017.0 320.00 1300.0 0.7330 0.4670 100.000 100.000 0.7330 0.4670 0.00000 0.00000 0.00 0.000 6.441 6.441 0.000 6.319 6.319 0.000
H15MET 2017-11-16 12:45:00 2201 208 900.0 2017.0 320.00 1245.0 0.6940 0.4020 100.000 100.000 0.6940 0.4020 0.00000 0.00000 0.00 0.000 6.423 6.423 0.000 6.289 6.289 0.000
H15MET 2017-11-16 12:30:00 2200 208 900.0 2017.0 320.00 1230.0 0.5470 0.2660 100.000 100.000 0.5470 0.2660 0.00900 0.00800 341.30 4.031 6.355 6.355 0.000 6.227 6.227 0.000
H15MET 2017-11-16 12:15:00 2199 208 900.0 2017.0 320.00 1215.0 0.3760 0.1180 100.000 100.000 0.3760 0.1180 0.00000 0.00000 0.00 0.000 6.277 6.277 0.000 6.160 6.160 0.000
H15MET 2017-11-16 12:00:00 2198 208 900.0 2017.0 320.00 1200.0 0.3580 0.0850 100.000 100.000 0.3580 0.0850 0.00000 0.00000 0.00 0.000 6.269 6.269 0.000 6.146 6.146 0.000
H15MET 2017-11-16 11:45:00 2197 208 900.0 2017.0 320.00 1145.0 0.4550 0.1560 100.000 100.000 0.4550 0.1560 0.00000 0.00000 0.00 0.000 6.313 6.313 0.000 6.177 6.177 0.000
H15MET 2017-11-16 11:30:00 2196 208 900.0 2017.0 320.00 1130.0 0.5520 0.2710 100.000 100.000 0.5520 0.2710 0.00000 0.00000 0.00 0.000 6.358 6.358 0.000 6.229 6.229 0.000
H15MET 2017-11-16 11:15:00 2195 208 900.0 2017.0 320.00 1115.0 0.4580 0.1660 100.000 100.000 0.4580 0.1660 0.00000 0.00000 25.10 0.007 6.314 6.314 0.000 6.182 6.182 0.000
H15MET 2017-11-16 11:00:00 2194 208 900.0 2017.0 320.00 1100.0 0.5240 0.2040 100.000 100.000 0.5240 0.2040 0.00000 0.00000 0.00 0.000 6.345 6.345 0.000 6.199 6.199 0.000
H15MET 2017-11-16 10:45:00 2193 208 900.0 2017.0 320.00 1045.0 0.3630 0.0740 100.000 100.000 0.3630 0.0740 0.00000 0.00000 0.00 0.000 6.271 6.271 0.000 6.141 6.141 0.000
H15MET 2017-11-16 10:30:00 2192 208 900.0 2017.0 320.00 1030.0 0.2270 -0.0640 100.000 100.000 0.2270 -0.0640 0.00000 0.00000 36.75 0.000 6.209 6.209 0.000 6.079 6.079 0.000
H15MET 2017-11-16 10:15:00 2191 208 900.0 2017.0 320.00 1015.0 0.2360 -0.0730 100.000 100.000 0.2360 -0.0730 0.00000 0.00000 0.00 0.000 6.213 6.213 -0.000 6.075 6.075 0.000
H15MET 2017-11-16 10:00:00 2190 208 900.0 2017.0 320.00 1000.0 0.2380 -0.1070 100.000 100.000 0.2380 -0.1070 0.00000 0.00000 0.00 0.000 6.214 6.214 0.000 6.060 6.060 0.000
H15MET 2017-11-16 09:45:00 2189 208 900.0 2017.0 320.00 945.0 0.1810 -0.1360 100.000 100.000 0.1810 -0.1360 0.00000 0.00000 0.00 0.000 6.189 6.189 -0.000 6.048 6.048 0.000
H15MET 2017-11-16 09:30:00 2188 208 900.0 2017.0 320.00 930.0 0.1410 -0.1480 100.000 100.000 0.1410 -0.1480 0.00000 0.00000 0.00 0.000 6.171 6.171 0.000 6.042 6.042 0.000
H15MET 2017-11-16 09:15:00 2187 208 900.0 2017.0 320.00 915.0 0.1020 -0.1880 100.000 100.000 0.1020 -0.1880 0.00000 0.00000 0.00 0.000 6.153 6.153 0.000 6.025 6.025 0.000
H15MET 2017-11-16 09:00:00 2186 208 900.0 2017.0 320.00 900.0 0.0680 -0.2040 100.000 100.000 0.0680 -0.2040 0.00000 0.00000 0.00 0.000 6.138 6.138 -0.000 6.018 6.018 0.000
H15MET 2017-11-16 08:45:00 2185 208 900.0 2017.0 320.00 845.0 0.0250 -0.2660 100.000 100.000 0.0250 -0.2660 0.00000 0.00000 0.00 0.000 6.119 6.119 0.000 5.991 5.991 0.000
H15MET 2017-11-16 08:30:00 2184 208 900.0 2017.0 320.00 830.0 0.0060 -0.2850 100.000 100.000 0.0050 -0.2850 0.00000 0.00000 0.00 0.000 6.110 6.110 0.000 5.982 5.982 0.000
H15MET 2017-11-16 08:15:00 2183 208 900.0 2017.0 320.00 815.0 -0.0490 -0.3110 100.000 100.000 -0.0490 -0.3110 0.00000 0.00000 0.00 0.000 6.086 6.086 0.000 5.971 5.971 0.000
H15MET 2017-11-16 08:00:00 2182 208 900.0 2017.0 320.00 800.0 -0.0910 -0.3580 100.000 100.000 -0.0910 -0.3580 0.00000 0.00000 0.00 0.000 6.067 6.067 0.000 5.950 5.950 0.000
H15MET 2017-11-16 07:45:00 2181 208 900.0 2017.0 320.00 745.0 -0.1040 -0.3680 100.000 100.000 -0.1040 -0.3680 0.00000 0.00000 0.00 0.000 6.062 6.062 0.000 5.946 5.946 0.000
H15MET 2017-11-16 07:30:00 2180 208 900.0 2017.0 320.00 730.0 -0.1040 -0.3630 100.000 100.000 -0.1040 -0.3630 0.00000 0.00000 0.00 0.000 6.062 6.062 0.000 5.948 5.948 0.000
H15MET 2017-11-16 07:15:00 2179 208 900.0 2017.0 320.00 715.0 -0.0850 -0.3370 100.000 100.000 -0.0850 -0.3370 0.00000 0.00000 0.00 0.000 6.070 6.070 0.000 5.960 5.960 0.000
H15MET 2017-11-16 07:00:00 2178 208 900.0 2017.0 320.00 700.0 -0.0900 -0.3600 100.000 100.000 -0.0900 -0.3600 0.00000 0.00000 0.00 0.000 6.068 6.068 0.000 5.950 5.950 0.000
H15MET 2017-11-16 06:45:00 2177 208 900.0 2017.0 320.00 645.0 -0.0890 -0.3560 100.000 100.000 -0.0890 -0.3560 0.00000 0.00000 0.00 0.000 6.068 6.068 -0.000 5.951 5.951 0.000
H15MET 2017-11-16 06:30:00 2176 208 900.0 2017.0 320.00 630.0 -0.0990 -0.3600 100.000 100.000 -0.0990 -0.3600 0.00000 0.00000 0.00 0.000 6.064 6.064 0.000 5.950 5.950 0.000
H15MET 2017-11-16 06:15:00 2175 208 900.0 2017.0 320.00 615.0 -0.1090 -0.3700 100.000 100.000 -0.1090 -0.3700 0.00000 0.00000 0.00 0.000 6.060 6.060 0.000 5.945 5.945 0.000
H15MET 2017-11-16 06:00:00 2174 208 900.0 2017.0 320.00 600.0 -0.1090 -0.3590 100.000 100.000 -0.1090 -0.3590 0.00000 0.00000 0.00 0.000 6.060 6.060 0.000 5.950 5.950 -0.000
H15MET 2017-11-16 05:45:00 2173 208 900.0 2017.0 320.00 545.0 -0.0880 -0.3480 100.000 100.000 -0.0880 -0.3480 0.00000 0.00000 0.00 0.000 6.069 6.069 0.000 5.955 5.955 0.000
H15MET 2017-11-16 05:30:00 2172 208 900.0 2017.0 320.00 530.0 -0.0930 -0.3490 100.000 100.000 -0.0930 -0.3490 0.00000 0.00000 0.00 0.000 6.067 6.067 0.000 5.954 5.954 0.000
H15MET 2017-11-16 05:15:00 2171 208 900.0 2017.0 320.00 515.0 -0.0980 -0.3720 100.000 100.000 -0.0980 -0.3720 0.00000 0.00000 27.35 0.007 6.064 6.064 0.000 5.944 5.944 0.000
H15MET 2017-11-16 05:00:00 2170 208 900.0 2017.0 320.00 500.0 -0.1310 -0.3800 100.000 100.000 -0.1310 -0.3800 0.00000 0.00000 0.00 0.000 6.050 6.050 -0.000 5.941 5.941 0.000
H15MET 2017-11-16 04:45:00 2169 208 900.0 2017.0 320.00 445.0 -0.1340 -0.3900 100.000 100.000 -0.1340 -0.3900 0.00000 0.00000 0.00 0.000 6.048 6.048 0.000 5.937 5.937 0.000
H15MET 2017-11-16 04:30:00 2168 208 900.0 2017.0 320.00 430.0 -0.1380 -0.3950 100.000 100.000 -0.1380 -0.3950 0.00000 0.00000 0.00 0.000 6.047 6.047 0.000 5.934 5.934 0.000
H15MET 2017-11-16 04:15:00 2167 208 900.0 2017.0 320.00 415.0 -0.1350 -0.3940 100.000 100.000 -0.1350 -0.3940 0.00000 0.00000 0.00 0.000 6.048 6.048 0.000 5.935 5.935 0.000
H15MET 2017-11-16 04:00:00 2166 208 900.0 2017.0 320.00 400.0 -0.1490 -0.4060 100.000 100.000 -0.1490 -0.4060 0.00000 0.00000 0.00 0.000 6.042 6.042 0.000 5.930 5.930 -0.000
H15MET 2017-11-16 03:45:00 2165 208 900.0 2017.0 320.00 345.0 -0.1410 -0.3900 100.000 100.000 -0.1410 -0.3900 0.00000 0.00000 0.00 0.000 6.045 6.045 0.000 5.937 5.937 0.000
H15MET 2017-11-16 03:30:00 2164 208 900.0 2017.0 320.00 330.0 -0.1190 -0.3820 100.000 100.000 -0.1190 -0.3820 0.00000 0.00000 0.00 0.000 6.055 6.055 0.000 5.940 5.940 0.000
H15MET 2017-11-16 03:15:00 2163 208 900.0 2017.0 320.00 315.0 -0.1130 -0.3640 100.000 100.000 -0.1130 -0.3640 0.00000 0.00000 0.00 0.000 6.058 6.058 0.000 5.948 5.948 0.000
H15MET 2017-11-16 03:00:00 2162 208 900.0 2017.0 320.00 300.0 -0.0800 -0.3570 100.000 100.000 -0.0800 -0.3570 0.00000 0.00000 0.00 0.000 6.072 6.072 0.000 5.951 5.951 0.000
H15MET 2017-11-16 02:45:00 2161 208 900.0 2017.0 320.00 245.0 -0.0710 -0.3280 100.000 100.000 -0.0710 -0.3280 0.00000 0.00000 0.00 0.000 6.076 6.076 -0.000 5.964 5.964 0.000
H15MET 2017-11-16 02:30:00 2160 208 900.0 2017.0 320.00 230.0 -0.0720 -0.3440 100.000 100.000 -0.0720 -0.3440 0.00000 0.00000 0.00 0.000 6.076 6.076 0.000 5.957 5.957 0.000
H15MET 2017-11-16 02:15:00 2159 208 900.0 2017.0 320.00 215.0 -0.0830 -0.3630 100.000 100.000 -0.0830 -0.3630 0.00000 0.00000 0.00 0.000 6.071 6.071 0.000 5.948 5.948 0.000
H15MET 2017-11-16 02:00:00 2158 208 900.0 2017.0 320.00 200.0 -0.1170 -0.3910 100.000 100.000 -0.1170 -0.3910 0.00000 0.00000 0.00 0.000 6.056 6.056 0.000 5.936 5.936 0.000
H15MET 2017-11-16 01:45:00 2157 208 900.0 2017.0 320.00 145.0 -0.1470 -0.4060 100.000 100.000 -0.1470 -0.4060 0.00000 0.00000 0.00 0.000 6.043 6.043 -0.000 5.930 5.930 -0.000
H15MET 2017-11-16 01:30:00 2156 208 900.0 2017.0 320.00 130.0 -0.1780 -0.4360 100.000 100.000 -0.1780 -0.4360 0.00000 0.00000 0.00 0.000 6.029 6.029 0.000 5.917 5.917 0.000
H15MET 2017-11-16 01:15:00 2155 208 900.0 2017.0 320.00 115.0 -0.2230 -0.4740 100.000 100.000 -0.2230 -0.4740 0.00000 0.00000 0.00 0.000 6.009 6.009 0.000 5.900 5.900 0.000
H15MET 2017-11-16 01:00:00 2154 208 900.0 2017.0 320.00 100.0 -0.1960 -0.4450 100.000 100.000 -0.1960 -0.4450 0.00000 0.00000 0.00 0.000 6.021 6.021 0.000 5.913 5.913 0.000
H15MET 2017-11-16 00:45:00 2153 208 900.0 2017.0 320.00 45.0 -0.1730 -0.4390 100.000 100.000 -0.1730 -0.4400 0.00000 0.00000 0.00 0.000 6.031 6.031 0.000 5.915 5.915 -0.000
H15MET 2017-11-16 00:30:00 2152 208 900.0 2017.0 320.00 30.0 -0.1370 -0.4040 100.000 100.000 -0.1370 -0.4040 0.00000 0.00000 0.00 0.000 6.047 6.047 0.000 5.931 5.931 0.000
H15MET 2017-11-16 00:15:00 2151 208 900.0 2017.0 320.00 15.0 -0.1270 -0.3780 100.000 100.000 -0.1270 -0.3780 0.00000 0.00000 0.00 0.000 6.052 6.052 0.000 5.942 5.942 0.000
H15MET 2017-11-16 00:00:00 2150 208 900.0 2017.0 319.00 2400.0 -0.1040 -0.3530 100.000 100.000 -0.1040 -0.3530 0.00000 0.00000 0.00 0.000 6.062 6.062 0.000 5.953 5.953 0.000
H15MET 2017-11-15 23:45:00 2149 208 900.0 2017.0 319.00 2345.0 -0.0870 -0.3350 100.000 100.000 -0.0870 -0.3350 0.00000 0.00000 0.00 0.000 6.069 6.069 -0.000 5.960 5.960 0.000
H15MET 2017-11-15 23:30:00 2148 208 900.0 2017.0 319.00 2330.0 -0.0820 -0.3220 100.000 100.000 -0.0820 -0.3220 0.00000 0.00000 0.00 0.000 6.071 6.071 0.000 5.966 5.966 0.000
H15MET 2017-11-15 23:15:00 2147 208 900.0 2017.0 319.00 2315.0 -0.0580 -0.3040 100.000 100.000 -0.0580 -0.3040 0.00000 0.00000 0.00 0.000 6.082 6.082 0.000 5.974 5.974 0.000
H15MET 2017-11-15 23:00:00 2146 208 900.0 2017.0 319.00 2300.0 -0.0310 -0.2540 100.000 100.000 -0.0310 -0.2540 0.00100 0.00100 34.64 0.011 6.094 6.094 0.000 5.996 5.996 0.000
H15MET 2017-11-15 22:45:00 2145 208 900.0 2017.0 319.00 2245.0 0.0490 -0.1500 100.000 100.000 0.0490 -0.1500 0.00000 0.00000 0.00 0.000 6.130 6.130 0.000 6.041 6.041 0.000
H15MET 2017-11-15 22:30:00 2144 208 900.0 2017.0 319.00 2230.0 0.1600 -0.0480 100.000 100.000 0.1600 -0.0480 0.00000 0.00000 0.00 0.000 6.179 6.179 0.000 6.086 6.086 0.000
H15MET 2017-11-15 22:15:00 2143 208 900.0 2017.0 319.00 2215.0 0.2320 0.0300 100.000 100.000 0.2320 0.0300 0.00000 0.00000 0.00 0.000 6.212 6.212 0.000 6.121 6.121 0.000
H15MET 2017-11-15 22:00:00 2142 208 900.0 2017.0 319.00 2200.0 0.4210 0.2010 100.000 100.000 0.4210 0.2010 0.00000 0.00000 0.00 0.000 6.297 6.297 0.000 6.198 6.198 0.000
H15MET 2017-11-15 21:45:00 2141 208 900.0 2017.0 319.00 2145.0 0.8510 0.5940 100.000 100.000 0.8510 0.5940 0.00000 0.00000 0.00 0.000 6.497 6.497 -0.000 6.377 6.377 0.000
H15MET 2017-11-15 21:30:00 2140 208 900.0 2017.0 319.00 2130.0 1.1090 0.8200 100.000 100.000 1.1090 0.8190 0.00000 0.00000 0.00 0.000 6.619 6.619 0.000 6.482 6.482 0.000
H15MET 2017-11-15 21:15:00 2139 208 900.0 2017.0 319.00 2115.0 1.3390 1.0630 100.000 100.000 1.3390 1.0630 0.00000 0.00000 0.00 0.000 6.729 6.729 0.000 6.597 6.597 0.000
H15MET 2017-11-15 21:00:00 2138 208 900.0 2017.0 319.00 2100.0 1.4670 1.2110 100.000 100.000 1.4670 1.2110 0.00000 0.00000 0.00 0.000 6.791 6.791 0.000 6.668 6.668 0.000
H15MET 2017-11-15 20:45:00 2137 208 900.0 2017.0 319.00 2045.0 1.6410 1.3450 100.000 100.000 1.6410 1.3450 0.00000 0.00000 0.00 0.000 6.877 6.877 0.000 6.732 6.732 0.000
H15MET 2017-11-15 20:30:00 2136 208 900.0 2017.0 319.00 2030.0 1.6850 1.3910 100.000 100.000 1.6850 1.3910 0.00000 0.00000 0.00 0.000 6.899 6.899 -0.000 6.754 6.754 0.000
H15MET 2017-11-15 20:15:00 2135 208 900.0 2017.0 319.00 2015.0 1.6850 1.4160 100.000 100.000 1.6850 1.4160 0.00000 0.00000 0.00 0.000 6.899 6.899 -0.000 6.767 6.767 0.000
H15MET 2017-11-15 20:00:00 2134 208 900.0 2017.0 319.00 2000.0 1.7720 1.5040 100.000 100.000 1.7720 1.5040 0.00000 0.00000 0.00 0.000 6.942 6.942 0.000 6.810 6.810 0.000
H15MET 2017-11-15 19:45:00 2133 208 900.0 2017.0 319.00 1945.0 1.8040 1.5610 100.000 100.000 1.8040 1.5610 0.00000 0.00000 0.00 0.000 6.958 6.958 -0.000 6.838 6.838 0.000
H15MET 2017-11-15 19:30:00 2132 208 900.0 2017.0 319.00 1930.0 2.0810 1.7950 100.000 100.000 2.0810 1.7950 0.00000 0.00000 0.00 0.000 7.097 7.097 0.000 6.953 6.953 -0.000
H15MET 2017-11-15 19:15:00 2131 208 900.0 2017.0 319.00 1915.0 2.2770 1.9760 100.000 100.000 2.2770 1.9760 0.00000 0.00000 0.00 0.000 7.197 7.197 0.000 7.044 7.044 0.000
H15MET 2017-11-15 19:00:00 2130 208 900.0 2017.0 319.00 1900.0 2.2210 1.9840 100.000 100.000 2.2210 1.9840 0.00000 0.00000 0.00 0.000 7.169 7.169 0.000 7.048 7.048 0.000
H15MET 2017-11-15 18:45:00 2129 208 900.0 2017.0 319.00 1845.0 2.1900 1.9760 100.000 100.000 2.1900 1.9760 0.00000 0.00000 0.00 0.000 7.153 7.153 -0.000 7.044 7.044 0.000
H15MET 2017-11-15 18:30:00 2128 208 900.0 2017.0 319.00 1830.0 2.2940 2.0340 100.000 100.000 2.2940 2.0340 0.00000 0.00000 0.00 0.000 7.206 7.206 0.000 7.073 7.073 0.000
H15MET 2017-11-15 18:15:00 2127 208 900.0 2017.0 319.00 1815.0 2.5200 2.3510 100.000 100.000 2.5200 2.3510 0.00000 0.00000 0.00 0.000 7.323 7.323 0.000 7.235 7.235 0.000
H15MET 2017-11-15 18:00:00 2126 208 900.0 2017.0 319.00 1800.0 2.8430 2.6520 100.000 100.000 2.8430 2.6520 0.00000 0.00000 0.00 0.000 7.493 7.493 0.000 7.392 7.392 0.000
H15MET 2017-11-15 17:45:00 2125 208 900.0 2017.0 319.00 1745.0 3.1070 2.8500 100.000 100.000 3.1070 2.8500 0.00000 0.00000 0.00 0.000 7.635 7.635 0.000 7.497 7.497 0.000
H15MET 2017-11-15 17:30:00 2124 208 900.0 2017.0 319.00 1730.0 3.3330 3.0490 100.000 100.000 3.3330 3.0490 0.00000 0.00000 0.00 0.000 7.758 7.758 0.000 7.604 7.604 0.000
H15MET 2017-11-15 17:15:00 2123 208 900.0 2017.0 319.00 1715.0 3.5670 3.2760 100.000 100.000 3.5670 3.2760 0.00000 0.00000 0.00 0.000 7.888 7.888 -0.000 7.727 7.727 -0.000
H15MET 2017-11-15 17:00:00 2122 208 900.0 2017.0 319.00 1700.0 4.1800 3.8830 100.000 100.000 4.1800 3.8830 0.01400 0.00500 258.10 4.532 8.236 8.236 0.000 8.065 8.065 0.000
H15MET 2017-11-15 16:45:00 2121 208 900.0 2017.0 319.00 1645.0 4.5010 4.2490 100.000 100.000 4.5010 4.2490 0.00000 0.00000 0.00 0.000 8.423 8.423 0.000 8.276 8.276 0.000
H15MET 2017-11-15 16:30:00 2120 208 900.0 2017.0 319.00 1630.0 4.6260 4.3690 100.000 100.000 4.6260 4.3690 0.00000 0.00000 0.00 0.000 8.498 8.498 0.000 8.346 8.346 0.000
H15MET 2017-11-15 16:15:00 2119 208 900.0 2017.0 319.00 1615.0 4.7320 4.4850 100.000 100.000 4.7320 4.4840 0.01500 0.01400 310.00 2.186 8.561 8.561 0.000 8.414 8.413 0.000
H15MET 2017-11-15 16:00:00 2118 208 900.0 2017.0 319.00 1600.0 4.7930 4.5510 100.000 100.000 4.7930 4.5510 0.00000 0.00000 0.00 0.000 8.597 8.597 0.000 8.453 8.453 0.000
H15MET 2017-11-15 15:45:00 2117 208 900.0 2017.0 319.00 1545.0 4.8250 4.6070 100.000 100.000 4.8250 4.6070 0.03900 0.03700 42.74 4.271 8.617 8.617 0.000 8.486 8.486 0.000
H15MET 2017-11-15 15:30:00 2116 208 900.0 2017.0 319.00 1530.0 4.8500 4.6370 100.000 100.000 4.8500 4.6370 0.00000 0.00000 0.00 0.000 8.632 8.632 0.000 8.504 8.504 0.000
H15MET 2017-11-15 15:15:00 2115 208 900.0 2017.0 319.00 1515.0 4.8960 4.6760 100.000 100.000 4.8960 4.6760 0.00000 0.00000 0.00 0.000 8.660 8.660 0.000 8.527 8.527 0.000
H15MET 2017-11-15 15:00:00 2114 208 900.0 2017.0 319.00 1500.0 4.9230 4.7080 100.000 100.000 4.9230 4.7080 0.06000 0.05800 59.68 4.068 8.676 8.676 0.000 8.546 8.546 0.000
H15MET 2017-11-15 14:45:00 2113 208 900.0 2017.0 319.00 1445.0 4.9370 4.7440 100.000 100.000 4.9370 4.7440 0.00500 0.00500 341.10 1.159 8.684 8.684 0.000 8.568 8.568 0.000
H15MET 2017-11-15 14:30:00 2112 208 900.0 2017.0 319.00 1430.0 4.9330 4.7470 100.000 100.000 4.9330 4.7470 0.01100 0.01100 70.70 1.075 8.682 8.682 0.000 8.570 8.570 0.000
H15MET 2017-11-15 14:15:00 2111 208 900.0 2017.0 319.00 1415.0 4.9180 4.7340 100.000 100.000 4.9180 4.7340 0.03100 0.03100 59.04 2.435 8.673 8.673 0.000 8.562 8.562 0.000
H15MET 2017-11-15 14:00:00 2110 208 900.0 2017.0 319.00 1400.0 4.9400 4.7730 100.000 100.000 4.9400 4.7730 0.02900 0.02900 60.30 0.356 8.686 8.686 0.000 8.585 8.585 0.000
H15MET 2017-11-15 13:45:00 2109 208 900.0 2017.0 319.00 1345.0 5.0080 4.8550 100.000 100.000 5.0080 4.8550 0.08700 0.06600 25.56 15.010 8.728 8.728 0.000 8.635 8.635 0.000
H15MET 2017-11-15 13:30:00 2108 208 900.0 2017.0 319.00 1330.0 5.0110 4.8820 100.000 100.000 5.0110 4.8820 0.36700 0.23900 39.00 32.840 8.729 8.729 0.000 8.651 8.651 0.000
H15MET 2017-11-15 13:15:00 2107 208 900.0 2017.0 319.00 1315.0 5.0330 4.9190 100.000 99.800 5.0330 4.8970 0.46300 0.32000 46.50 31.070 8.743 8.743 0.000 8.673 8.660 0.017
H15MET 2017-11-15 13:00:00 2106 208 900.0 2017.0 319.00 1300.0 5.0150 4.8830 100.000 100.000 5.0150 4.8820 0.37600 0.21600 33.11 44.350 8.732 8.732 0.000 8.652 8.651 0.000
H15MET 2017-11-15 12:45:00 2105 208 900.0 2017.0 319.00 1245.0 4.9810 4.8760 100.000 99.300 4.9770 4.7810 0.24500 0.17300 48.28 25.930 8.711 8.709 0.000 8.647 8.590 0.061
H15MET 2017-11-15 12:30:00 2104 208 900.0 2017.0 319.00 1230.0 4.9270 4.8410 99.900 98.800 4.9180 4.6620 0.48000 0.37300 38.34 32.040 8.678 8.673 0.009 8.626 8.519 0.104
H15MET 2017-11-15 12:15:00 2103 208 900.0 2017.0 319.00 1215.0 4.8310 4.7070 100.000 99.400 4.8300 4.6180 0.14000 0.10800 62.19 14.950 8.620 8.620 0.000 8.546 8.493 0.051
H15MET 2017-11-15 12:00:00 2102 208 900.0 2017.0 319.00 1200.0 4.8110 4.6860 99.900 98.800 4.7930 4.5080 0.22500 0.15800 43.79 27.350 8.608 8.597 0.009 8.533 8.428 0.102
H15MET 2017-11-15 11:45:00 2101 208 900.0 2017.0 319.00 1145.0 4.7040 4.6190 99.900 98.500 4.6950 4.4030 0.02200 0.02200 46.13 0.789 8.544 8.539 0.009 8.493 8.366 0.127
H15MET 2017-11-15 11:30:00 2100 208 900.0 2017.0 319.00 1130.0 4.6980 4.6370 99.700 97.500 4.6520 4.2740 0.00000 0.00000 0.00 0.000 8.540 8.513 0.026 8.504 8.290 0.213
H15MET 2017-11-15 11:15:00 2099 208 900.0 2017.0 319.00 1115.0 4.6360 4.5980 99.400 97.100 4.5490 4.1790 0.07500 0.07100 54.78 7.800 8.503 8.452 0.051 8.481 8.235 0.246
H15MET 2017-11-15 11:00:00 2098 208 900.0 2017.0 319.00 1100.0 4.6020 4.5530 99.200 96.700 4.4810 4.0760 0.09100 0.08000 43.03 13.060 8.483 8.412 0.068 8.454 8.176 0.279
H15MET 2017-11-15 10:45:00 2097 208 900.0 2017.0 319.00 1045.0 4.6230 4.6120 98.400 95.700 4.3870 3.9920 0.08000 0.07800 66.60 4.923 8.496 8.356 0.136 8.489 8.128 0.365
H15MET 2017-11-15 10:30:00 2096 208 900.0 2017.0 319.00 1030.0 4.6430 4.7310 97.600 93.500 4.3040 3.7660 0.16600 0.12900 39.59 18.590 8.508 8.308 0.204 8.560 7.999 0.556
H15MET 2017-11-15 10:15:00 2095 208 900.0 2017.0 319.00 1015.0 4.6080 4.7310 97.600 93.700 4.2620 3.8020 0.07100 0.06800 58.53 5.881 8.487 8.283 0.204 8.560 8.020 0.539
H15MET 2017-11-15 10:00:00 2094 208 900.0 2017.0 319.00 1000.0 4.5400 4.7490 97.000 90.300 4.1100 3.3030 0.17300 0.10300 32.79 25.970 8.447 8.195 0.253 8.571 7.742 0.831
H15MET 2017-11-15 09:45:00 2093 208 900.0 2017.0 319.00 945.0 4.4170 4.5540 97.900 92.800 4.1120 3.4890 0.14000 0.11700 67.33 12.410 8.374 8.197 0.176 8.455 7.844 0.609
H15MET 2017-11-15 09:30:00 2092 208 900.0 2017.0 319.00 930.0 4.1750 4.2070 99.000 94.700 4.0320 3.4380 0.22400 0.08700 50.56 36.720 8.233 8.151 0.082 8.251 7.816 0.437
H15MET 2017-11-15 09:15:00 2091 208 900.0 2017.0 319.00 915.0 3.9680 3.9130 99.900 97.300 3.9550 3.5280 0.18800 0.15600 66.78 22.700 8.114 8.106 0.008 8.083 7.866 0.218
H15MET 2017-11-15 09:00:00 2090 208 900.0 2017.0 319.00 900.0 3.8520 3.7730 99.700 97.600 3.8130 3.4340 0.16000 0.14200 75.20 15.960 8.048 8.026 0.024 8.003 7.814 0.192
H15MET 2017-11-15 08:45:00 2089 208 900.0 2017.0 319.00 845.0 3.8730 3.8770 99.100 96.100 3.7510 3.3110 0.11300 0.11100 59.12 5.412 8.060 7.991 0.073 8.062 7.746 0.314
H15MET 2017-11-15 08:30:00 2088 208 900.0 2017.0 319.00 830.0 3.9670 4.2050 98.300 92.400 3.7260 3.0780 0.00900 0.00900 340.20 0.415 8.113 7.977 0.138 8.250 7.619 0.627
H15MET 2017-11-15 08:15:00 2087 208 900.0 2017.0 319.00 815.0 3.9230 4.1450 98.300 91.300 3.6730 2.8610 0.08900 0.07900 39.45 13.970 8.088 7.947 0.137 8.216 7.503 0.715
H15MET 2017-11-15 08:00:00 2086 208 900.0 2017.0 319.00 800.0 3.7180 3.8680 99.500 94.000 3.6400 2.9870 0.16400 0.13600 46.50 19.180 7.972 7.928 0.040 8.057 7.570 0.483
H15MET 2017-11-15 07:45:00 2085 208 900.0 2017.0 319.00 745.0 3.5980 3.7200 99.600 94.300 3.5340 2.8970 0.10800 0.10400 71.10 7.700 7.905 7.869 0.032 7.973 7.522 0.454
H15MET 2017-11-15 07:30:00 2084 208 900.0 2017.0 319.00 730.0 3.4900 3.5650 100.000 95.400 3.4890 2.8940 0.16400 0.09400 46.07 21.840 7.845 7.844 0.000 7.887 7.521 0.363
H15MET 2017-11-15 07:15:00 2083 208 900.0 2017.0 319.00 715.0 3.4460 3.5510 100.000 95.200 3.4460 2.8500 0.08200 0.08000 63.44 3.723 7.821 7.821 0.000 7.879 7.497 0.378
H15MET 2017-11-15 07:00:00 2082 208 900.0 2017.0 319.00 700.0 3.4590 3.5800 100.000 94.700 3.4590 2.8060 0.10400 0.09600 78.40 10.750 7.828 7.828 -0.000 7.895 7.474 0.418
H15MET 2017-11-15 06:45:00 2081 208 900.0 2017.0 319.00 645.0 3.4810 3.6110 100.000 94.700 3.4810 2.8430 0.14600 0.14300 64.82 7.080 7.840 7.840 0.000 7.912 7.493 0.419
H15MET 2017-11-15 06:30:00 2080 208 900.0 2017.0 319.00 630.0 3.4940 3.7240 99.700 93.200 3.4540 2.7280 0.11100 0.10500 53.09 8.960 7.847 7.825 0.024 7.976 7.432 0.542
H15MET 2017-11-15 06:15:00 2079 208 900.0 2017.0 319.00 615.0 3.4450 3.6120 99.800 93.300 3.4150 2.6370 0.06800 0.06700 44.03 3.293 7.820 7.803 0.016 7.913 7.384 0.530
H15MET 2017-11-15 06:00:00 2078 208 900.0 2017.0 319.00 600.0 3.4940 3.6940 99.000 92.200 3.3530 2.5480 0.25800 0.19900 51.22 22.730 7.847 7.769 0.078 7.959 7.338 0.621
H15MET 2017-11-15 05:45:00 2077 208 900.0 2017.0 319.00 545.0 3.3450 3.6210 100.000 93.700 3.3450 2.6990 0.07100 0.06900 55.78 5.299 7.765 7.765 0.000 7.918 7.417 0.499
H15MET 2017-11-15 05:30:00 2076 208 900.0 2017.0 319.00 530.0 3.2230 3.4120 100.000 93.000 3.2230 2.3890 0.32300 0.18400 49.76 35.260 7.698 7.698 0.000 7.802 7.255 0.546
H15MET 2017-11-15 05:15:00 2075 208 900.0 2017.0 319.00 515.0 3.1800 3.2450 100.000 95.600 3.1800 2.6120 0.14300 0.10600 48.52 21.130 7.675 7.675 0.000 7.710 7.371 0.339
H15MET 2017-11-15 05:00:00 2074 208 900.0 2017.0 319.00 500.0 3.1320 3.1670 100.000 96.000 3.1320 2.5870 0.09700 0.09100 53.86 8.650 7.649 7.649 0.000 7.668 7.358 0.307
H15MET 2017-11-15 04:45:00 2073 208 900.0 2017.0 319.00 445.0 3.0800 3.0430 100.000 96.900 3.0800 2.6020 0.00000 0.00000 0.00 0.000 7.620 7.620 0.000 7.600 7.366 0.236
H15MET 2017-11-15 04:30:00 2072 208 900.0 2017.0 319.00 430.0 3.0640 3.0180 100.000 98.000 3.0640 2.7370 0.00000 0.00000 0.00 0.000 7.612 7.612 0.000 7.587 7.437 0.152
H15MET 2017-11-15 04:15:00 2071 208 900.0 2017.0 319.00 415.0 2.9820 2.9340 100.000 97.900 2.9820 2.6420 0.09000 0.05900 63.36 22.930 7.568 7.568 0.000 7.542 7.387 0.158
H15MET 2017-11-15 04:00:00 2070 208 900.0 2017.0 319.00 400.0 2.8630 2.7690 100.000 97.700 2.8630 2.4400 0.12600 0.11800 54.90 10.540 7.504 7.504 0.000 7.454 7.281 0.171
H15MET 2017-11-15 03:45:00 2069 208 900.0 2017.0 319.00 345.0 2.8290 2.6910 100.000 98.700 2.8290 2.5010 0.03900 0.03200 70.70 13.660 7.486 7.486 0.000 7.413 7.313 0.096
H15MET 2017-11-15 03:30:00 2068 208 900.0 2017.0 319.00 330.0 2.8090 2.6450 100.000 98.700 2.8090 2.4660 0.00000 0.00000 0.00 0.000 7.475 7.475 0.000 7.389 7.295 0.096
H15MET 2017-11-15 03:15:00 2067 208 900.0 2017.0 319.00 315.0 2.7900 2.6240 100.000 98.900 2.7890 2.4650 0.02100 0.02100 74.30 1.136 7.465 7.465 0.000 7.377 7.294 0.081
H15MET 2017-11-15 03:00:00 2066 208 900.0 2017.0 319.00 300.0 2.7590 2.5700 100.000 99.000 2.7590 2.4280 0.01700 0.01700 64.86 0.151 7.449 7.449 0.000 7.349 7.275 0.073
H15MET 2017-11-15 02:45:00 2065 208 900.0 2017.0 319.00 245.0 2.7650 2.5560 100.000 100.000 2.7650 2.5560 0.03300 0.03300 64.95 1.926 7.452 7.452 0.000 7.342 7.342 -0.000
H15MET 2017-11-15 02:30:00 2064 208 900.0 2017.0 319.00 230.0 2.7260 2.5130 100.000 100.000 2.7260 2.5130 0.00000 0.00000 0.00 0.000 7.431 7.431 0.000 7.319 7.319 0.000
H15MET 2017-11-15 02:15:00 2063 208 900.0 2017.0 319.00 215.0 2.6870 2.4850 100.000 100.000 2.6870 2.4850 0.00000 0.00000 0.00 0.000 7.411 7.411 0.000 7.305 7.305 0.000
H15MET 2017-11-15 02:00:00 2062 208 900.0 2017.0 319.00 200.0 2.6530 2.4330 100.000 100.000 2.6530 2.4330 0.01300 0.01300 64.05 0.456 7.393 7.393 0.000 7.278 7.278 -0.000
H15MET 2017-11-15 01:45:00 2061 208 900.0 2017.0 319.00 145.0 2.6050 2.3640 100.000 100.000 2.6050 2.3640 0.01600 0.01600 57.79 1.028 7.368 7.368 -0.000 7.242 7.242 0.000
H15MET 2017-11-15 01:30:00 2060 208 900.0 2017.0 319.00 130.0 2.5650 2.3030 100.000 100.000 2.5650 2.3030 0.05300 0.03000 65.16 21.770 7.347 7.347 0.000 7.211 7.211 0.000
H15MET 2017-11-15 01:15:00 2059 208 900.0 2017.0 319.00 115.0 2.4420 2.1600 100.000 100.000 2.4420 2.1600 0.00200 0.00200 76.40 0.006 7.282 7.282 0.000 7.137 7.137 0.000
H15MET 2017-11-15 01:00:00 2058 208 900.0 2017.0 319.00 100.0 2.4230 2.1720 100.000 100.000 2.4230 2.1720 0.00400 0.00300 195.40 6.149 7.273 7.273 0.000 7.143 7.143 0.000
H15MET 2017-11-15 00:45:00 2057 208 900.0 2017.0 319.00 45.0 2.3870 2.1530 100.000 100.000 2.3870 2.1530 0.03800 0.02600 5.23 7.780 7.254 7.254 0.000 7.134 7.134 0.000
H15MET 2017-11-15 00:30:00 2056 208 900.0 2017.0 319.00 30.0 2.2490 1.9380 100.000 100.000 2.2490 1.9380 0.20300 0.17500 62.53 13.050 7.183 7.183 0.000 7.025 7.025 0.000
H15MET 2017-11-15 00:15:00 2055 208 900.0 2017.0 319.00 15.0 2.0650 1.8060 100.000 100.000 2.0650 1.8060 0.03300 0.03200 131.40 3.195 7.089 7.089 0.000 6.959 6.959 0.000
H15MET 2017-11-15 00:00:00 2054 208 900.0 2017.0 318.00 2400.0 1.7570 1.5670 100.000 100.000 1.7570 1.5670 0.00000 0.00000 0.00 0.000 6.934 6.934 0.000 6.840 6.840 0.000
H15MET 2017-11-14 23:45:00 2053 208 900.0 2017.0 318.00 2345.0 1.2570 1.0760 100.000 100.000 1.2570 1.0760 0.01200 0.01200 55.90 0.079 6.690 6.690 0.000 6.603 6.603 0.000
H15MET 2017-11-14 23:30:00 2052 208 900.0 2017.0 318.00 2330.0 1.1980 0.9820 100.000 100.000 1.1980 0.9820 0.00900 0.00900 271.20 0.218 6.661 6.661 -0.000 6.558 6.558 0.000
H15MET 2017-11-14 23:15:00 2051 208 900.0 2017.0 318.00 2315.0 1.0610 0.9000 100.000 100.000 1.0610 0.9000 0.00000 0.00000 0.00 0.000 6.596 6.596 0.000 6.520 6.520 0.000
H15MET 2017-11-14 23:00:00 2050 208 900.0 2017.0 318.00 2300.0 0.9000 0.6790 100.000 100.000 0.9000 0.6790 0.00000 0.00000 0.00 0.000 6.520 6.520 0.000 6.416 6.416 0.000
H15MET 2017-11-14 22:45:00 2049 208 900.0 2017.0 318.00 2245.0 0.8450 0.6490 100.000 100.000 0.8450 0.6490 0.06400 0.06400 271.20 1.695 6.494 6.494 -0.000 6.402 6.402 0.000
H15MET 2017-11-14 22:30:00 2048 208 900.0 2017.0 318.00 2230.0 0.8670 0.7150 100.000 100.000 0.8670 0.7150 0.00000 0.00000 0.00 0.000 6.504 6.504 -0.000 6.433 6.433 0.000
H15MET 2017-11-14 22:15:00 2047 208 900.0 2017.0 318.00 2215.0 1.1520 0.9560 100.000 100.000 1.1520 0.9560 0.00800 0.00800 280.80 0.311 6.639 6.639 0.000 6.546 6.546 0.000
H15MET 2017-11-14 22:00:00 2046 208 900.0 2017.0 318.00 2200.0 1.6120 1.3390 100.000 100.000 1.6120 1.3390 0.00000 0.00000 0.00 0.000 6.863 6.863 0.000 6.729 6.729 0.000
H15MET 2017-11-14 21:45:00 2045 208 900.0 2017.0 318.00 2145.0 1.8330 1.5700 100.000 100.000 1.8330 1.5700 0.00000 0.00000 0.00 0.000 6.972 6.972 0.000 6.842 6.842 0.000
H15MET 2017-11-14 21:30:00 2044 208 900.0 2017.0 318.00 2130.0 1.9130 1.6360 100.000 100.000 1.9130 1.6360 0.00000 0.00000 0.00 0.000 7.012 7.012 0.000 6.874 6.874 -0.000
H15MET 2017-11-14 21:15:00 2043 208 900.0 2017.0 318.00 2115.0 1.9600 1.7160 100.000 100.000 1.9600 1.7160 0.00000 0.00000 0.00 0.000 7.036 7.036 -0.000 6.914 6.914 -0.000
H15MET 2017-11-14 21:00:00 2042 208 900.0 2017.0 318.00 2100.0 1.8640 1.6050 100.000 100.000 1.8640 1.6040 0.00000 0.00000 0.00 0.000 6.988 6.988 0.000 6.859 6.859 0.000
H15MET 2017-11-14 20:45:00 2041 208 900.0 2017.0 318.00 2045.0 1.7660 1.4920 100.000 100.000 1.7660 1.4920 0.00000 0.00000 0.00 0.000 6.939 6.939 0.000 6.804 6.804 0.000
H15MET 2017-11-14 20:30:00 2040 208 900.0 2017.0 318.00 2030.0 1.6200 1.3560 100.000 100.000 1.6200 1.3560 0.00000 0.00000 0.00 0.000 6.867 6.867 0.000 6.737 6.737 0.000
H15MET 2017-11-14 20:15:00 2039 208 900.0 2017.0 318.00 2015.0 1.4740 1.2320 100.000 100.000 1.4740 1.2320 0.00000 0.00000 0.00 0.000 6.795 6.795 -0.000 6.678 6.678 0.000
H15MET 2017-11-14 20:00:00 2038 208 900.0 2017.0 318.00 2000.0 1.4180 1.1840 100.000 100.000 1.4180 1.1840 0.00000 0.00000 0.00 0.000 6.768 6.768 0.000 6.655 6.655 0.000
H15MET 2017-11-14 19:45:00 2037 208 900.0 2017.0 318.00 1945.0 1.4130 1.2020 100.000 100.000 1.4130 1.2020 0.00000 0.00000 0.00 0.000 6.765 6.765 0.000 6.663 6.663 0.000
H15MET 2017-11-14 19:30:00 2036 208 900.0 2017.0 318.00 1930.0 1.4950 1.3800 100.000 100.000 1.4950 1.3800 0.00000 0.00000 0.00 0.000 6.805 6.805 0.000 6.749 6.749 0.000
H15MET 2017-11-14 19:15:00 2035 208 900.0 2017.0 318.00 1915.0 1.7800 1.5780 100.000 100.000 1.7800 1.5780 0.00000 0.00000 0.00 0.000 6.946 6.946 0.000 6.846 6.846 0.000
H15MET 2017-11-14 19:00:00 2034 208 900.0 2017.0 318.00 1900.0 2.0480 1.8390 100.000 100.000 2.0480 1.8390 0.01600 0.01600 122.00 0.912 7.080 7.080 0.000 6.975 6.975 0.000
H15MET 2017-11-14 18:45:00 2033 208 900.0 2017.0 318.00 1845.0 1.9520 1.8200 100.000 100.000 1.9520 1.8200 0.00000 0.00000 0.00 0.000 7.032 7.032 -0.000 6.966 6.966 0.000
H15MET 2017-11-14 18:30:00 2032 208 900.0 2017.0 318.00 1830.0 2.2190 1.9710 100.000 100.000 2.2190 1.9710 0.00000 0.00000 0.00 0.000 7.167 7.167 0.000 7.041 7.041 0.000
H15MET 2017-11-14 18:15:00 2031 208 900.0 2017.0 318.00 1815.0 2.3700 2.0880 100.000 100.000 2.3690 2.0880 0.00000 0.00000 0.00 0.000 7.245 7.245 0.000 7.101 7.101 0.000
H15MET 2017-11-14 18:00:00 2030 208 900.0 2017.0 318.00 1800.0 2.5170 2.2340 100.000 100.000 2.5170 2.2340 0.00400 0.00400 116.60 0.143 7.321 7.321 0.000 7.175 7.175 0.000
H15MET 2017-11-14 17:45:00 2029 208 900.0 2017.0 318.00 1745.0 2.6000 2.3330 100.000 100.000 2.6000 2.3330 0.00000 0.00000 0.00 0.000 7.365 7.365 0.000 7.226 7.226 -0.000
H15MET 2017-11-14 17:30:00 2028 208 900.0 2017.0 318.00 1730.0 2.7720 2.5110 100.000 100.000 2.7720 2.5110 0.00000 0.00000 0.00 0.000 7.456 7.456 0.000 7.318 7.318 0.000
H15MET 2017-11-14 17:15:00 2027 208 900.0 2017.0 318.00 1715.0 2.8220 2.5690 100.000 100.000 2.8220 2.5690 0.01200 0.01200 57.67 0.315 7.482 7.482 0.000 7.349 7.349 0.000
H15MET 2017-11-14 17:00:00 2026 208 900.0 2017.0 318.00 1700.0 2.9710 2.7050 100.000 100.000 2.9700 2.7050 0.00000 0.00000 0.00 0.000 7.562 7.561 0.000 7.420 7.420 0.000
H15MET 2017-11-14 16:45:00 2025 208 900.0 2017.0 318.00 1645.0 3.0850 2.8280 100.000 100.000 3.0850 2.8280 0.00000 0.00000 0.00 0.000 7.623 7.623 0.000 7.485 7.485 -0.000
H15MET 2017-11-14 16:30:00 2024 208 900.0 2017.0 318.00 1630.0 3.1850 2.9240 100.000 100.000 3.1850 2.9240 0.00000 0.00000 0.00 0.000 7.677 7.677 0.000 7.537 7.537 0.000
H15MET 2017-11-14 16:15:00 2023 208 900.0 2017.0 318.00 1615.0 3.3970 3.1650 100.000 100.000 3.3970 3.1650 0.00000 0.00000 0.00 0.000 7.793 7.793 -0.000 7.667 7.667 0.000
H15MET 2017-11-14 16:00:00 2022 208 900.0 2017.0 318.00 1600.0 3.5270 3.2950 100.000 100.000 3.5270 3.2950 0.00000 0.00000 0.00 0.000 7.865 7.865 0.000 7.737 7.737 -0.000
H15MET 2017-11-14 15:45:00 2021 208 900.0 2017.0 318.00 1545.0 3.6680 3.4440 100.000 100.000 3.6680 3.4440 0.02300 0.02300 65.86 0.937 7.944 7.944 0.000 7.819 7.819 -0.000
H15MET 2017-11-14 15:30:00 2020 208 900.0 2017.0 318.00 1530.0 3.8230 3.6180 100.000 100.000 3.8230 3.6180 0.04400 0.04400 68.40 0.342 8.031 8.031 0.000 7.916 7.916 0.000
H15MET 2017-11-14 15:15:00 2019 208 900.0 2017.0 318.00 1515.0 3.8520 3.7030 100.000 100.000 3.8520 3.7030 0.08300 0.08200 69.42 3.493 8.048 8.048 0.000 7.964 7.964 0.000
H15MET 2017-11-14 15:00:00 2018 208 900.0 2017.0 318.00 1500.0 3.8970 3.7280 100.000 100.000 3.8970 3.7280 0.05500 0.05500 67.30 2.191 8.073 8.073 0.000 7.978 7.978 0.000
H15MET 2017-11-14 14:45:00 2017 208 900.0 2017.0 318.00 1445.0 4.0400 3.9060 100.000 99.400 4.0400 3.8190 0.07400 0.07300 64.82 3.640 8.155 8.155 0.000 8.079 8.029 0.048
H15MET 2017-11-14 14:30:00 2016 208 900.0 2017.0 318.00 1430.0 4.1240 4.0680 100.000 97.400 4.1230 3.6910 0.11300 0.10000 63.28 12.470 8.203 8.203 0.000 8.171 7.957 0.212
H15MET 2017-11-14 14:15:00 2015 208 900.0 2017.0 318.00 1415.0 4.1650 4.0950 100.000 97.100 4.1650 3.6790 0.08600 0.08200 49.56 8.350 8.227 8.227 0.000 8.187 7.950 0.237
H15MET 2017-11-14 14:00:00 2014 208 900.0 2017.0 318.00 1400.0 4.2700 4.2260 100.000 98.200 4.2700 3.9610 0.00000 0.00000 0.00 0.000 8.288 8.288 0.000 8.262 8.110 0.149
H15MET 2017-11-14 13:45:00 2013 208 900.0 2017.0 318.00 1345.0 4.1520 4.0120 100.000 98.700 4.1520 3.8230 0.05100 0.03300 18.45 14.030 8.220 8.220 0.000 8.139 8.031 0.106
H15MET 2017-11-14 13:30:00 2012 208 900.0 2017.0 318.00 1330.0 3.9720 3.8680 100.000 100.000 3.9720 3.8630 0.02200 0.02200 63.28 0.863 8.116 8.116 0.000 8.057 8.054 0.000
H15MET 2017-11-14 13:15:00 2011 208 900.0 2017.0 318.00 1315.0 3.8690 3.7870 100.000 99.800 3.8690 3.7560 0.04900 0.03900 34.55 5.206 8.058 8.058 0.000 8.011 7.994 0.016
H15MET 2017-11-14 13:00:00 2010 208 900.0 2017.0 318.00 1300.0 3.9000 3.7360 100.000 100.000 3.9000 3.7360 0.12300 0.09400 352.80 6.637 8.075 8.075 0.000 7.982 7.982 0.000
H15MET 2017-11-14 12:45:00 2009 208 900.0 2017.0 318.00 1245.0 3.8280 3.6580 100.000 100.000 3.8280 3.6580 0.02500 0.02400 55.29 3.712 8.034 8.034 0.000 7.939 7.939 0.000
H15MET 2017-11-14 12:30:00 2008 208 900.0 2017.0 318.00 1230.0 3.8710 3.6830 100.000 100.000 3.8710 3.6830 0.19700 0.18100 345.60 14.310 8.059 8.059 0.000 7.953 7.953 0.000
H15MET 2017-11-14 12:15:00 2007 208 900.0 2017.0 318.00 1215.0 3.7220 3.5310 100.000 100.000 3.7220 3.5310 0.02400 0.02200 32.81 2.775 7.974 7.974 0.000 7.868 7.868 0.000
H15MET 2017-11-14 12:00:00 2006 208 900.0 2017.0 318.00 1200.0 3.6590 3.5070 100.000 100.000 3.6590 3.5070 0.06300 0.01500 35.26 33.110 7.939 7.939 0.000 7.854 7.854 0.000
H15MET 2017-11-14 11:45:00 2005 208 900.0 2017.0 318.00 1145.0 3.5850 3.4410 100.000 100.000 3.5850 3.4410 0.10800 0.06500 350.80 7.740 7.898 7.898 0.000 7.818 7.818 -0.000
H15MET 2017-11-14 11:30:00 2004 208 900.0 2017.0 318.00 1130.0 3.3680 3.1450 100.000 100.000 3.3680 3.1450 0.00000 0.00000 0.00 0.000 7.778 7.778 0.000 7.656 7.656 0.000
H15MET 2017-11-14 11:15:00 2003 208 900.0 2017.0 318.00 1115.0 3.2090 3.0070 100.000 100.000 3.2090 3.0070 0.00200 0.00200 58.69 0.392 7.690 7.690 0.000 7.581 7.581 0.000
H15MET 2017-11-14 11:00:00 2002 208 900.0 2017.0 318.00 1100.0 3.0390 2.8260 100.000 100.000 3.0390 2.8260 0.00600 0.00600 63.06 1.596 7.598 7.598 0.000 7.484 7.484 0.000
H15MET 2017-11-14 10:45:00 2001 208 900.0 2017.0 318.00 1045.0 2.9180 2.7400 100.000 100.000 2.9180 2.7400 0.00000 0.00000 0.00 0.000 7.533 7.533 0.000 7.439 7.439 0.000
H15MET 2017-11-14 10:30:00 2000 208 900.0 2017.0 318.00 1030.0 2.6630 2.4860 100.000 100.000 2.6630 2.4860 0.02300 0.02300 350.60 3.692 7.398 7.398 0.000 7.305 7.305 0.000
H15MET 2017-11-14 10:15:00 1999 208 900.0 2017.0 318.00 1015.0 2.3060 2.0970 100.000 100.000 2.3060 2.0970 0.00000 0.00000 0.00 0.000 7.212 7.212 0.000 7.105 7.105 0.000
H15MET 2017-11-14 10:00:00 1998 208 900.0 2017.0 318.00 1000.0 2.0770 1.7940 100.000 100.000 2.0770 1.7940 0.00000 0.00000 0.00 0.000 7.095 7.095 0.000 6.953 6.953 0.000
H15MET 2017-11-14 09:45:00 1997 208 900.0 2017.0 318.00 945.0 1.9580 1.6640 100.000 100.000 1.9580 1.6640 0.00000 0.00000 0.00 0.000 7.035 7.035 0.000 6.888 6.888 0.000
H15MET 2017-11-14 09:30:00 1996 208 900.0 2017.0 318.00 930.0 1.9130 1.5970 100.000 100.000 1.9130 1.5970 0.00000 0.00000 0.00 0.000 7.012 7.012 0.000 6.855 6.855 0.000
H15MET 2017-11-14 09:15:00 1995 208 900.0 2017.0 318.00 915.0 1.8850 1.5450 100.000 100.000 1.8850 1.5450 0.00000 0.00000 0.00 0.000 6.998 6.998 0.000 6.830 6.830 0.000
H15MET 2017-11-14 09:00:00 1994 208 900.0 2017.0 318.00 900.0 1.9030 1.5510 100.000 100.000 1.9030 1.5510 0.00000 0.00000 0.00 0.000 7.007 7.007 0.000 6.833 6.833 0.000
H15MET 2017-11-14 08:45:00 1993 208 900.0 2017.0 318.00 845.0 1.8760 1.5400 100.000 100.000 1.8760 1.5400 0.00000 0.00000 0.00 0.000 6.994 6.994 -0.000 6.827 6.827 0.000
H15MET 2017-11-14 08:30:00 1992 208 900.0 2017.0 318.00 830.0 1.8540 1.4790 100.000 100.000 1.8540 1.4790 0.00000 0.00000 0.00 0.000 6.983 6.983 0.000 6.797 6.797 -0.000
H15MET 2017-11-14 08:15:00 1991 208 900.0 2017.0 318.00 815.0 1.8270 1.4460 100.000 100.000 1.8270 1.4460 0.00000 0.00000 0.00 0.000 6.969 6.969 0.000 6.781 6.781 0.000
H15MET 2017-11-14 08:00:00 1990 208 900.0 2017.0 318.00 800.0 1.6410 1.3110 100.000 100.000 1.6410 1.3110 0.00000 0.00000 0.00 0.000 6.877 6.877 0.000 6.716 6.716 0.000
H15MET 2017-11-14 07:45:00 1989 208 900.0 2017.0 318.00 745.0 1.6200 1.2730 100.000 100.000 1.6200 1.2730 0.00000 0.00000 0.00 0.000 6.867 6.867 0.000 6.697 6.697 0.000
H15MET 2017-11-14 07:30:00 1988 208 900.0 2017.0 318.00 730.0 1.6440 1.3340 100.000 100.000 1.6440 1.3340 0.00000 0.00000 0.00 0.000 6.878 6.878 0.000 6.727 6.727 0.000
H15MET 2017-11-14 07:15:00 1987 208 900.0 2017.0 318.00 715.0 1.6770 1.3160 100.000 100.000 1.6770 1.3160 0.00000 0.00000 0.00 0.000 6.895 6.895 0.000 6.718 6.718 0.000
H15MET 2017-11-14 07:00:00 1986 208 900.0 2017.0 318.00 700.0 1.6770 1.3230 100.000 100.000 1.6770 1.3230 0.00000 0.00000 0.00 0.000 6.895 6.895 0.000 6.721 6.721 0.000
H15MET 2017-11-14 06:45:00 1985 208 900.0 2017.0 318.00 645.0 1.6590 1.3020 100.000 100.000 1.6590 1.3020 0.00000 0.00000 0.00 0.000 6.886 6.886 0.000 6.711 6.711 0.000
H15MET 2017-11-14 06:30:00 1984 208 900.0 2017.0 318.00 630.0 1.6540 1.3060 100.000 100.000 1.6540 1.3060 0.00600 0.00600 56.59 3.295 6.883 6.883 0.000 6.713 6.713 0.000
H15MET 2017-11-14 06:15:00 1983 208 900.0 2017.0 318.00 615.0 1.6040 1.2570 100.000 100.000 1.6040 1.2570 0.00000 0.00000 0.00 0.000 6.859 6.859 -0.000 6.690 6.690 0.000
H15MET 2017-11-14 06:00:00 1982 208 900.0 2017.0 318.00 600.0 1.5890 1.2570 100.000 100.000 1.5890 1.2570 0.00000 0.00000 0.00 0.000 6.851 6.851 0.000 6.690 6.690 0.000
H15MET 2017-11-14 05:45:00 1981 208 900.0 2017.0 318.00 545.0 1.5680 1.2270 100.000 100.000 1.5680 1.2270 0.00000 0.00000 0.00 0.000 6.841 6.841 0.000 6.675 6.675 0.000
H15MET 2017-11-14 05:30:00 1980 208 900.0 2017.0 318.00 530.0 1.6040 1.2420 100.000 100.000 1.6040 1.2420 0.00000 0.00000 0.00 0.000 6.859 6.859 -0.000 6.682 6.682 0.000
H15MET 2017-11-14 05:15:00 1979 208 900.0 2017.0 318.00 515.0 1.5580 1.2300 100.000 100.000 1.5580 1.2300 0.00000 0.00000 0.00 0.000 6.836 6.836 0.000 6.677 6.677 -0.000
H15MET 2017-11-14 05:00:00 1978 208 900.0 2017.0 318.00 500.0 1.4960 1.1480 100.000 100.000 1.4960 1.1480 0.00000 0.00000 0.00 0.000 6.806 6.806 0.000 6.637 6.637 0.000
H15MET 2017-11-14 04:45:00 1977 208 900.0 2017.0 318.00 445.0 1.4540 1.1270 100.000 100.000 1.4540 1.1270 0.03600 0.03400 37.18 4.222 6.785 6.785 0.000 6.627 6.627 0.000
H15MET 2017-11-14 04:30:00 1976 208 900.0 2017.0 318.00 430.0 1.3240 0.9730 100.000 100.000 1.3240 0.9730 0.00000 0.00000 0.00 0.000 6.722 6.722 0.000 6.554 6.554 -0.000
H15MET 2017-11-14 04:15:00 1975 208 900.0 2017.0 318.00 415.0 1.3160 0.9320 100.000 100.000 1.3150 0.9320 0.00000 0.00000 0.00 0.000 6.718 6.718 0.000 6.535 6.535 0.000
H15MET 2017-11-14 04:00:00 1974 208 900.0 2017.0 318.00 400.0 1.3740 1.0280 100.000 100.000 1.3740 1.0280 0.00000 0.00000 0.00 0.000 6.746 6.746 0.000 6.580 6.580 0.000
H15MET 2017-11-14 03:45:00 1973 208 900.0 2017.0 318.00 345.0 1.3140 0.9950 100.000 100.000 1.3140 0.9950 0.00000 0.00000 0.00 0.000 6.717 6.717 0.000 6.564 6.564 -0.000
H15MET 2017-11-14 03:30:00 1972 208 900.0 2017.0 318.00 330.0 1.3490 1.0020 100.000 100.000 1.3490 1.0010 0.00000 0.00000 0.00 0.000 6.734 6.734 0.000 6.568 6.567 0.000
H15MET 2017-11-14 03:15:00 1971 208 900.0 2017.0 318.00 315.0 1.4570 1.1120 100.000 100.000 1.4570 1.1120 0.00000 0.00000 0.00 0.000 6.787 6.787 0.000 6.620 6.620 0.000
H15MET 2017-11-14 03:00:00 1970 208 900.0 2017.0 318.00 300.0 1.4340 1.1070 100.000 100.000 1.4340 1.1070 0.00000 0.00000 0.00 0.000 6.775 6.775 0.000 6.618 6.618 -0.000
H15MET 2017-11-14 02:45:00 1969 208 900.0 2017.0 318.00 245.0 1.3560 1.0040 100.000 100.000 1.3560 1.0040 0.02000 0.01700 3.96 8.110 6.737 6.737 0.000 6.569 6.569 0.000
H15MET 2017-11-14 02:30:00 1968 208 900.0 2017.0 318.00 230.0 1.4500 1.1110 100.000 100.000 1.4500 1.1110 0.04200 0.03500 47.80 8.690 6.783 6.783 0.000 6.620 6.620 0.000
H15MET 2017-11-14 02:15:00 1967 208 900.0 2017.0 318.00 215.0 1.4360 1.1270 100.000 100.000 1.4360 1.1270 0.00500 0.00500 22.99 0.884 6.776 6.776 0.000 6.627 6.627 0.000
H15MET 2017-11-14 02:00:00 1966 208 900.0 2017.0 318.00 200.0 1.2290 0.9220 100.000 100.000 1.2290 0.9220 0.07500 0.06900 70.60 9.810 6.676 6.676 0.000 6.530 6.530 0.000
H15MET 2017-11-14 01:45:00 1965 208 900.0 2017.0 318.00 145.0 1.0990 0.7880 100.000 100.000 1.0990 0.7880 0.05200 0.04900 77.30 7.790 6.614 6.614 0.000 6.467 6.467 0.000
H15MET 2017-11-14 01:30:00 1964 208 900.0 2017.0 318.00 130.0 1.0910 0.7460 100.000 100.000 1.0910 0.7460 0.00000 0.00000 0.00 0.000 6.610 6.610 0.000 6.447 6.447 0.000
H15MET 2017-11-14 01:15:00 1963 208 900.0 2017.0 318.00 115.0 1.0160 0.7000 100.000 100.000 1.0160 0.7000 0.00000 0.00000 0.00 0.000 6.574 6.574 0.000 6.426 6.426 -0.000
H15MET 2017-11-14 01:00:00 1962 208 900.0 2017.0 318.00 100.0 0.9030 0.6040 100.000 100.000 0.9030 0.6040 0.04400 0.03300 59.45 13.910 6.521 6.521 0.000 6.382 6.382 0.000
H15MET 2017-11-14 00:45:00 1961 208 900.0 2017.0 318.00 45.0 0.8780 0.6060 100.000 100.000 0.8780 0.6060 0.02300 0.01600 33.38 0.608 6.509 6.509 0.000 6.382 6.382 -0.000
H15MET 2017-11-14 00:30:00 1960 208 900.0 2017.0 318.00 30.0 1.1020 0.8120 100.000 100.000 1.1020 0.8120 0.08200 0.04500 340.00 24.130 6.615 6.615 0.000 6.478 6.478 0.000
H15MET 2017-11-14 00:15:00 1959 208 900.0 2017.0 318.00 15.0 0.9610 0.6810 100.000 100.000 0.9610 0.6810 0.01600 0.00900 24.28 14.850 6.548 6.548 0.000 6.417 6.417 0.000
H15MET 2017-11-14 00:00:00 1958 208 900.0 2017.0 317.00 2400.0 0.9560 0.6960 100.000 100.000 0.9560 0.6960 0.04100 0.03900 321.50 5.519 6.546 6.546 0.000 6.424 6.424 0.000
H15MET 2017-11-13 23:45:00 1957 208 900.0 2017.0 317.00 2345.0 1.1810 0.8170 100.000 100.000 1.1810 0.8170 0.04700 0.04700 72.00 2.369 6.653 6.653 0.000 6.481 6.481 0.000
H15MET 2017-11-13 23:30:00 1956 208 900.0 2017.0 317.00 2330.0 1.2130 0.8400 100.000 100.000 1.2130 0.8400 0.04900 0.04500 65.20 8.190 6.668 6.668 0.000 6.491 6.491 0.000
H15MET 2017-11-13 23:15:00 1955 208 900.0 2017.0 317.00 2315.0 1.2540 0.9240 100.000 100.000 1.2540 0.9240 0.00000 0.00000 0.00 0.000 6.688 6.688 0.000 6.531 6.531 -0.000
H15MET 2017-11-13 23:00:00 1954 208 900.0 2017.0 317.00 2300.0 1.3320 0.9530 100.000 100.000 1.3320 0.9530 0.00000 0.00000 0.00 0.000 6.726 6.726 0.000 6.545 6.545 0.000
H15MET 2017-11-13 22:45:00 1953 208 900.0 2017.0 317.00 2245.0 1.1870 0.8400 100.000 100.000 1.1870 0.8400 0.00000 0.00000 0.00 0.000 6.656 6.656 0.000 6.491 6.491 0.000
H15MET 2017-11-13 22:30:00 1952 208 900.0 2017.0 317.00 2230.0 1.1120 0.7710 100.000 100.000 1.1120 0.7710 0.00000 0.00000 0.00 0.000 6.620 6.620 0.000 6.459 6.459 0.000
H15MET 2017-11-13 22:15:00 1951 208 900.0 2017.0 317.00 2215.0 1.0190 0.6610 100.000 100.000 1.0190 0.6610 0.00000 0.00000 0.00 0.000 6.576 6.576 0.000 6.408 6.408 0.000
H15MET 2017-11-13 22:00:00 1950 208 900.0 2017.0 317.00 2200.0 0.8470 0.5010 100.000 100.000 0.8470 0.5010 0.00500 0.00500 61.25 0.019 6.495 6.495 0.000 6.334 6.334 -0.000
H15MET 2017-11-13 21:45:00 1949 208 900.0 2017.0 317.00 2145.0 0.6470 0.3520 100.000 100.000 0.6470 0.3520 0.00000 0.00000 0.00 0.000 6.401 6.401 0.000 6.266 6.266 -0.000
H15MET 2017-11-13 21:30:00 1948 208 900.0 2017.0 317.00 2130.0 0.6080 0.2610 100.000 100.000 0.6080 0.2610 0.01600 0.01500 78.80 2.707 6.383 6.383 -0.000 6.225 6.225 0.000
H15MET 2017-11-13 21:15:00 1947 208 900.0 2017.0 317.00 2115.0 1.0440 0.6610 100.000 100.000 1.0440 0.6610 0.00200 0.00200 128.40 0.000 6.588 6.588 0.000 6.408 6.408 0.000
H15MET 2017-11-13 21:00:00 1946 208 900.0 2017.0 317.00 2100.0 1.5350 1.1930 100.000 100.000 1.5350 1.1930 0.13300 0.11100 99.00 14.350 6.825 6.825 0.000 6.659 6.659 -0.000
H15MET 2017-11-13 20:45:00 1945 208 900.0 2017.0 317.00 2045.0 1.8460 1.4890 100.000 100.000 1.8460 1.4890 0.04300 0.03900 84.50 3.630 6.979 6.979 0.000 6.802 6.802 0.000
H15MET 2017-11-13 20:30:00 1944 208 900.0 2017.0 317.00 2030.0 1.9460 1.5900 100.000 100.000 1.9460 1.5900 0.16700 0.07300 61.99 24.980 7.029 7.029 0.000 6.852 6.852 0.000
H15MET 2017-11-13 20:15:00 1943 208 900.0 2017.0 317.00 2015.0 2.2020 1.8600 100.000 100.000 2.2020 1.8600 0.34400 0.14300 324.00 44.770 7.159 7.159 0.000 6.986 6.986 0.000
H15MET 2017-11-13 20:00:00 1942 208 900.0 2017.0 317.00 2000.0 2.3320 2.0210 100.000 100.000 2.3320 2.0210 0.00000 0.00000 0.00 0.000 7.226 7.226 -0.000 7.067 7.067 0.000
H15MET 2017-11-13 19:45:00 1941 208 900.0 2017.0 317.00 1945.0 2.3270 1.9750 100.000 100.000 2.3270 1.9750 0.00000 0.00000 0.00 0.000 7.223 7.223 0.000 7.044 7.044 0.000
H15MET 2017-11-13 19:30:00 1940 208 900.0 2017.0 317.00 1930.0 2.2840 1.9430 100.000 100.000 2.2840 1.9430 0.00000 0.00000 0.00 0.000 7.201 7.201 0.000 7.027 7.027 0.000
H15MET 2017-11-13 19:15:00 1939 208 900.0 2017.0 317.00 1915.0 2.3010 1.9180 100.000 100.000 2.3000 1.9180 0.00000 0.00000 0.00 0.000 7.210 7.209 0.000 7.015 7.015 0.000
H15MET 2017-11-13 19:00:00 1938 208 900.0 2017.0 317.00 1900.0 2.2020 1.8280 100.000 100.000 2.2020 1.8280 0.00000 0.00000 0.00 0.000 7.159 7.159 0.000 6.970 6.970 0.000
H15MET 2017-11-13 18:45:00 1937 208 900.0 2017.0 317.00 1845.0 2.2110 1.8410 100.000 100.000 2.2110 1.8410 0.00000 0.00000 0.00 0.000 7.163 7.163 -0.000 6.976 6.976 0.000
H15MET 2017-11-13 18:30:00 1936 208 900.0 2017.0 317.00 1830.0 2.2070 1.8210 100.000 100.000 2.2070 1.8210 0.00000 0.00000 128.70 0.000 7.161 7.161 0.000 6.966 6.966 0.000
H15MET 2017-11-13 18:15:00 1935 208 900.0 2017.0 317.00 1815.0 2.1400 1.7420 100.000 100.000 2.1400 1.7420 0.07600 0.07600 67.49 0.890 7.127 7.127 0.000 6.927 6.927 0.000
H15MET 2017-11-13 18:00:00 1934 208 900.0 2017.0 317.00 1800.0 2.0780 1.7120 100.000 100.000 2.0780 1.7120 0.00000 0.00000 0.00 0.000 7.096 7.096 0.000 6.912 6.912 0.000
H15MET 2017-11-13 17:45:00 1933 208 900.0 2017.0 317.00 1745.0 1.9890 1.6580 100.000 100.000 1.9890 1.6580 0.00000 0.00000 0.00 0.000 7.051 7.051 0.000 6.885 6.885 0.000
H15MET 2017-11-13 17:30:00 1932 208 900.0 2017.0 317.00 1730.0 2.0800 1.7570 100.000 100.000 2.0800 1.7570 0.00900 0.00900 116.70 0.920 7.097 7.097 0.000 6.934 6.934 0.000
H15MET 2017-11-13 17:15:00 1931 208 900.0 2017.0 317.00 1715.0 2.4230 2.0730 100.000 100.000 2.4230 2.0730 0.03500 0.01200 359.10 21.110 7.273 7.273 0.000 7.093 7.093 0.000
H15MET 2017-11-13 17:00:00 1930 208 900.0 2017.0 317.00 1700.0 2.5180 2.1790 100.000 100.000 2.5180 2.1790 0.04800 0.03400 335.20 15.550 7.322 7.322 0.000 7.147 7.147 0.000
H15MET 2017-11-13 16:45:00 1929 208 900.0 2017.0 317.00 1645.0 3.0380 2.7020 100.000 100.000 3.0380 2.7020 0.24500 0.14700 318.50 28.670 7.598 7.598 0.000 7.419 7.419 0.000
H15MET 2017-11-13 16:30:00 1928 208 900.0 2017.0 317.00 1630.0 3.3050 2.9550 100.000 100.000 3.3050 2.9550 0.06700 0.04300 20.89 18.480 7.743 7.743 -0.000 7.553 7.553 0.000
H15MET 2017-11-13 16:15:00 1927 208 900.0 2017.0 317.00 1615.0 3.3590 3.0020 100.000 100.000 3.3590 3.0020 0.01100 0.00900 56.84 9.250 7.773 7.773 0.000 7.578 7.578 0.000
H15MET 2017-11-13 16:00:00 1926 208 900.0 2017.0 317.00 1600.0 3.5470 3.1710 100.000 100.000 3.5470 3.1710 0.07900 0.05800 355.40 17.800 7.877 7.877 0.000 7.670 7.670 0.000
H15MET 2017-11-13 15:45:00 1925 208 900.0 2017.0 317.00 1545.0 3.7510 3.3890 100.000 100.000 3.7510 3.3890 0.05400 0.04300 349.10 11.500 7.991 7.991 0.000 7.789 7.789 0.000
H15MET 2017-11-13 15:30:00 1924 208 900.0 2017.0 317.00 1530.0 3.7860 3.3900 100.000 100.000 3.7860 3.3900 0.02700 0.02300 36.23 12.290 8.011 8.011 0.000 7.790 7.790 0.000
H15MET 2017-11-13 15:15:00 1923 208 900.0 2017.0 317.00 1515.0 3.7500 3.3560 100.000 100.000 3.7500 3.3560 0.08700 0.06700 18.90 3.754 7.990 7.990 0.000 7.771 7.771 0.000
H15MET 2017-11-13 15:00:00 1922 208 900.0 2017.0 317.00 1500.0 3.7390 3.3600 100.000 100.000 3.7390 3.3600 0.03200 0.02200 353.40 3.416 7.984 7.984 0.000 7.773 7.773 0.000
H15MET 2017-11-13 14:45:00 1921 208 900.0 2017.0 317.00 1445.0 3.6370 3.2420 100.000 100.000 3.6370 3.2420 0.06900 0.06800 46.75 2.463 7.927 7.927 0.000 7.708 7.708 0.000
H15MET 2017-11-13 14:30:00 1920 208 900.0 2017.0 317.00 1430.0 3.4750 3.0790 100.000 100.000 3.4750 3.0790 0.04800 0.03400 75.90 18.230 7.837 7.837 0.000 7.620 7.620 0.000
H15MET 2017-11-13 14:15:00 1919 208 900.0 2017.0 317.00 1415.0 3.4080 3.0080 100.000 100.000 3.4080 3.0080 0.03500 0.03300 42.53 7.200 7.800 7.800 0.000 7.582 7.582 0.000
H15MET 2017-11-13 14:00:00 1918 208 900.0 2017.0 317.00 1400.0 3.3510 2.9500 100.000 100.000 3.3510 2.9500 0.07600 0.05700 4.35 16.800 7.768 7.768 0.000 7.550 7.550 0.000
H15MET 2017-11-13 13:45:00 1917 208 900.0 2017.0 317.00 1345.0 3.3680 2.9620 100.000 100.000 3.3680 2.9620 0.29500 0.20000 20.91 29.630 7.778 7.778 0.000 7.557 7.557 0.000
H15MET 2017-11-13 13:30:00 1916 208 900.0 2017.0 317.00 1330.0 3.1710 2.7800 100.000 100.000 3.1710 2.7800 0.05500 0.03900 69.14 12.970 7.670 7.670 0.000 7.460 7.460 0.000
H15MET 2017-11-13 13:15:00 1915 208 900.0 2017.0 317.00 1315.0 3.0930 2.7050 100.000 100.000 3.0930 2.7050 0.11000 0.10000 54.03 11.010 7.627 7.627 0.000 7.420 7.420 0.000
H15MET 2017-11-13 13:00:00 1914 208 900.0 2017.0 317.00 1300.0 2.8500 2.4720 100.000 100.000 2.8500 2.4720 0.24400 0.20800 56.47 20.740 7.497 7.497 0.000 7.298 7.298 0.000
H15MET 2017-11-13 12:45:00 1913 208 900.0 2017.0 317.00 1245.0 2.7940 2.4230 100.000 100.000 2.7940 2.4230 0.18100 0.11200 57.46 31.850 7.467 7.467 0.000 7.273 7.273 0.000
H15MET 2017-11-13 12:30:00 1912 208 900.0 2017.0 317.00 1230.0 3.0550 2.6950 100.000 100.000 3.0550 2.6950 0.29900 0.15300 5.95 40.790 7.607 7.607 0.000 7.415 7.415 0.000
H15MET 2017-11-13 12:15:00 1911 208 900.0 2017.0 317.00 1215.0 3.2320 2.8420 100.000 100.000 3.2320 2.8420 0.13700 0.11300 340.20 18.300 7.703 7.703 0.000 7.493 7.493 0.000
H15MET 2017-11-13 12:00:00 1910 208 900.0 2017.0 317.00 1200.0 3.2070 2.8060 100.000 100.000 3.2070 2.8060 0.10100 0.07800 15.64 15.980 7.689 7.689 0.000 7.474 7.474 0.000
H15MET 2017-11-13 11:45:00 1909 208 900.0 2017.0 317.00 1145.0 3.2180 2.8160 100.000 100.000 3.2180 2.8160 0.07000 0.06000 68.70 9.350 7.695 7.695 -0.000 7.479 7.479 0.000
H15MET 2017-11-13 11:30:00 1908 208 900.0 2017.0 317.00 1130.0 3.2060 2.8190 100.000 100.000 3.2060 2.8190 0.13200 0.11500 10.59 15.130 7.689 7.689 0.000 7.481 7.481 0.000
H15MET 2017-11-13 11:15:00 1907 208 900.0 2017.0 317.00 1115.0 3.2350 2.8360 100.000 100.000 3.2350 2.8360 0.40500 0.26900 30.00 36.380 7.705 7.705 0.000 7.490 7.490 0.000
H15MET 2017-11-13 11:00:00 1906 208 900.0 2017.0 317.00 1100.0 3.2360 2.8250 100.000 100.000 3.2360 2.8250 0.04200 0.03100 39.63 3.785 7.705 7.705 0.000 7.484 7.484 0.000
H15MET 2017-11-13 10:45:00 1905 208 900.0 2017.0 317.00 1045.0 3.1830 2.7870 100.000 100.000 3.1830 2.7870 0.14300 0.12100 38.15 12.410 7.676 7.676 0.000 7.464 7.464 0.000
H15MET 2017-11-13 10:30:00 1904 208 900.0 2017.0 317.00 1030.0 3.2280 2.8210 100.000 100.000 3.2280 2.8210 0.22900 0.20500 79.60 17.210 7.701 7.701 0.000 7.482 7.482 0.000
H15MET 2017-11-13 10:15:00 1903 208 900.0 2017.0 317.00 1015.0 3.0070 2.6110 100.000 100.000 3.0070 2.6110 0.00000 0.00000 0.00 0.000 7.581 7.581 0.000 7.371 7.371 0.000
H15MET 2017-11-13 10:00:00 1902 208 900.0 2017.0 317.00 1000.0 2.7780 2.4020 100.000 100.000 2.7780 2.4020 0.09300 0.07900 49.89 12.660 7.459 7.459 0.000 7.262 7.262 0.000
H15MET 2017-11-13 09:45:00 1901 208 900.0 2017.0 317.00 945.0 2.6020 2.2250 100.000 100.000 2.6020 2.2250 0.01900 0.01800 48.48 7.250 7.366 7.366 0.000 7.171 7.171 0.000
H15MET 2017-11-13 09:30:00 1900 208 900.0 2017.0 317.00 930.0 2.5360 2.1870 100.000 100.000 2.5360 2.1870 0.16200 0.13000 51.77 16.500 7.331 7.331 0.000 7.151 7.151 0.000
H15MET 2017-11-13 09:15:00 1899 208 900.0 2017.0 317.00 915.0 2.6720 2.3010 100.000 100.000 2.6720 2.3010 0.33500 0.19900 356.90 31.180 7.403 7.403 0.000 7.210 7.210 0.000
H15MET 2017-11-13 09:00:00 1898 208 900.0 2017.0 317.00 900.0 2.7240 2.3650 100.000 100.000 2.7240 2.3650 0.14800 0.06100 79.60 24.920 7.430 7.430 0.000 7.243 7.243 0.000
H15MET 2017-11-13 08:45:00 1897 208 900.0 2017.0 317.00 845.0 2.9980 2.6510 100.000 100.000 2.9980 2.6510 0.21000 0.05000 303.40 38.180 7.576 7.576 0.000 7.392 7.392 0.000
H15MET 2017-11-13 08:30:00 1896 208 900.0 2017.0 317.00 830.0 3.0460 2.7000 100.000 100.000 3.0460 2.7000 0.07500 0.02500 355.90 30.270 7.602 7.602 0.000 7.418 7.418 0.000
H15MET 2017-11-13 08:15:00 1895 208 900.0 2017.0 317.00 815.0 3.0360 2.7010 100.000 100.000 3.0360 2.7010 0.15800 0.10600 23.02 24.470 7.597 7.597 0.000 7.418 7.418 0.000
H15MET 2017-11-13 08:00:00 1894 208 900.0 2017.0 317.00 800.0 3.0720 2.7220 100.000 100.000 3.0720 2.7220 0.15500 0.11100 38.40 24.040 7.616 7.616 0.000 7.429 7.429 -0.000
H15MET 2017-11-13 07:45:00 1893 208 900.0 2017.0 317.00 745.0 3.0510 2.6920 100.000 100.000 3.0510 2.6920 0.27600 0.14700 26.57 34.740 7.605 7.605 0.000 7.413 7.413 0.000
H15MET 2017-11-13 07:30:00 1892 208 900.0 2017.0 317.00 730.0 3.0410 2.7010 100.000 100.000 3.0410 2.7010 0.13700 0.09800 39.92 21.740 7.599 7.599 -0.000 7.418 7.418 0.000
H15MET 2017-11-13 07:15:00 1891 208 900.0 2017.0 317.00 715.0 3.0400 2.6980 100.000 100.000 3.0400 2.6980 0.12400 0.08500 351.90 20.480 7.599 7.599 0.000 7.416 7.416 0.000
H15MET 2017-11-13 07:00:00 1890 208 900.0 2017.0 317.00 700.0 3.0410 2.7000 100.000 100.000 3.0400 2.7000 0.26900 0.11800 32.78 35.530 7.599 7.599 -0.000 7.418 7.418 0.000
H15MET 2017-11-13 06:45:00 1889 208 900.0 2017.0 317.00 645.0 3.0160 2.6550 100.000 100.000 3.0160 2.6540 0.09800 0.06700 345.10 17.900 7.586 7.586 0.000 7.394 7.393 0.000
H15MET 2017-11-13 06:30:00 1888 208 900.0 2017.0 317.00 630.0 3.0910 2.7320 100.000 100.000 3.0910 2.7320 0.52100 0.29600 10.71 45.480 7.626 7.626 -0.000 7.434 7.434 0.000
H15MET 2017-11-13 06:15:00 1887 208 900.0 2017.0 317.00 615.0 3.2410 2.8760 100.000 100.000 3.2410 2.8760 0.24300 0.14000 35.89 34.460 7.708 7.708 0.000 7.511 7.511 0.000
H15MET 2017-11-13 06:00:00 1886 208 900.0 2017.0 317.00 600.0 3.4440 3.1060 100.000 100.000 3.4440 3.1060 0.32500 0.12400 3.04 38.220 7.819 7.819 -0.000 7.635 7.635 0.000
H15MET 2017-11-13 05:45:00 1885 208 900.0 2017.0 317.00 545.0 3.7430 3.4120 100.000 100.000 3.7430 3.4120 0.15300 0.09500 353.20 31.040 7.986 7.986 -0.000 7.802 7.802 0.000
H15MET 2017-11-13 05:30:00 1884 208 900.0 2017.0 317.00 530.0 3.9930 3.6450 100.000 100.000 3.9930 3.6450 0.36600 0.14700 342.30 42.020 8.128 8.128 0.000 7.931 7.931 0.000
H15MET 2017-11-13 05:15:00 1883 208 900.0 2017.0 317.00 515.0 4.1260 3.7820 100.000 100.000 4.1260 3.7820 0.12200 0.03900 0.45 36.560 8.205 8.205 0.000 8.008 8.008 0.000
H15MET 2017-11-13 05:00:00 1882 208 900.0 2017.0 317.00 500.0 4.1860 3.8470 100.000 100.000 4.1860 3.8470 0.06300 0.06100 27.47 4.259 8.239 8.239 0.000 8.045 8.045 0.000
H15MET 2017-11-13 04:45:00 1881 208 900.0 2017.0 317.00 445.0 4.2730 3.9470 100.000 100.000 4.2730 3.9470 0.01400 0.01300 80.00 1.250 8.290 8.290 0.000 8.102 8.102 0.000
H15MET 2017-11-13 04:30:00 1880 208 900.0 2017.0 317.00 430.0 4.3220 4.0120 100.000 100.000 4.3220 4.0120 0.07900 0.04800 121.50 21.400 8.318 8.318 0.000 8.139 8.139 0.000
H15MET 2017-11-13 04:15:00 1879 208 900.0 2017.0 317.00 415.0 4.4980 4.1950 100.000 100.000 4.4980 4.1950 0.01300 0.01300 75.70 0.725 8.422 8.422 0.000 8.244 8.244 0.000
H15MET 2017-11-13 04:00:00 1878 208 900.0 2017.0 317.00 400.0 5.0670 4.8080 100.000 100.000 5.0670 4.8080 0.05000 0.03900 338.80 10.460 8.764 8.764 0.000 8.606 8.606 0.000
H15MET 2017-11-13 03:45:00 1877 208 900.0 2017.0 317.00 345.0 5.5300 5.2340 100.000 100.000 5.5300 5.2340 0.14900 0.04200 32.26 34.230 9.051 9.051 0.000 8.866 8.866 0.000
H15MET 2017-11-13 03:30:00 1876 208 900.0 2017.0 317.00 330.0 5.7690 5.4710 100.000 100.000 5.7690 5.4710 0.31700 0.23700 14.18 26.240 9.202 9.202 0.000 9.014 9.014 0.000
H15MET 2017-11-13 03:15:00 1875 208 900.0 2017.0 317.00 315.0 6.0500 5.7800 100.000 100.000 6.0500 5.7800 0.34200 0.18900 6.80 38.470 9.383 9.383 0.000 9.209 9.209 0.000
H15MET 2017-11-13 03:00:00 1874 208 900.0 2017.0 317.00 300.0 6.0840 5.8360 100.000 100.000 6.0840 5.8360 0.07800 0.02200 57.04 15.850 9.405 9.405 0.000 9.245 9.245 0.000
H15MET 2017-11-13 02:45:00 1873 208 900.0 2017.0 317.00 245.0 6.0980 5.8610 100.000 100.000 6.0980 5.8610 0.02800 0.02400 350.70 7.950 9.414 9.414 0.000 9.261 9.261 0.000
H15MET 2017-11-13 02:30:00 1872 208 900.0 2017.0 317.00 230.0 6.0830 5.8560 100.000 100.000 6.0830 5.8560 0.00000 0.00000 0.00 0.000 9.404 9.404 0.000 9.258 9.258 0.000
H15MET 2017-11-13 02:15:00 1871 208 900.0 2017.0 317.00 215.0 6.0760 5.8630 100.000 100.000 6.0760 5.8630 0.00400 0.00400 268.40 0.297 9.400 9.400 0.000 9.262 9.262 0.000
H15MET 2017-11-13 02:00:00 1870 208 900.0 2017.0 317.00 200.0 6.0910 5.8470 100.000 100.000 6.0910 5.8470 0.16200 0.12300 12.18 20.880 9.410 9.410 0.000 9.252 9.252 0.000
H15MET 2017-11-13 01:45:00 1869 208 900.0 2017.0 317.00 145.0 5.9700 5.7320 100.000 100.000 5.9690 5.7320 0.31000 0.13700 22.34 41.940 9.331 9.331 0.000 9.178 9.178 0.000
H15MET 2017-11-13 01:30:00 1868 208 900.0 2017.0 317.00 130.0 5.8500 5.6210 100.000 100.000 5.8500 5.6210 0.22800 0.16500 61.86 23.430 9.254 9.254 0.000 9.108 9.108 0.000
H15MET 2017-11-13 01:15:00 1867 208 900.0 2017.0 317.00 115.0 5.8210 5.5700 100.000 100.000 5.8210 5.5700 0.04100 0.01200 7.57 19.250 9.235 9.235 0.000 9.076 9.076 0.000
H15MET 2017-11-13 01:00:00 1866 208 900.0 2017.0 317.00 100.0 5.8880 5.6580 100.000 100.000 5.8880 5.6580 0.17400 0.13300 69.94 16.590 9.278 9.278 0.000 9.131 9.131 0.000
H15MET 2017-11-13 00:45:00 1865 208 900.0 2017.0 317.00 45.0 5.9130 5.6850 100.000 100.000 5.9130 5.6850 0.11500 0.07400 71.80 28.280 9.294 9.294 0.000 9.149 9.149 0.000
H15MET 2017-11-13 00:30:00 1864 208 900.0 2017.0 317.00 30.0 5.8290 5.5930 100.000 100.000 5.8290 5.5930 0.36600 0.25600 35.07 29.490 9.240 9.240 0.000 9.090 9.090 0.000
H15MET 2017-11-13 00:15:00 1863 208 900.0 2017.0 317.00 15.0 5.6290 5.3810 100.000 100.000 5.6290 5.3810 0.24800 0.14100 38.70 31.490 9.113 9.113 0.000 8.957 8.957 0.000
H15MET 2017-11-13 00:00:00 1862 208 900.0 2017.0 316.00 2400.0 5.6200 5.3760 100.000 100.000 5.6200 5.3760 0.12500 0.03600 110.90 16.600 9.107 9.107 0.000 8.954 8.954 0.000
H15MET 2017-11-12 23:45:00 1861 208 900.0 2017.0 316.00 2345.0 5.6840 5.4450 100.000 100.000 5.6840 5.4450 0.02500 0.00400 54.19 21.790 9.148 9.148 0.000 8.997 8.997 0.000
H15MET 2017-11-12 23:30:00 1860 208 900.0 2017.0 316.00 2330.0 5.7200 5.4850 100.000 100.000 5.7200 5.4850 0.00000 0.00000 0.00 0.000 9.171 9.171 0.000 9.022 9.022 0.000
H15MET 2017-11-12 23:15:00 1859 208 900.0 2017.0 316.00 2315.0 5.7190 5.4770 100.000 100.000 5.7190 5.4770 0.00000 0.00000 0.00 0.000 9.170 9.170 0.000 9.017 9.017 0.000
H15MET 2017-11-12 23:00:00 1858 208 900.0 2017.0 316.00 2300.0 5.6520 5.4200 100.000 100.000 5.6520 5.4200 0.00000 0.00000 0.00 0.000 9.128 9.128 0.000 8.982 8.982 0.000
H15MET 2017-11-12 22:45:00 1857 208 900.0 2017.0 316.00 2245.0 5.6740 5.4410 100.000 100.000 5.6740 5.4410 0.00000 0.00000 0.00 0.000 9.142 9.142 0.000 8.995 8.995 0.000
H15MET 2017-11-12 22:30:00 1856 208 900.0 2017.0 316.00 2230.0 5.7500 5.5190 100.000 100.000 5.7500 5.5190 0.03900 0.03200 34.83 10.710 9.190 9.190 0.000 9.044 9.044 0.000
H15MET 2017-11-12 22:15:00 1855 208 900.0 2017.0 316.00 2215.0 5.8400 5.6160 100.000 100.000 5.8400 5.6160 0.07000 0.02900 85.30 13.730 9.247 9.247 0.000 9.105 9.105 0.000
H15MET 2017-11-12 22:00:00 1854 208 900.0 2017.0 316.00 2200.0 5.8720 5.6550 100.000 100.000 5.8720 5.6550 0.10800 0.04700 63.45 31.010 9.268 9.268 0.000 9.130 9.130 0.000
H15MET 2017-11-12 21:45:00 1853 208 900.0 2017.0 316.00 2145.0 5.8260 5.6320 100.000 100.000 5.8260 5.6320 0.02000 0.02000 48.87 2.889 9.239 9.239 0.000 9.115 9.115 0.000
H15MET 2017-11-12 21:30:00 1852 208 900.0 2017.0 316.00 2130.0 5.7890 5.6290 100.000 99.800 5.7890 5.5960 0.00000 0.00000 129.10 0.000 9.215 9.215 0.000 9.113 9.092 0.018
H15MET 2017-11-12 21:15:00 1851 208 900.0 2017.0 316.00 2115.0 5.8830 5.7960 100.000 98.200 5.8830 5.5300 0.10500 0.03900 99.30 17.640 9.275 9.275 0.000 9.219 9.051 0.166
H15MET 2017-11-12 21:00:00 1850 208 900.0 2017.0 316.00 2100.0 5.8930 5.7650 100.000 99.000 5.8930 5.6260 0.37700 0.22700 58.49 38.620 9.282 9.282 0.000 9.200 9.111 0.092
H15MET 2017-11-12 20:45:00 1849 208 900.0 2017.0 316.00 2045.0 5.7920 5.6650 100.000 99.600 5.7920 5.6120 0.35700 0.19400 33.54 44.970 9.217 9.217 0.000 9.136 9.102 0.037
H15MET 2017-11-12 20:30:00 1848 208 900.0 2017.0 316.00 2030.0 5.8040 5.6610 100.000 99.500 5.8040 5.5870 0.11900 0.10200 342.10 15.850 9.224 9.224 0.000 9.133 9.087 0.046
H15MET 2017-11-12 20:15:00 1847 208 900.0 2017.0 316.00 2015.0 5.7700 5.6030 100.000 100.000 5.7700 5.6030 0.08300 0.04600 37.44 28.140 9.203 9.203 0.000 9.097 9.097 0.000
H15MET 2017-11-12 20:00:00 1846 208 900.0 2017.0 316.00 2000.0 5.8040 5.6400 100.000 99.900 5.8040 5.6230 0.12300 0.06000 54.10 29.860 9.224 9.224 0.000 9.120 9.109 0.009
H15MET 2017-11-12 19:45:00 1845 208 900.0 2017.0 316.00 1945.0 5.8010 5.6360 100.000 99.800 5.8010 5.6130 0.37400 0.18800 4.44 44.170 9.223 9.223 0.000 9.118 9.103 0.018
H15MET 2017-11-12 19:30:00 1844 208 900.0 2017.0 316.00 1930.0 5.7590 5.5890 100.000 100.000 5.7590 5.5890 0.23600 0.11600 29.80 41.220 9.196 9.196 0.000 9.088 9.088 0.000
H15MET 2017-11-12 19:15:00 1843 208 900.0 2017.0 316.00 1915.0 5.7530 5.5570 100.000 100.000 5.7530 5.5500 0.13600 0.06300 67.96 35.100 9.192 9.192 0.000 9.068 9.063 0.000
H15MET 2017-11-12 19:00:00 1842 208 900.0 2017.0 316.00 1900.0 5.8620 5.8080 100.000 98.200 5.8620 5.5410 0.10700 0.08600 28.42 20.120 9.262 9.262 0.000 9.227 9.058 0.166
H15MET 2017-11-12 18:45:00 1841 208 900.0 2017.0 316.00 1845.0 5.8890 5.9500 100.000 96.200 5.8890 5.3940 0.29900 0.14300 358.40 41.140 9.279 9.279 0.000 9.318 8.965 0.354
H15MET 2017-11-12 18:30:00 1840 208 900.0 2017.0 316.00 1830.0 5.9160 5.9900 100.000 94.800 5.9160 5.2200 0.32100 0.09100 16.35 44.880 9.296 9.296 0.000 9.344 8.857 0.486
H15MET 2017-11-12 18:15:00 1839 208 900.0 2017.0 316.00 1815.0 5.8480 5.7250 100.000 97.300 5.8480 5.3300 0.34700 0.20500 43.64 44.370 9.253 9.253 0.000 9.174 8.926 0.248
H15MET 2017-11-12 18:00:00 1838 208 900.0 2017.0 316.00 1800.0 5.7010 5.5320 100.000 100.000 5.7010 5.5320 0.13800 0.06700 61.18 34.010 9.159 9.159 0.000 9.052 9.052 0.000
H15MET 2017-11-12 17:45:00 1837 208 900.0 2017.0 316.00 1745.0 5.6570 5.4760 100.000 100.000 5.6570 5.4760 0.22600 0.13600 106.00 28.070 9.131 9.131 0.000 9.017 9.017 0.000
H15MET 2017-11-12 17:30:00 1836 208 900.0 2017.0 316.00 1730.0 5.7400 5.5770 100.000 100.000 5.7400 5.5770 0.32800 0.20600 60.33 39.480 9.184 9.184 0.000 9.080 9.080 0.000
H15MET 2017-11-12 17:15:00 1835 208 900.0 2017.0 316.00 1715.0 5.6990 5.4330 100.000 100.000 5.6990 5.4330 0.12500 0.10800 55.95 19.180 9.157 9.157 0.000 8.990 8.990 0.000
H15MET 2017-11-12 17:00:00 1834 208 900.0 2017.0 316.00 1700.0 5.8140 5.5370 100.000 100.000 5.8140 5.5370 0.00500 0.00500 60.88 0.890 9.231 9.231 0.000 9.055 9.055 0.000
H15MET 2017-11-12 16:45:00 1833 208 900.0 2017.0 316.00 1645.0 5.9140 5.6600 100.000 100.000 5.9140 5.6600 0.00400 0.00400 46.14 3.913 9.295 9.295 0.000 9.133 9.133 0.000
H15MET 2017-11-12 16:30:00 1832 208 900.0 2017.0 316.00 1630.0 6.0500 5.8050 100.000 100.000 6.0500 5.8050 0.01700 0.01700 128.10 0.337 9.383 9.383 0.000 9.225 9.225 0.000
H15MET 2017-11-12 16:15:00 1831 208 900.0 2017.0 316.00 1615.0 6.2660 6.0020 100.000 100.000 6.2660 6.0020 0.00000 0.00000 0.00 0.000 9.524 9.524 0.000 9.352 9.352 0.000
H15MET 2017-11-12 16:00:00 1830 208 900.0 2017.0 316.00 1600.0 6.4110 6.1280 100.000 100.000 6.4110 6.1280 0.00000 0.00000 0.00 0.000 9.620 9.620 0.000 9.434 9.434 0.000
H15MET 2017-11-12 15:45:00 1829 208 900.0 2017.0 316.00 1545.0 6.4830 6.2200 100.000 100.000 6.4820 6.2200 0.00400 0.00400 3.64 0.219 9.668 9.667 0.000 9.494 9.494 0.000
H15MET 2017-11-12 15:30:00 1828 208 900.0 2017.0 316.00 1530.0 6.6030 6.3220 100.000 100.000 6.6030 6.3210 0.01300 0.01300 138.90 0.089 9.748 9.748 0.000 9.561 9.560 0.000
H15MET 2017-11-12 15:15:00 1827 208 900.0 2017.0 316.00 1515.0 6.6750 6.3800 100.000 100.000 6.6750 6.3800 0.00000 0.00000 0.00 0.000 9.797 9.797 0.000 9.599 9.599 0.000
H15MET 2017-11-12 15:00:00 1826 208 900.0 2017.0 316.00 1500.0 6.8040 6.5010 100.000 100.000 6.8040 6.5010 0.01400 0.01400 57.98 1.443 9.884 9.884 0.000 9.680 9.680 0.000
H15MET 2017-11-12 14:45:00 1825 208 900.0 2017.0 316.00 1445.0 7.0900 6.8370 100.000 100.000 7.0900 6.8370 0.00400 0.00300 8.86 2.844 10.080 10.080 0.000 9.906 9.906 0.000
H15MET 2017-11-12 14:30:00 1824 208 900.0 2017.0 316.00 1430.0 7.0900 6.8240 100.000 100.000 7.0900 6.8240 0.00000 0.00000 0.00 0.000 10.080 10.080 0.000 9.898 9.898 0.000
H15MET 2017-11-12 14:15:00 1823 208 900.0 2017.0 316.00 1415.0 7.1600 6.8560 100.000 100.000 7.1600 6.8560 0.00000 0.00000 0.00 0.000 10.129 10.129 0.000 9.919 9.919 0.000
H15MET 2017-11-12 14:00:00 1822 208 900.0 2017.0 316.00 1400.0 7.2100 6.9570 100.000 100.000 7.2100 6.9570 0.00000 0.00000 0.00 0.000 10.163 10.163 0.000 9.988 9.988 0.000
H15MET 2017-11-12 13:45:00 1821 208 900.0 2017.0 316.00 1345.0 7.3800 7.1300 100.000 100.000 7.3800 7.1300 0.00000 0.00000 0.00 0.000 10.282 10.282 0.000 10.108 10.108 0.000
H15MET 2017-11-12 13:30:00 1820 208 900.0 2017.0 316.00 1330.0 7.2500 7.1700 100.000 100.000 7.2500 7.1700 0.00000 0.00000 0.00 0.000 10.191 10.191 0.000 10.136 10.136 0.000
H15MET 2017-11-12 13:15:00 1819 208 900.0 2017.0 316.00 1315.0 7.0900 7.0000 100.000 100.000 7.0900 7.0000 0.00000 0.00000 0.00 0.000 10.080 10.080 0.000 10.018 10.018 0.000
H15MET 2017-11-12 13:00:00 1818 208 900.0 2017.0 316.00 1300.0 6.9930 6.9560 100.000 100.000 6.9930 6.9560 0.00000 0.00000 0.00 0.000 10.013 10.013 0.000 9.988 9.988 0.000
H15MET 2017-11-12 12:45:00 1817 208 900.0 2017.0 316.00 1245.0 7.0400 6.9770 100.000 100.000 7.0400 6.9770 0.00000 0.00000 0.00 0.000 10.046 10.046 0.000 10.002 10.002 0.000
H15MET 2017-11-12 12:30:00 1816 208 900.0 2017.0 316.00 1230.0 7.0500 6.9330 100.000 100.000 7.0500 6.9330 0.00000 0.00000 0.00 0.000 10.052 10.052 0.000 9.972 9.972 0.000
H15MET 2017-11-12 12:15:00 1815 208 900.0 2017.0 316.00 1215.0 7.0000 6.9020 100.000 100.000 7.0000 6.9020 0.00000 0.00000 0.00 0.000 10.018 10.018 0.000 9.951 9.951 0.000
H15MET 2017-11-12 12:00:00 1814 208 900.0 2017.0 316.00 1200.0 6.9660 6.8760 100.000 100.000 6.9660 6.8750 0.00000 0.00000 0.00 0.000 9.995 9.995 0.000 9.933 9.932 0.000
H15MET 2017-11-12 11:45:00 1813 208 900.0 2017.0 316.00 1145.0 6.5140 6.3970 100.000 100.000 6.5140 6.3970 0.00000 0.00000 0.00 0.000 9.689 9.689 0.000 9.611 9.611 0.000
H15MET 2017-11-12 11:30:00 1812 208 900.0 2017.0 316.00 1130.0 6.2310 6.1540 100.000 100.000 6.2310 6.1540 0.00000 0.00000 0.00 0.000 9.501 9.501 0.000 9.451 9.451 0.000
H15MET 2017-11-12 11:15:00 1811 208 900.0 2017.0 316.00 1115.0 5.8110 5.7350 100.000 100.000 5.8110 5.7350 0.00000 0.00000 0.00 0.000 9.229 9.229 0.000 9.180 9.180 0.000
H15MET 2017-11-12 11:00:00 1810 208 900.0 2017.0 316.00 1100.0 5.5600 5.5020 100.000 100.000 5.5600 5.5020 0.00000 0.00000 0.00 0.000 9.070 9.070 0.000 9.033 9.033 0.000
H15MET 2017-11-12 10:45:00 1809 208 900.0 2017.0 316.00 1045.0 5.3930 5.2900 100.000 100.000 5.3930 5.2900 0.00000 0.00000 0.00 0.000 8.965 8.965 0.000 8.901 8.901 0.000
H15MET 2017-11-12 10:30:00 1808 208 900.0 2017.0 316.00 1030.0 5.3110 5.1370 100.000 100.000 5.3110 5.1370 0.00000 0.00000 0.00 0.000 8.914 8.914 0.000 8.806 8.806 0.000
H15MET 2017-11-12 10:15:00 1807 208 900.0 2017.0 316.00 1015.0 5.0190 4.8130 100.000 100.000 5.0190 4.8130 0.00000 0.00000 0.00 0.000 8.734 8.734 0.000 8.609 8.609 0.000
H15MET 2017-11-12 10:00:00 1806 208 900.0 2017.0 316.00 1000.0 5.0290 4.7920 100.000 100.000 5.0290 4.7920 0.00000 0.00000 0.00 0.000 8.740 8.740 0.000 8.597 8.597 0.000
H15MET 2017-11-12 09:45:00 1805 208 900.0 2017.0 316.00 945.0 4.9140 4.6580 100.000 100.000 4.9140 4.6580 0.00000 0.00000 0.00 0.000 8.670 8.670 0.000 8.517 8.517 0.000
H15MET 2017-11-12 09:30:00 1804 208 900.0 2017.0 316.00 930.0 4.7400 4.4760 100.000 100.000 4.7400 4.4760 0.00000 0.00000 0.00 0.000 8.566 8.566 0.000 8.409 8.409 0.000
H15MET 2017-11-12 09:15:00 1803 208 900.0 2017.0 316.00 915.0 4.3960 4.1480 100.000 100.000 4.3960 4.1480 0.00000 0.00000 0.00 0.000 8.362 8.362 0.000 8.217 8.217 0.000
H15MET 2017-11-12 09:00:00 1802 208 900.0 2017.0 316.00 900.0 4.2110 3.9860 100.000 100.000 4.2110 3.9860 0.00000 0.00000 0.00 0.000 8.254 8.254 0.000 8.124 8.124 0.000
H15MET 2017-11-12 08:45:00 1801 208 900.0 2017.0 316.00 845.0 4.0930 3.9150 100.000 100.000 4.0930 3.9150 0.00000 0.00000 0.00 0.000 8.186 8.186 0.000 8.084 8.084 0.000
H15MET 2017-11-12 08:30:00 1800 208 900.0 2017.0 316.00 830.0 3.9930 3.8200 100.000 100.000 3.9930 3.8200 0.00000 0.00000 0.00 0.000 8.128 8.128 0.000 8.030 8.030 0.000
H15MET 2017-11-12 08:15:00 1799 208 900.0 2017.0 316.00 815.0 3.8790 3.6630 100.000 100.000 3.8790 3.6620 0.00000 0.00000 0.00 0.000 8.063 8.063 0.000 7.941 7.941 0.000
H15MET 2017-11-12 08:00:00 1798 208 900.0 2017.0 316.00 800.0 3.7830 3.5860 100.000 100.000 3.7830 3.5860 0.00000 0.00000 0.00 0.000 8.009 8.009 0.000 7.898 7.898 0.000
H15MET 2017-11-12 07:45:00 1797 208 900.0 2017.0 316.00 745.0 3.8790 3.7190 100.000 100.000 3.8790 3.7190 0.00000 0.00000 0.00 0.000 8.063 8.063 0.000 7.973 7.973 -0.000
H15MET 2017-11-12 07:30:00 1796 208 900.0 2017.0 316.00 730.0 3.9260 3.7740 100.000 100.000 3.9260 3.7740 0.00000 0.00000 0.00 0.000 8.090 8.090 0.000 8.004 8.004 0.000
H15MET 2017-11-12 07:15:00 1795 208 900.0 2017.0 316.00 715.0 3.9330 3.7450 100.000 100.000 3.9330 3.7450 0.00000 0.00000 0.00 0.000 8.094 8.094 0.000 7.987 7.987 0.000
H15MET 2017-11-12 07:00:00 1794 208 900.0 2017.0 316.00 700.0 3.9300 3.7570 100.000 100.000 3.9300 3.7570 0.00000 0.00000 0.00 0.000 8.092 8.092 0.000 7.994 7.994 -0.000
H15MET 2017-11-12 06:45:00 1793 208 900.0 2017.0 316.00 645.0 3.9460 3.7490 100.000 100.000 3.9460 3.7490 0.00000 0.00000 0.00 0.000 8.101 8.101 0.000 7.990 7.990 0.000
H15MET 2017-11-12 06:30:00 1792 208 900.0 2017.0 316.00 630.0 3.8110 3.6110 100.000 100.000 3.8110 3.6110 0.00000 0.00000 0.00 0.000 8.025 8.025 0.000 7.912 7.912 0.000
H15MET 2017-11-12 06:15:00 1791 208 900.0 2017.0 316.00 615.0 3.7210 3.5300 100.000 100.000 3.7210 3.5300 0.00000 0.00000 0.00 0.000 7.974 7.974 0.000 7.867 7.867 0.000
H15MET 2017-11-12 06:00:00 1790 208 900.0 2017.0 316.00 600.0 3.7210 3.5320 100.000 100.000 3.7210 3.5320 0.00000 0.00000 0.00 0.000 7.974 7.974 0.000 7.868 7.868 -0.000
H15MET 2017-11-12 05:45:00 1789 208 900.0 2017.0 316.00 545.0 3.8780 3.7100 100.000 100.000 3.8780 3.7100 0.00000 0.00000 0.00 0.000 8.063 8.063 0.000 7.968 7.968 0.000
H15MET 2017-11-12 05:30:00 1788 208 900.0 2017.0 316.00 530.0 3.9920 3.8320 100.000 100.000 3.9920 3.8320 0.00000 0.00000 0.00 0.000 8.128 8.128 0.000 8.037 8.037 0.000
H15MET 2017-11-12 05:15:00 1787 208 900.0 2017.0 316.00 515.0 4.0120 3.8480 100.000 100.000 4.0120 3.8480 0.00000 0.00000 0.00 0.000 8.139 8.139 0.000 8.046 8.046 0.000
H15MET 2017-11-12 05:00:00 1786 208 900.0 2017.0 316.00 500.0 4.0150 3.8200 100.000 100.000 4.0150 3.8200 0.00000 0.00000 0.00 0.000 8.141 8.141 0.000 8.030 8.030 0.000
H15MET 2017-11-12 04:45:00 1785 208 900.0 2017.0 316.00 445.0 4.0240 3.8370 100.000 100.000 4.0230 3.8370 0.00000 0.00000 0.00 0.000 8.146 8.145 0.000 8.039 8.039 0.000
H15MET 2017-11-12 04:30:00 1784 208 900.0 2017.0 316.00 430.0 4.0230 3.8560 100.000 100.000 4.0230 3.8560 0.00000 0.00000 0.00 0.000 8.145 8.145 0.000 8.050 8.050 0.000
H15MET 2017-11-12 04:15:00 1783 208 900.0 2017.0 316.00 415.0 3.9740 3.7930 100.000 100.000 3.9740 3.7930 0.00000 0.00000 0.00 0.000 8.117 8.117 0.000 8.014 8.014 0.000
H15MET 2017-11-12 04:00:00 1782 208 900.0 2017.0 316.00 400.0 4.0520 3.8810 100.000 100.000 4.0520 3.8800 0.00000 0.00000 0.00 0.000 8.162 8.162 0.000 8.064 8.064 0.000
H15MET 2017-11-12 03:45:00 1781 208 900.0 2017.0 316.00 345.0 4.0400 3.8530 100.000 100.000 4.0400 3.8530 0.00000 0.00000 0.00 0.000 8.155 8.155 0.000 8.048 8.048 0.000
H15MET 2017-11-12 03:30:00 1780 208 900.0 2017.0 316.00 330.0 4.1230 3.9290 100.000 100.000 4.1230 3.9290 0.00000 0.00000 0.00 0.000 8.203 8.203 0.000 8.092 8.092 0.000
H15MET 2017-11-12 03:15:00 1779 208 900.0 2017.0 316.00 315.0 4.3290 4.1390 100.000 100.000 4.3290 4.1390 0.00000 0.00000 0.00 0.000 8.322 8.322 0.000 8.212 8.212 0.000
H15MET 2017-11-12 03:00:00 1778 208 900.0 2017.0 316.00 300.0 4.2950 4.1070 100.000 100.000 4.2950 4.1070 0.00000 0.00000 0.00 0.000 8.303 8.303 0.000 8.194 8.194 0.000
H15MET 2017-11-12 02:45:00 1777 208 900.0 2017.0 316.00 245.0 4.1580 3.9720 100.000 100.000 4.1580 3.9720 0.00000 0.00000 0.00 0.000 8.223 8.223 0.000 8.116 8.116 0.000
H15MET 2017-11-12 02:30:00 1776 208 900.0 2017.0 316.00 230.0 4.1010 3.8820 100.000 100.000 4.1010 3.8820 0.00000 0.00000 0.00 0.000 8.190 8.190 0.000 8.065 8.065 0.000
H15MET 2017-11-12 02:15:00 1775 208 900.0 2017.0 316.00 215.0 4.3460 4.1640 100.000 100.000 4.3460 4.1640 0.00000 0.00000 0.00 0.000 8.332 8.332 0.000 8.227 8.227 0.000
H15MET 2017-11-12 02:00:00 1774 208 900.0 2017.0 316.00 200.0 4.3260 4.1730 100.000 100.000 4.3260 4.1730 0.00000 0.00000 0.00 0.000 8.321 8.321 0.000 8.232 8.232 0.000
H15MET 2017-11-12 01:45:00 1773 208 900.0 2017.0 316.00 145.0 4.1110 3.9470 100.000 100.000 4.1110 3.9470 0.00000 0.00000 0.00 0.000 8.196 8.196 0.000 8.102 8.102 0.000
H15MET 2017-11-12 01:30:00 1772 208 900.0 2017.0 316.00 130.0 4.0260 3.8660 100.000 100.000 4.0260 3.8660 0.00200 0.00200 120.30 0.009 8.147 8.147 0.000 8.056 8.056 0.000
H15MET 2017-11-12 01:15:00 1771 208 900.0 2017.0 316.00 115.0 3.9910 3.8440 100.000 100.000 3.9910 3.8440 0.00000 0.00000 0.00 0.000 8.127 8.127 0.000 8.043 8.043 0.000
H15MET 2017-11-12 01:00:00 1770 208 900.0 2017.0 316.00 100.0 4.0690 3.9390 100.000 100.000 4.0690 3.9390 0.00000 0.00000 0.00 0.000 8.172 8.172 0.000 8.097 8.097 0.000
H15MET 2017-11-12 00:45:00 1769 208 900.0 2017.0 316.00 45.0 3.9720 3.8400 100.000 100.000 3.9720 3.8400 0.00000 0.00000 0.00 0.000 8.116 8.116 0.000 8.041 8.041 0.000
H15MET 2017-11-12 00:30:00 1768 208 900.0 2017.0 316.00 30.0 3.9350 3.8100 100.000 100.000 3.9350 3.8100 0.00000 0.00000 0.00 0.000 8.095 8.095 0.000 8.024 8.024 0.000
H15MET 2017-11-12 00:15:00 1767 208 900.0 2017.0 316.00 15.0 3.9760 3.8430 100.000 100.000 3.9760 3.8430 0.00800 0.00800 121.20 0.133 8.118 8.118 0.000 8.043 8.043 0.000
H15MET 2017-11-12 00:00:00 1766 208 900.0 2017.0 315.00 2400.0 3.9700 3.8100 100.000 100.000 3.9700 3.8100 0.00000 0.00000 0.00 0.000 8.115 8.115 0.000 8.024 8.024 0.000
H15MET 2017-11-11 23:45:00 1765 208 900.0 2017.0 315.00 2345.0 3.8780 3.7440 100.000 100.000 3.8780 3.7440 0.00000 0.00000 0.00 0.000 8.063 8.063 0.000 7.987 7.987 0.000
H15MET 2017-11-11 23:30:00 1764 208 900.0 2017.0 315.00 2330.0 3.7460 3.6170 100.000 100.000 3.7460 3.6170 0.00000 0.00000 0.00 0.000 7.988 7.988 0.000 7.916 7.916 0.000
H15MET 2017-11-11 23:15:00 1763 208 900.0 2017.0 315.00 2315.0 3.8840 3.7580 100.000 100.000 3.8840 3.7580 0.00000 0.00000 0.00 0.000 8.066 8.066 0.000 7.995 7.995 0.000
H15MET 2017-11-11 23:00:00 1762 208 900.0 2017.0 315.00 2300.0 3.9650 3.8030 100.000 100.000 3.9650 3.8030 0.03900 0.03900 66.80 0.166 8.112 8.112 0.000 8.020 8.020 0.000
H15MET 2017-11-11 22:45:00 1761 208 900.0 2017.0 315.00 2245.0 4.0070 3.8360 100.000 100.000 4.0070 3.8360 0.01600 0.01600 65.85 0.025 8.136 8.136 0.000 8.039 8.039 0.000
H15MET 2017-11-11 22:30:00 1760 208 900.0 2017.0 315.00 2230.0 4.0150 3.8410 100.000 100.000 4.0150 3.8410 0.00000 0.00000 0.00 0.000 8.141 8.141 0.000 8.042 8.042 0.000
H15MET 2017-11-11 22:15:00 1759 208 900.0 2017.0 315.00 2215.0 3.9630 3.8090 100.000 100.000 3.9630 3.8090 0.00000 0.00000 0.00 0.000 8.111 8.111 0.000 8.024 8.024 0.000
H15MET 2017-11-11 22:00:00 1758 208 900.0 2017.0 315.00 2200.0 3.8580 3.7440 100.000 100.000 3.8580 3.7440 0.01400 0.01400 127.30 0.026 8.051 8.051 0.000 7.987 7.987 0.000
H15MET 2017-11-11 21:45:00 1757 208 900.0 2017.0 315.00 2145.0 3.9830 3.8830 100.000 100.000 3.9830 3.8830 0.00000 0.00000 0.00 0.000 8.122 8.122 0.000 8.065 8.065 0.000
H15MET 2017-11-11 21:30:00 1756 208 900.0 2017.0 315.00 2130.0 3.9670 3.8580 100.000 100.000 3.9670 3.8580 0.00000 0.00000 0.00 0.000 8.113 8.113 0.000 8.051 8.051 0.000
H15MET 2017-11-11 21:15:00 1755 208 900.0 2017.0 315.00 2115.0 3.9980 3.8650 100.000 100.000 3.9980 3.8650 0.00000 0.00000 0.00 0.000 8.131 8.131 0.000 8.055 8.055 0.000
H15MET 2017-11-11 21:00:00 1754 208 900.0 2017.0 315.00 2100.0 4.0000 3.8640 100.000 100.000 4.0000 3.8640 0.00000 0.00000 0.00 0.000 8.132 8.132 0.000 8.055 8.055 0.000
H15MET 2017-11-11 20:45:00 1753 208 900.0 2017.0 315.00 2045.0 4.0240 3.8560 100.000 100.000 4.0240 3.8550 0.00000 0.00000 0.00 0.000 8.146 8.146 0.000 8.050 8.050 0.000
H15MET 2017-11-11 20:30:00 1752 208 900.0 2017.0 315.00 2030.0 4.0030 3.8470 100.000 100.000 4.0030 3.8470 0.00000 0.00000 0.00 0.000 8.134 8.134 0.000 8.045 8.045 0.000
H15MET 2017-11-11 20:15:00 1751 208 900.0 2017.0 315.00 2015.0 3.8980 3.7570 100.000 100.000 3.8980 3.7570 0.00000 0.00000 0.00 0.000 8.074 8.074 0.000 7.994 7.994 -0.000
H15MET 2017-11-11 20:00:00 1750 208 900.0 2017.0 315.00 2000.0 3.9450 3.7970 100.000 100.000 3.9450 3.7970 0.01000 0.01000 66.83 0.135 8.101 8.101 0.000 8.017 8.017 0.000
H15MET 2017-11-11 19:45:00 1749 208 900.0 2017.0 315.00 1945.0 3.9720 3.8120 100.000 100.000 3.9720 3.8120 0.00000 0.00000 0.00 0.000 8.116 8.116 0.000 8.025 8.025 0.000
H15MET 2017-11-11 19:30:00 1748 208 900.0 2017.0 315.00 1930.0 3.7760 3.6580 100.000 100.000 3.7760 3.6580 0.00000 0.00000 0.00 0.000 8.005 8.005 0.000 7.939 7.939 0.000
H15MET 2017-11-11 19:15:00 1747 208 900.0 2017.0 315.00 1915.0 3.8610 3.7110 100.000 100.000 3.8610 3.7110 0.00000 0.00000 0.00 0.000 8.053 8.053 0.000 7.968 7.968 0.000
H15MET 2017-11-11 19:00:00 1746 208 900.0 2017.0 315.00 1900.0 3.9580 3.8090 100.000 100.000 3.9580 3.8090 0.03200 0.03200 135.70 0.358 8.108 8.108 0.000 8.024 8.024 0.000
H15MET 2017-11-11 18:45:00 1745 208 900.0 2017.0 315.00 1845.0 4.0450 3.8780 100.000 100.000 4.0450 3.8780 0.00000 0.00000 0.00 0.000 8.158 8.158 0.000 8.063 8.063 0.000
H15MET 2017-11-11 18:30:00 1744 208 900.0 2017.0 315.00 1830.0 4.1600 3.9670 100.000 100.000 4.1600 3.9670 0.00000 0.00000 0.00 0.000 8.224 8.224 0.000 8.113 8.113 0.000
H15MET 2017-11-11 18:15:00 1743 208 900.0 2017.0 315.00 1815.0 4.2350 4.0650 100.000 100.000 4.2350 4.0650 0.00000 0.00000 0.00 0.000 8.268 8.268 0.000 8.169 8.169 0.000
H15MET 2017-11-11 18:00:00 1742 208 900.0 2017.0 315.00 1800.0 4.3250 4.1350 100.000 100.000 4.3250 4.1350 0.00000 0.00000 0.00 0.000 8.320 8.320 0.000 8.210 8.210 0.000
H15MET 2017-11-11 17:45:00 1741 208 900.0 2017.0 315.00 1745.0 4.4130 4.2160 100.000 100.000 4.4130 4.2160 0.00000 0.00000 0.00 0.000 8.372 8.372 0.000 8.257 8.257 0.000
H15MET 2017-11-11 17:30:00 1740 208 900.0 2017.0 315.00 1730.0 4.5720 4.3760 100.000 100.000 4.5720 4.3760 0.00000 0.00000 0.00 0.000 8.465 8.465 0.000 8.350 8.350 0.000
H15MET 2017-11-11 17:15:00 1739 208 900.0 2017.0 315.00 1715.0 4.7770 4.6250 100.000 100.000 4.7770 4.6250 0.00000 0.00000 0.00 0.000 8.588 8.588 0.000 8.497 8.497 0.000
H15MET 2017-11-11 17:00:00 1738 208 900.0 2017.0 315.00 1700.0 4.9450 4.8000 100.000 100.000 4.9450 4.8000 0.00000 0.00000 0.00 0.000 8.689 8.689 0.000 8.602 8.602 0.000
H15MET 2017-11-11 16:45:00 1737 208 900.0 2017.0 315.00 1645.0 5.1620 5.0020 100.000 100.000 5.1620 5.0020 0.00000 0.00000 0.00 0.000 8.822 8.822 0.000 8.724 8.724 0.000
H15MET 2017-11-11 16:30:00 1736 208 900.0 2017.0 315.00 1630.0 5.3860 5.2060 100.000 100.000 5.3860 5.2060 0.00000 0.00000 0.00 0.000 8.960 8.960 0.000 8.849 8.849 0.000
H15MET 2017-11-11 16:15:00 1735 208 900.0 2017.0 315.00 1615.0 5.8320 5.6520 100.000 100.000 5.8320 5.6520 0.00000 0.00000 0.00 0.000 9.242 9.242 0.000 9.128 9.128 0.000
H15MET 2017-11-11 16:00:00 1734 208 900.0 2017.0 315.00 1600.0 5.9860 5.8840 100.000 100.000 5.9860 5.8840 0.01300 0.01300 61.65 0.879 9.341 9.341 0.000 9.276 9.276 0.000
H15MET 2017-11-11 15:45:00 1733 208 900.0 2017.0 315.00 1545.0 6.0350 5.8870 100.000 100.000 6.0350 5.8870 0.00000 0.00000 0.00 0.000 9.373 9.373 0.000 9.278 9.278 0.000
H15MET 2017-11-11 15:30:00 1732 208 900.0 2017.0 315.00 1530.0 5.9970 5.8500 100.000 100.000 5.9970 5.8500 0.00000 0.00000 0.00 0.000 9.349 9.349 0.000 9.254 9.254 0.000
H15MET 2017-11-11 15:15:00 1731 208 900.0 2017.0 315.00 1515.0 5.9500 5.7780 100.000 100.000 5.9500 5.7780 0.00000 0.00000 0.00 0.000 9.318 9.318 0.000 9.208 9.208 0.000
H15MET 2017-11-11 15:00:00 1730 208 900.0 2017.0 315.00 1500.0 6.1700 6.0410 100.000 100.000 6.1700 6.0410 0.03400 0.03400 59.11 0.053 9.461 9.461 0.000 9.377 9.377 0.000
H15MET 2017-11-11 14:45:00 1729 208 900.0 2017.0 315.00 1445.0 6.3520 6.2720 100.000 100.000 6.3520 6.2710 0.01500 0.01500 60.29 0.020 9.581 9.581 0.000 9.528 9.527 0.000
H15MET 2017-11-11 14:30:00 1728 208 900.0 2017.0 315.00 1430.0 6.3350 6.3320 100.000 100.000 6.3350 6.3320 0.01900 0.01900 47.78 1.260 9.570 9.570 0.000 9.568 9.568 0.000